<?xml version="1.0" encoding="UTF-8" standalone="no" ?>
<gpx xmlns="http://www.topografix.com/GPX/1/1" xmlns:xsi="http://www.w3.org/2001/XMLSchema-instance" xsi:schemaLocation="http://www.topografix.com/GPX/1/1 http://www.topografix.com/GPX/1/1/gpx.xsd" version="1.1" creator="VisuGPX - https://www.visugpx.com">
  <metadata>
    <name>Escapade 2015</name>
    <desc><![CDATA[sortie chez Escapade à Penne d\'Agenais]]></desc>
  </metadata>
  <trk>
    <name><![CDATA[17-MAI-15 11-36-18]]></name>
    <trkseg>
      <trkpt lat="44.46572" lon="0.9985">
        <ele>164</ele>
        <time>2015-05-17T07:53:42Z</time>
      </trkpt>
      <trkpt lat="44.46573" lon="0.99851">
        <ele>165</ele>
        <time>2015-05-17T07:54:13Z</time>
      </trkpt>
      <trkpt lat="44.46571" lon="0.99851">
        <ele>166</ele>
        <time>2015-05-17T07:54:28Z</time>
      </trkpt>
      <trkpt lat="44.46572" lon="0.99851">
        <ele>166</ele>
        <time>2015-05-17T07:54:43Z</time>
      </trkpt>
      <trkpt lat="44.46572" lon="0.99851">
        <ele>166</ele>
        <time>2015-05-17T07:55:01Z</time>
      </trkpt>
      <trkpt lat="44.4657" lon="0.9985">
        <ele>166</ele>
        <time>2015-05-17T07:55:31Z</time>
      </trkpt>
      <trkpt lat="44.4657" lon="0.9985">
        <ele>167</ele>
        <time>2015-05-17T07:55:57Z</time>
      </trkpt>
      <trkpt lat="44.4657" lon="0.99851">
        <ele>168</ele>
        <time>2015-05-17T07:56:21Z</time>
      </trkpt>
      <trkpt lat="44.4657" lon="0.99851">
        <ele>167</ele>
        <time>2015-05-17T07:56:47Z</time>
      </trkpt>
      <trkpt lat="44.4657" lon="0.99851">
        <ele>168</ele>
        <time>2015-05-17T07:57:10Z</time>
      </trkpt>
      <trkpt lat="44.4657" lon="0.99851">
        <ele>168</ele>
        <time>2015-05-17T07:57:36Z</time>
      </trkpt>
      <trkpt lat="44.46569" lon="0.99851">
        <ele>168</ele>
        <time>2015-05-17T07:58:05Z</time>
      </trkpt>
      <trkpt lat="44.46569" lon="0.99851">
        <ele>168</ele>
        <time>2015-05-17T07:58:35Z</time>
      </trkpt>
      <trkpt lat="44.46568" lon="0.9985">
        <ele>169</ele>
        <time>2015-05-17T07:58:55Z</time>
      </trkpt>
      <trkpt lat="44.46568" lon="0.9985">
        <ele>169</ele>
        <time>2015-05-17T07:59:17Z</time>
      </trkpt>
      <trkpt lat="44.46569" lon="0.9985">
        <ele>168</ele>
        <time>2015-05-17T07:59:40Z</time>
      </trkpt>
      <trkpt lat="44.46569" lon="0.9985">
        <ele>168</ele>
        <time>2015-05-17T08:00:03Z</time>
      </trkpt>
      <trkpt lat="44.46569" lon="0.99852">
        <ele>168</ele>
        <time>2015-05-17T08:00:23Z</time>
      </trkpt>
      <trkpt lat="44.46569" lon="0.99853">
        <ele>167</ele>
        <time>2015-05-17T08:00:46Z</time>
      </trkpt>
      <trkpt lat="44.46569" lon="0.99853">
        <ele>166</ele>
        <time>2015-05-17T08:01:08Z</time>
      </trkpt>
      <trkpt lat="44.46569" lon="0.99854">
        <ele>165</ele>
        <time>2015-05-17T08:01:31Z</time>
      </trkpt>
      <trkpt lat="44.46569" lon="0.99854">
        <ele>165</ele>
        <time>2015-05-17T08:01:55Z</time>
      </trkpt>
      <trkpt lat="44.46569" lon="0.99858">
        <ele>165</ele>
        <time>2015-05-17T08:02:08Z</time>
      </trkpt>
      <trkpt lat="44.46568" lon="0.99859">
        <ele>165</ele>
        <time>2015-05-17T08:02:09Z</time>
      </trkpt>
      <trkpt lat="44.46567" lon="0.9986">
        <ele>165</ele>
        <time>2015-05-17T08:02:10Z</time>
      </trkpt>
      <trkpt lat="44.46566" lon="0.99861">
        <ele>165</ele>
        <time>2015-05-17T08:02:11Z</time>
      </trkpt>
      <trkpt lat="44.46564" lon="0.99862">
        <ele>165</ele>
        <time>2015-05-17T08:02:12Z</time>
      </trkpt>
      <trkpt lat="44.46563" lon="0.99864">
        <ele>165</ele>
        <time>2015-05-17T08:02:13Z</time>
      </trkpt>
      <trkpt lat="44.46543" lon="0.99885">
        <ele>168</ele>
        <time>2015-05-17T08:02:27Z</time>
      </trkpt>
      <trkpt lat="44.46529" lon="0.9991">
        <ele>171</ele>
        <time>2015-05-17T08:02:40Z</time>
      </trkpt>
      <trkpt lat="44.46517" lon="0.99937">
        <ele>175</ele>
        <time>2015-05-17T08:02:54Z</time>
      </trkpt>
      <trkpt lat="44.46502" lon="0.99976">
        <ele>179</ele>
        <time>2015-05-17T08:03:13Z</time>
      </trkpt>
      <trkpt lat="44.4649" lon="1.00004">
        <ele>183</ele>
        <time>2015-05-17T08:03:27Z</time>
      </trkpt>
      <trkpt lat="44.46473" lon="1.00028">
        <ele>186</ele>
        <time>2015-05-17T08:03:42Z</time>
      </trkpt>
      <trkpt lat="44.46449" lon="1.00043">
        <ele>191</ele>
        <time>2015-05-17T08:03:57Z</time>
      </trkpt>
      <trkpt lat="44.46423" lon="1.0006">
        <ele>195</ele>
        <time>2015-05-17T08:04:10Z</time>
      </trkpt>
      <trkpt lat="44.46394" lon="1.00077">
        <ele>197</ele>
        <time>2015-05-17T08:04:24Z</time>
      </trkpt>
      <trkpt lat="44.46379" lon="1.00111">
        <ele>197</ele>
        <time>2015-05-17T08:04:37Z</time>
      </trkpt>
      <trkpt lat="44.46394" lon="1.00171">
        <ele>198</ele>
        <time>2015-05-17T08:04:52Z</time>
      </trkpt>
      <trkpt lat="44.46404" lon="1.00233">
        <ele>198</ele>
        <time>2015-05-17T08:05:08Z</time>
      </trkpt>
      <trkpt lat="44.46403" lon="1.00296">
        <ele>201</ele>
        <time>2015-05-17T08:05:24Z</time>
      </trkpt>
      <trkpt lat="44.46391" lon="1.00357">
        <ele>204</ele>
        <time>2015-05-17T08:05:40Z</time>
      </trkpt>
      <trkpt lat="44.46383" lon="1.00388">
        <ele>205</ele>
        <time>2015-05-17T08:05:49Z</time>
      </trkpt>
      <trkpt lat="44.46384" lon="1.00392">
        <ele>205</ele>
        <time>2015-05-17T08:05:50Z</time>
      </trkpt>
      <trkpt lat="44.46386" lon="1.00394">
        <ele>205</ele>
        <time>2015-05-17T08:05:51Z</time>
      </trkpt>
      <trkpt lat="44.46399" lon="1.00409">
        <ele>205</ele>
        <time>2015-05-17T08:05:56Z</time>
      </trkpt>
      <trkpt lat="44.46413" lon="1.00426">
        <ele>204</ele>
        <time>2015-05-17T08:06:01Z</time>
      </trkpt>
      <trkpt lat="44.46436" lon="1.00473">
        <ele>201</ele>
        <time>2015-05-17T08:06:09Z</time>
      </trkpt>
      <trkpt lat="44.46457" lon="1.00491">
        <ele>198</ele>
        <time>2015-05-17T08:06:13Z</time>
      </trkpt>
      <trkpt lat="44.465" lon="1.0052">
        <ele>191</ele>
        <time>2015-05-17T08:06:20Z</time>
      </trkpt>
      <trkpt lat="44.46513" lon="1.00538">
        <ele>188</ele>
        <time>2015-05-17T08:06:24Z</time>
      </trkpt>
      <trkpt lat="44.46561" lon="1.00598">
        <ele>182</ele>
        <time>2015-05-17T08:06:38Z</time>
      </trkpt>
      <trkpt lat="44.46577" lon="1.00608">
        <ele>180</ele>
        <time>2015-05-17T08:06:42Z</time>
      </trkpt>
      <trkpt lat="44.46624" lon="1.00639">
        <ele>173</ele>
        <time>2015-05-17T08:06:54Z</time>
      </trkpt>
      <trkpt lat="44.46641" lon="1.00656">
        <ele>167</ele>
        <time>2015-05-17T08:07:03Z</time>
      </trkpt>
      <trkpt lat="44.46664" lon="1.00687">
        <ele>160</ele>
        <time>2015-05-17T08:07:15Z</time>
      </trkpt>
      <trkpt lat="44.46703" lon="1.00737">
        <ele>154</ele>
        <time>2015-05-17T08:07:23Z</time>
      </trkpt>
      <trkpt lat="44.46711" lon="1.00749">
        <ele>153</ele>
        <time>2015-05-17T08:07:25Z</time>
      </trkpt>
      <trkpt lat="44.46715" lon="1.00752">
        <ele>153</ele>
        <time>2015-05-17T08:07:26Z</time>
      </trkpt>
      <trkpt lat="44.4672" lon="1.00752">
        <ele>153</ele>
        <time>2015-05-17T08:07:27Z</time>
      </trkpt>
      <trkpt lat="44.46725" lon="1.00752">
        <ele>153</ele>
        <time>2015-05-17T08:07:28Z</time>
      </trkpt>
      <trkpt lat="44.4673" lon="1.00751">
        <ele>153</ele>
        <time>2015-05-17T08:07:29Z</time>
      </trkpt>
      <trkpt lat="44.46736" lon="1.00749">
        <ele>153</ele>
        <time>2015-05-17T08:07:30Z</time>
      </trkpt>
      <trkpt lat="44.46762" lon="1.00748">
        <ele>153</ele>
        <time>2015-05-17T08:07:34Z</time>
      </trkpt>
      <trkpt lat="44.46782" lon="1.00756">
        <ele>153</ele>
        <time>2015-05-17T08:07:37Z</time>
      </trkpt>
      <trkpt lat="44.46832" lon="1.00795">
        <ele>154</ele>
        <time>2015-05-17T08:07:47Z</time>
      </trkpt>
      <trkpt lat="44.46837" lon="1.00799">
        <ele>154</ele>
        <time>2015-05-17T08:07:48Z</time>
      </trkpt>
      <trkpt lat="44.46842" lon="1.00803">
        <ele>154</ele>
        <time>2015-05-17T08:07:49Z</time>
      </trkpt>
      <trkpt lat="44.46853" lon="1.0081">
        <ele>153</ele>
        <time>2015-05-17T08:07:51Z</time>
      </trkpt>
      <trkpt lat="44.46858" lon="1.00813">
        <ele>153</ele>
        <time>2015-05-17T08:07:52Z</time>
      </trkpt>
      <trkpt lat="44.46867" lon="1.00817">
        <ele>153</ele>
        <time>2015-05-17T08:07:54Z</time>
      </trkpt>
      <trkpt lat="44.4687" lon="1.00821">
        <ele>152</ele>
        <time>2015-05-17T08:07:55Z</time>
      </trkpt>
      <trkpt lat="44.46872" lon="1.00827">
        <ele>153</ele>
        <time>2015-05-17T08:07:56Z</time>
      </trkpt>
      <trkpt lat="44.46873" lon="1.00833">
        <ele>153</ele>
        <time>2015-05-17T08:07:57Z</time>
      </trkpt>
      <trkpt lat="44.46873" lon="1.00839">
        <ele>153</ele>
        <time>2015-05-17T08:07:58Z</time>
      </trkpt>
      <trkpt lat="44.46873" lon="1.00845">
        <ele>153</ele>
        <time>2015-05-17T08:07:59Z</time>
      </trkpt>
      <trkpt lat="44.46872" lon="1.00864">
        <ele>154</ele>
        <time>2015-05-17T08:08:02Z</time>
      </trkpt>
      <trkpt lat="44.46871" lon="1.0087">
        <ele>154</ele>
        <time>2015-05-17T08:08:03Z</time>
      </trkpt>
      <trkpt lat="44.4687" lon="1.00877">
        <ele>155</ele>
        <time>2015-05-17T08:08:04Z</time>
      </trkpt>
      <trkpt lat="44.4687" lon="1.00883">
        <ele>155</ele>
        <time>2015-05-17T08:08:05Z</time>
      </trkpt>
      <trkpt lat="44.46869" lon="1.00889">
        <ele>156</ele>
        <time>2015-05-17T08:08:06Z</time>
      </trkpt>
      <trkpt lat="44.46869" lon="1.00896">
        <ele>156</ele>
        <time>2015-05-17T08:08:07Z</time>
      </trkpt>
      <trkpt lat="44.46869" lon="1.00922">
        <ele>157</ele>
        <time>2015-05-17T08:08:11Z</time>
      </trkpt>
      <trkpt lat="44.46868" lon="1.00928">
        <ele>158</ele>
        <time>2015-05-17T08:08:12Z</time>
      </trkpt>
      <trkpt lat="44.46858" lon="1.00984">
        <ele>161</ele>
        <time>2015-05-17T08:08:23Z</time>
      </trkpt>
      <trkpt lat="44.46849" lon="1.01028">
        <ele>166</ele>
        <time>2015-05-17T08:08:33Z</time>
      </trkpt>
      <trkpt lat="44.46865" lon="1.01062">
        <ele>166</ele>
        <time>2015-05-17T08:08:41Z</time>
      </trkpt>
      <trkpt lat="44.4687" lon="1.01067">
        <ele>165</ele>
        <time>2015-05-17T08:08:42Z</time>
      </trkpt>
      <trkpt lat="44.46876" lon="1.01071">
        <ele>165</ele>
        <time>2015-05-17T08:08:43Z</time>
      </trkpt>
      <trkpt lat="44.46883" lon="1.01075">
        <ele>164</ele>
        <time>2015-05-17T08:08:44Z</time>
      </trkpt>
      <trkpt lat="44.46889" lon="1.0108">
        <ele>163</ele>
        <time>2015-05-17T08:08:45Z</time>
      </trkpt>
      <trkpt lat="44.46894" lon="1.01086">
        <ele>161</ele>
        <time>2015-05-17T08:08:46Z</time>
      </trkpt>
      <trkpt lat="44.46924" lon="1.0113">
        <ele>153</ele>
        <time>2015-05-17T08:08:52Z</time>
      </trkpt>
      <trkpt lat="44.46943" lon="1.01147">
        <ele>147</ele>
        <time>2015-05-17T08:08:59Z</time>
      </trkpt>
      <trkpt lat="44.46958" lon="1.01155">
        <ele>143</ele>
        <time>2015-05-17T08:09:05Z</time>
      </trkpt>
      <trkpt lat="44.46963" lon="1.01159">
        <ele>142</ele>
        <time>2015-05-17T08:09:06Z</time>
      </trkpt>
      <trkpt lat="44.46968" lon="1.01164">
        <ele>142</ele>
        <time>2015-05-17T08:09:07Z</time>
      </trkpt>
      <trkpt lat="44.46973" lon="1.0117">
        <ele>141</ele>
        <time>2015-05-17T08:09:08Z</time>
      </trkpt>
      <trkpt lat="44.46977" lon="1.01177">
        <ele>141</ele>
        <time>2015-05-17T08:09:09Z</time>
      </trkpt>
      <trkpt lat="44.46999" lon="1.01208">
        <ele>139</ele>
        <time>2015-05-17T08:09:14Z</time>
      </trkpt>
      <trkpt lat="44.47003" lon="1.01212">
        <ele>138</ele>
        <time>2015-05-17T08:09:15Z</time>
      </trkpt>
      <trkpt lat="44.47014" lon="1.01217">
        <ele>137</ele>
        <time>2015-05-17T08:09:17Z</time>
      </trkpt>
      <trkpt lat="44.47025" lon="1.01221">
        <ele>134</ele>
        <time>2015-05-17T08:09:20Z</time>
      </trkpt>
      <trkpt lat="44.47026" lon="1.01224">
        <ele>134</ele>
        <time>2015-05-17T08:09:21Z</time>
      </trkpt>
      <trkpt lat="44.47027" lon="1.01227">
        <ele>134</ele>
        <time>2015-05-17T08:09:22Z</time>
      </trkpt>
      <trkpt lat="44.47027" lon="1.0123">
        <ele>134</ele>
        <time>2015-05-17T08:09:23Z</time>
      </trkpt>
      <trkpt lat="44.47026" lon="1.01234">
        <ele>134</ele>
        <time>2015-05-17T08:09:24Z</time>
      </trkpt>
      <trkpt lat="44.47024" lon="1.01239">
        <ele>134</ele>
        <time>2015-05-17T08:09:25Z</time>
      </trkpt>
      <trkpt lat="44.47015" lon="1.01266">
        <ele>135</ele>
        <time>2015-05-17T08:09:30Z</time>
      </trkpt>
      <trkpt lat="44.47013" lon="1.01271">
        <ele>135</ele>
        <time>2015-05-17T08:09:31Z</time>
      </trkpt>
      <trkpt lat="44.47002" lon="1.013">
        <ele>136</ele>
        <time>2015-05-17T08:09:36Z</time>
      </trkpt>
      <trkpt lat="44.47" lon="1.01305">
        <ele>136</ele>
        <time>2015-05-17T08:09:37Z</time>
      </trkpt>
      <trkpt lat="44.4698" lon="1.01362">
        <ele>138</ele>
        <time>2015-05-17T08:09:49Z</time>
      </trkpt>
      <trkpt lat="44.46955" lon="1.01419">
        <ele>143</ele>
        <time>2015-05-17T08:10:02Z</time>
      </trkpt>
      <trkpt lat="44.46929" lon="1.01466">
        <ele>147</ele>
        <time>2015-05-17T08:10:13Z</time>
      </trkpt>
      <trkpt lat="44.46894" lon="1.01528">
        <ele>145</ele>
        <time>2015-05-17T08:10:26Z</time>
      </trkpt>
      <trkpt lat="44.4689" lon="1.01541">
        <ele>145</ele>
        <time>2015-05-17T08:10:28Z</time>
      </trkpt>
      <trkpt lat="44.46853" lon="1.01605">
        <ele>142</ele>
        <time>2015-05-17T08:10:39Z</time>
      </trkpt>
      <trkpt lat="44.46801" lon="1.01687">
        <ele>136</ele>
        <time>2015-05-17T08:10:51Z</time>
      </trkpt>
      <trkpt lat="44.46797" lon="1.01691">
        <ele>136</ele>
        <time>2015-05-17T08:10:52Z</time>
      </trkpt>
      <trkpt lat="44.46755" lon="1.0173">
        <ele>134</ele>
        <time>2015-05-17T08:11:03Z</time>
      </trkpt>
      <trkpt lat="44.46738" lon="1.01749">
        <ele>133</ele>
        <time>2015-05-17T08:11:08Z</time>
      </trkpt>
      <trkpt lat="44.46736" lon="1.01779">
        <ele>134</ele>
        <time>2015-05-17T08:11:16Z</time>
      </trkpt>
      <trkpt lat="44.46739" lon="1.0178">
        <ele>134</ele>
        <time>2015-05-17T08:11:17Z</time>
      </trkpt>
      <trkpt lat="44.46743" lon="1.01778">
        <ele>134</ele>
        <time>2015-05-17T08:11:18Z</time>
      </trkpt>
      <trkpt lat="44.46747" lon="1.01776">
        <ele>134</ele>
        <time>2015-05-17T08:11:19Z</time>
      </trkpt>
      <trkpt lat="44.46752" lon="1.01774">
        <ele>133</ele>
        <time>2015-05-17T08:11:20Z</time>
      </trkpt>
      <trkpt lat="44.46757" lon="1.01772">
        <ele>133</ele>
        <time>2015-05-17T08:11:21Z</time>
      </trkpt>
      <trkpt lat="44.46762" lon="1.01771">
        <ele>133</ele>
        <time>2015-05-17T08:11:22Z</time>
      </trkpt>
      <trkpt lat="44.46767" lon="1.01769">
        <ele>133</ele>
        <time>2015-05-17T08:11:23Z</time>
      </trkpt>
      <trkpt lat="44.46782" lon="1.01767">
        <ele>133</ele>
        <time>2015-05-17T08:11:26Z</time>
      </trkpt>
      <trkpt lat="44.46786" lon="1.01768">
        <ele>133</ele>
        <time>2015-05-17T08:11:27Z</time>
      </trkpt>
      <trkpt lat="44.4679" lon="1.01768">
        <ele>133</ele>
        <time>2015-05-17T08:11:28Z</time>
      </trkpt>
      <trkpt lat="44.46794" lon="1.01768">
        <ele>133</ele>
        <time>2015-05-17T08:11:29Z</time>
      </trkpt>
      <trkpt lat="44.46798" lon="1.01768">
        <ele>133</ele>
        <time>2015-05-17T08:11:30Z</time>
      </trkpt>
      <trkpt lat="44.46802" lon="1.01767">
        <ele>133</ele>
        <time>2015-05-17T08:11:31Z</time>
      </trkpt>
      <trkpt lat="44.46816" lon="1.01763">
        <ele>131</ele>
        <time>2015-05-17T08:11:34Z</time>
      </trkpt>
      <trkpt lat="44.46828" lon="1.01761">
        <ele>129</ele>
        <time>2015-05-17T08:11:36Z</time>
      </trkpt>
      <trkpt lat="44.46846" lon="1.01747">
        <ele>128</ele>
        <time>2015-05-17T08:11:40Z</time>
      </trkpt>
      <trkpt lat="44.46855" lon="1.01728">
        <ele>126</ele>
        <time>2015-05-17T08:11:43Z</time>
      </trkpt>
      <trkpt lat="44.46867" lon="1.01709">
        <ele>125</ele>
        <time>2015-05-17T08:11:46Z</time>
      </trkpt>
      <trkpt lat="44.46915" lon="1.01658">
        <ele>121</ele>
        <time>2015-05-17T08:11:56Z</time>
      </trkpt>
      <trkpt lat="44.46944" lon="1.01638">
        <ele>119</ele>
        <time>2015-05-17T08:12:01Z</time>
      </trkpt>
      <trkpt lat="44.47034" lon="1.01623">
        <ele>113</ele>
        <time>2015-05-17T08:12:16Z</time>
      </trkpt>
      <trkpt lat="44.47092" lon="1.01607">
        <ele>111</ele>
        <time>2015-05-17T08:12:27Z</time>
      </trkpt>
      <trkpt lat="44.47093" lon="1.01609">
        <ele>111</ele>
        <time>2015-05-17T08:12:28Z</time>
      </trkpt>
      <trkpt lat="44.47093" lon="1.0161">
        <ele>112</ele>
        <time>2015-05-17T08:12:29Z</time>
      </trkpt>
      <trkpt lat="44.47093" lon="1.01613">
        <ele>112</ele>
        <time>2015-05-17T08:12:30Z</time>
      </trkpt>
      <trkpt lat="44.47093" lon="1.01615">
        <ele>113</ele>
        <time>2015-05-17T08:12:31Z</time>
      </trkpt>
      <trkpt lat="44.47091" lon="1.01662">
        <ele>121</ele>
        <time>2015-05-17T08:12:45Z</time>
      </trkpt>
      <trkpt lat="44.47085" lon="1.01724">
        <ele>128</ele>
        <time>2015-05-17T08:12:58Z</time>
      </trkpt>
      <trkpt lat="44.47077" lon="1.01802">
        <ele>131</ele>
        <time>2015-05-17T08:13:13Z</time>
      </trkpt>
      <trkpt lat="44.4707" lon="1.01873">
        <ele>131</ele>
        <time>2015-05-17T08:13:27Z</time>
      </trkpt>
      <trkpt lat="44.47069" lon="1.01879">
        <ele>131</ele>
        <time>2015-05-17T08:13:28Z</time>
      </trkpt>
      <trkpt lat="44.47069" lon="1.01979">
        <ele>137</ele>
        <time>2015-05-17T08:13:44Z</time>
      </trkpt>
      <trkpt lat="44.47073" lon="1.02024">
        <ele>140</ele>
        <time>2015-05-17T08:13:51Z</time>
      </trkpt>
      <trkpt lat="44.47087" lon="1.02109">
        <ele>140</ele>
        <time>2015-05-17T08:14:06Z</time>
      </trkpt>
      <trkpt lat="44.47103" lon="1.02175">
        <ele>139</ele>
        <time>2015-05-17T08:14:20Z</time>
      </trkpt>
      <trkpt lat="44.47119" lon="1.02232">
        <ele>138</ele>
        <time>2015-05-17T08:14:33Z</time>
      </trkpt>
      <trkpt lat="44.4714" lon="1.023">
        <ele>138</ele>
        <time>2015-05-17T08:14:49Z</time>
      </trkpt>
      <trkpt lat="44.47152" lon="1.02365">
        <ele>141</ele>
        <time>2015-05-17T08:15:04Z</time>
      </trkpt>
      <trkpt lat="44.47165" lon="1.02429">
        <ele>145</ele>
        <time>2015-05-17T08:15:19Z</time>
      </trkpt>
      <trkpt lat="44.47171" lon="1.02486">
        <ele>150</ele>
        <time>2015-05-17T08:15:33Z</time>
      </trkpt>
      <trkpt lat="44.47155" lon="1.02542">
        <ele>153</ele>
        <time>2015-05-17T08:15:47Z</time>
      </trkpt>
      <trkpt lat="44.47137" lon="1.026">
        <ele>158</ele>
        <time>2015-05-17T08:16:01Z</time>
      </trkpt>
      <trkpt lat="44.47128" lon="1.02661">
        <ele>163</ele>
        <time>2015-05-17T08:16:14Z</time>
      </trkpt>
      <trkpt lat="44.47121" lon="1.0271">
        <ele>164</ele>
        <time>2015-05-17T08:16:26Z</time>
      </trkpt>
      <trkpt lat="44.47116" lon="1.02713">
        <ele>163</ele>
        <time>2015-05-17T08:16:29Z</time>
      </trkpt>
      <trkpt lat="44.47086" lon="1.02722">
        <ele>162</ele>
        <time>2015-05-17T08:16:43Z</time>
      </trkpt>
      <trkpt lat="44.47055" lon="1.02736">
        <ele>165</ele>
        <time>2015-05-17T08:16:55Z</time>
      </trkpt>
      <trkpt lat="44.47027" lon="1.02741">
        <ele>166</ele>
        <time>2015-05-17T08:17:07Z</time>
      </trkpt>
      <trkpt lat="44.47006" lon="1.02735">
        <ele>169</ele>
        <time>2015-05-17T08:17:21Z</time>
      </trkpt>
      <trkpt lat="44.46993" lon="1.02729">
        <ele>171</ele>
        <time>2015-05-17T08:17:31Z</time>
      </trkpt>
      <trkpt lat="44.46987" lon="1.02726">
        <ele>172</ele>
        <time>2015-05-17T08:17:35Z</time>
      </trkpt>
      <trkpt lat="44.46982" lon="1.02725">
        <ele>173</ele>
        <time>2015-05-17T08:17:38Z</time>
      </trkpt>
      <trkpt lat="44.46976" lon="1.02723">
        <ele>175</ele>
        <time>2015-05-17T08:17:42Z</time>
      </trkpt>
      <trkpt lat="44.4697" lon="1.0272">
        <ele>175</ele>
        <time>2015-05-17T08:17:46Z</time>
      </trkpt>
      <trkpt lat="44.46959" lon="1.02715">
        <ele>177</ele>
        <time>2015-05-17T08:17:53Z</time>
      </trkpt>
      <trkpt lat="44.46941" lon="1.02709">
        <ele>181</ele>
        <time>2015-05-17T08:18:05Z</time>
      </trkpt>
      <trkpt lat="44.46939" lon="1.02709">
        <ele>181</ele>
        <time>2015-05-17T08:18:07Z</time>
      </trkpt>
      <trkpt lat="44.46908" lon="1.02711">
        <ele>183</ele>
        <time>2015-05-17T08:18:22Z</time>
      </trkpt>
      <trkpt lat="44.46884" lon="1.02703">
        <ele>181</ele>
        <time>2015-05-17T08:18:35Z</time>
      </trkpt>
      <trkpt lat="44.46863" lon="1.02692">
        <ele>185</ele>
        <time>2015-05-17T08:18:46Z</time>
      </trkpt>
      <trkpt lat="44.46833" lon="1.02678">
        <ele>187</ele>
        <time>2015-05-17T08:19:00Z</time>
      </trkpt>
      <trkpt lat="44.46815" lon="1.02664">
        <ele>190</ele>
        <time>2015-05-17T08:19:13Z</time>
      </trkpt>
      <trkpt lat="44.46801" lon="1.02648">
        <ele>193</ele>
        <time>2015-05-17T08:19:27Z</time>
      </trkpt>
      <trkpt lat="44.46795" lon="1.02642">
        <ele>194</ele>
        <time>2015-05-17T08:19:32Z</time>
      </trkpt>
      <trkpt lat="44.4679" lon="1.02638">
        <ele>195</ele>
        <time>2015-05-17T08:19:36Z</time>
      </trkpt>
      <trkpt lat="44.46783" lon="1.02633">
        <ele>197</ele>
        <time>2015-05-17T08:19:41Z</time>
      </trkpt>
      <trkpt lat="44.46779" lon="1.0263">
        <ele>199</ele>
        <time>2015-05-17T08:19:45Z</time>
      </trkpt>
      <trkpt lat="44.46767" lon="1.02619">
        <ele>201</ele>
        <time>2015-05-17T08:19:54Z</time>
      </trkpt>
      <trkpt lat="44.46763" lon="1.02616">
        <ele>202</ele>
        <time>2015-05-17T08:19:57Z</time>
      </trkpt>
      <trkpt lat="44.46747" lon="1.02607">
        <ele>202</ele>
        <time>2015-05-17T08:20:07Z</time>
      </trkpt>
      <trkpt lat="44.46718" lon="1.02617">
        <ele>205</ele>
        <time>2015-05-17T08:20:20Z</time>
      </trkpt>
      <trkpt lat="44.46693" lon="1.02658">
        <ele>206</ele>
        <time>2015-05-17T08:20:33Z</time>
      </trkpt>
      <trkpt lat="44.46668" lon="1.02705">
        <ele>209</ele>
        <time>2015-05-17T08:20:48Z</time>
      </trkpt>
      <trkpt lat="44.4664" lon="1.0276">
        <ele>211</ele>
        <time>2015-05-17T08:21:04Z</time>
      </trkpt>
      <trkpt lat="44.4661" lon="1.02804">
        <ele>212</ele>
        <time>2015-05-17T08:21:19Z</time>
      </trkpt>
      <trkpt lat="44.46584" lon="1.0285">
        <ele>214</ele>
        <time>2015-05-17T08:21:34Z</time>
      </trkpt>
      <trkpt lat="44.46556" lon="1.02901">
        <ele>218</ele>
        <time>2015-05-17T08:21:50Z</time>
      </trkpt>
      <trkpt lat="44.46528" lon="1.02951">
        <ele>222</ele>
        <time>2015-05-17T08:22:06Z</time>
      </trkpt>
      <trkpt lat="44.46512" lon="1.02992">
        <ele>226</ele>
        <time>2015-05-17T08:22:18Z</time>
      </trkpt>
      <trkpt lat="44.46506" lon="1.03026">
        <ele>226</ele>
        <time>2015-05-17T08:22:25Z</time>
      </trkpt>
      <trkpt lat="44.46493" lon="1.03118">
        <ele>227</ele>
        <time>2015-05-17T08:22:41Z</time>
      </trkpt>
      <trkpt lat="44.46492" lon="1.03174">
        <ele>227</ele>
        <time>2015-05-17T08:22:51Z</time>
      </trkpt>
      <trkpt lat="44.4649" lon="1.03179">
        <ele>227</ele>
        <time>2015-05-17T08:22:52Z</time>
      </trkpt>
      <trkpt lat="44.46488" lon="1.03184">
        <ele>227</ele>
        <time>2015-05-17T08:22:53Z</time>
      </trkpt>
      <trkpt lat="44.46485" lon="1.03188">
        <ele>227</ele>
        <time>2015-05-17T08:22:54Z</time>
      </trkpt>
      <trkpt lat="44.46481" lon="1.03191">
        <ele>227</ele>
        <time>2015-05-17T08:22:55Z</time>
      </trkpt>
      <trkpt lat="44.46478" lon="1.03194">
        <ele>228</ele>
        <time>2015-05-17T08:22:56Z</time>
      </trkpt>
      <trkpt lat="44.46445" lon="1.0323">
        <ele>230</ele>
        <time>2015-05-17T08:23:07Z</time>
      </trkpt>
      <trkpt lat="44.46446" lon="1.03235">
        <ele>230</ele>
        <time>2015-05-17T08:23:08Z</time>
      </trkpt>
      <trkpt lat="44.46447" lon="1.03241">
        <ele>231</ele>
        <time>2015-05-17T08:23:09Z</time>
      </trkpt>
      <trkpt lat="44.4645" lon="1.03246">
        <ele>231</ele>
        <time>2015-05-17T08:23:10Z</time>
      </trkpt>
      <trkpt lat="44.46452" lon="1.03251">
        <ele>230</ele>
        <time>2015-05-17T08:23:11Z</time>
      </trkpt>
      <trkpt lat="44.46455" lon="1.03257">
        <ele>230</ele>
        <time>2015-05-17T08:23:12Z</time>
      </trkpt>
      <trkpt lat="44.46502" lon="1.03348">
        <ele>226</ele>
        <time>2015-05-17T08:23:25Z</time>
      </trkpt>
      <trkpt lat="44.46542" lon="1.03429">
        <ele>226</ele>
        <time>2015-05-17T08:23:37Z</time>
      </trkpt>
      <trkpt lat="44.46551" lon="1.03455">
        <ele>226</ele>
        <time>2015-05-17T08:23:41Z</time>
      </trkpt>
      <trkpt lat="44.46556" lon="1.03474">
        <ele>227</ele>
        <time>2015-05-17T08:23:44Z</time>
      </trkpt>
      <trkpt lat="44.46576" lon="1.03566">
        <ele>228</ele>
        <time>2015-05-17T08:23:59Z</time>
      </trkpt>
      <trkpt lat="44.46577" lon="1.03572">
        <ele>228</ele>
        <time>2015-05-17T08:24:00Z</time>
      </trkpt>
      <trkpt lat="44.46595" lon="1.03686">
        <ele>229</ele>
        <time>2015-05-17T08:24:16Z</time>
      </trkpt>
      <trkpt lat="44.46624" lon="1.03829">
        <ele>227</ele>
        <time>2015-05-17T08:24:33Z</time>
      </trkpt>
      <trkpt lat="44.46662" lon="1.03983">
        <ele>227</ele>
        <time>2015-05-17T08:24:51Z</time>
      </trkpt>
      <trkpt lat="44.46707" lon="1.04115">
        <ele>229</ele>
        <time>2015-05-17T08:25:09Z</time>
      </trkpt>
      <trkpt lat="44.46759" lon="1.04206">
        <ele>228</ele>
        <time>2015-05-17T08:25:22Z</time>
      </trkpt>
      <trkpt lat="44.46763" lon="1.04214">
        <ele>228</ele>
        <time>2015-05-17T08:25:23Z</time>
      </trkpt>
      <trkpt lat="44.46766" lon="1.04223">
        <ele>228</ele>
        <time>2015-05-17T08:25:24Z</time>
      </trkpt>
      <trkpt lat="44.4677" lon="1.04241">
        <ele>227</ele>
        <time>2015-05-17T08:25:26Z</time>
      </trkpt>
      <trkpt lat="44.46789" lon="1.04394">
        <ele>221</ele>
        <time>2015-05-17T08:25:39Z</time>
      </trkpt>
      <trkpt lat="44.46803" lon="1.04527">
        <ele>218</ele>
        <time>2015-05-17T08:25:50Z</time>
      </trkpt>
      <trkpt lat="44.46801" lon="1.04538">
        <ele>218</ele>
        <time>2015-05-17T08:25:51Z</time>
      </trkpt>
      <trkpt lat="44.46797" lon="1.04548">
        <ele>218</ele>
        <time>2015-05-17T08:25:52Z</time>
      </trkpt>
      <trkpt lat="44.46793" lon="1.04557">
        <ele>218</ele>
        <time>2015-05-17T08:25:53Z</time>
      </trkpt>
      <trkpt lat="44.46789" lon="1.04566">
        <ele>218</ele>
        <time>2015-05-17T08:25:54Z</time>
      </trkpt>
      <trkpt lat="44.46755" lon="1.04659">
        <ele>218</ele>
        <time>2015-05-17T08:26:06Z</time>
      </trkpt>
      <trkpt lat="44.46756" lon="1.04663">
        <ele>218</ele>
        <time>2015-05-17T08:26:07Z</time>
      </trkpt>
      <trkpt lat="44.46758" lon="1.04666">
        <ele>219</ele>
        <time>2015-05-17T08:26:08Z</time>
      </trkpt>
      <trkpt lat="44.46763" lon="1.04671">
        <ele>219</ele>
        <time>2015-05-17T08:26:10Z</time>
      </trkpt>
      <trkpt lat="44.46799" lon="1.04688">
        <ele>222</ele>
        <time>2015-05-17T08:26:24Z</time>
      </trkpt>
      <trkpt lat="44.46828" lon="1.04704">
        <ele>227</ele>
        <time>2015-05-17T08:26:37Z</time>
      </trkpt>
      <trkpt lat="44.46859" lon="1.04728">
        <ele>231</ele>
        <time>2015-05-17T08:26:49Z</time>
      </trkpt>
      <trkpt lat="44.46885" lon="1.04778">
        <ele>230</ele>
        <time>2015-05-17T08:27:00Z</time>
      </trkpt>
      <trkpt lat="44.46919" lon="1.04854">
        <ele>231</ele>
        <time>2015-05-17T08:27:15Z</time>
      </trkpt>
      <trkpt lat="44.46925" lon="1.04863">
        <ele>231</ele>
        <time>2015-05-17T08:27:17Z</time>
      </trkpt>
      <trkpt lat="44.46928" lon="1.04867">
        <ele>231</ele>
        <time>2015-05-17T08:27:18Z</time>
      </trkpt>
      <trkpt lat="44.46932" lon="1.04871">
        <ele>231</ele>
        <time>2015-05-17T08:27:19Z</time>
      </trkpt>
      <trkpt lat="44.47005" lon="1.0493">
        <ele>231</ele>
        <time>2015-05-17T08:27:37Z</time>
      </trkpt>
      <trkpt lat="44.47062" lon="1.04975">
        <ele>234</ele>
        <time>2015-05-17T08:27:51Z</time>
      </trkpt>
      <trkpt lat="44.47066" lon="1.04979">
        <ele>234</ele>
        <time>2015-05-17T08:27:52Z</time>
      </trkpt>
      <trkpt lat="44.47135" lon="1.0504">
        <ele>232</ele>
        <time>2015-05-17T08:28:06Z</time>
      </trkpt>
      <trkpt lat="44.47185" lon="1.05082">
        <ele>231</ele>
        <time>2015-05-17T08:28:16Z</time>
      </trkpt>
      <trkpt lat="44.47186" lon="1.05101">
        <ele>231</ele>
        <time>2015-05-17T08:28:21Z</time>
      </trkpt>
      <trkpt lat="44.4714" lon="1.05177">
        <ele>234</ele>
        <time>2015-05-17T08:28:41Z</time>
      </trkpt>
      <trkpt lat="44.47097" lon="1.05234">
        <ele>237</ele>
        <time>2015-05-17T08:28:58Z</time>
      </trkpt>
      <trkpt lat="44.47061" lon="1.05283">
        <ele>239</ele>
        <time>2015-05-17T08:29:12Z</time>
      </trkpt>
      <trkpt lat="44.47026" lon="1.05316">
        <ele>238</ele>
        <time>2015-05-17T08:29:22Z</time>
      </trkpt>
      <trkpt lat="44.47008" lon="1.05351">
        <ele>238</ele>
        <time>2015-05-17T08:29:28Z</time>
      </trkpt>
      <trkpt lat="44.46993" lon="1.05419">
        <ele>238</ele>
        <time>2015-05-17T08:29:38Z</time>
      </trkpt>
      <trkpt lat="44.46992" lon="1.05437">
        <ele>238</ele>
        <time>2015-05-17T08:29:41Z</time>
      </trkpt>
      <trkpt lat="44.46989" lon="1.0544">
        <ele>238</ele>
        <time>2015-05-17T08:29:42Z</time>
      </trkpt>
      <trkpt lat="44.46986" lon="1.05441">
        <ele>237</ele>
        <time>2015-05-17T08:29:43Z</time>
      </trkpt>
      <trkpt lat="44.46983" lon="1.05441">
        <ele>237</ele>
        <time>2015-05-17T08:29:44Z</time>
      </trkpt>
      <trkpt lat="44.46968" lon="1.0544">
        <ele>237</ele>
        <time>2015-05-17T08:29:47Z</time>
      </trkpt>
      <trkpt lat="44.46879" lon="1.05433">
        <ele>234</ele>
        <time>2015-05-17T08:30:01Z</time>
      </trkpt>
      <trkpt lat="44.46849" lon="1.0543">
        <ele>234</ele>
        <time>2015-05-17T08:30:06Z</time>
      </trkpt>
      <trkpt lat="44.46766" lon="1.05437">
        <ele>232</ele>
        <time>2015-05-17T08:30:19Z</time>
      </trkpt>
      <trkpt lat="44.4672" lon="1.05428">
        <ele>229</ele>
        <time>2015-05-17T08:30:26Z</time>
      </trkpt>
      <trkpt lat="44.46716" lon="1.05428">
        <ele>229</ele>
        <time>2015-05-17T08:30:27Z</time>
      </trkpt>
      <trkpt lat="44.46711" lon="1.0543">
        <ele>229</ele>
        <time>2015-05-17T08:30:28Z</time>
      </trkpt>
      <trkpt lat="44.46707" lon="1.05435">
        <ele>229</ele>
        <time>2015-05-17T08:30:29Z</time>
      </trkpt>
      <trkpt lat="44.46704" lon="1.05441">
        <ele>229</ele>
        <time>2015-05-17T08:30:30Z</time>
      </trkpt>
      <trkpt lat="44.467" lon="1.05447">
        <ele>228</ele>
        <time>2015-05-17T08:30:31Z</time>
      </trkpt>
      <trkpt lat="44.46693" lon="1.0546">
        <ele>228</ele>
        <time>2015-05-17T08:30:33Z</time>
      </trkpt>
      <trkpt lat="44.46691" lon="1.05467">
        <ele>228</ele>
        <time>2015-05-17T08:30:34Z</time>
      </trkpt>
      <trkpt lat="44.46687" lon="1.05481">
        <ele>228</ele>
        <time>2015-05-17T08:30:36Z</time>
      </trkpt>
      <trkpt lat="44.46683" lon="1.05502">
        <ele>228</ele>
        <time>2015-05-17T08:30:39Z</time>
      </trkpt>
      <trkpt lat="44.46687" lon="1.05614">
        <ele>229</ele>
        <time>2015-05-17T08:30:55Z</time>
      </trkpt>
      <trkpt lat="44.46685" lon="1.05616">
        <ele>229</ele>
        <time>2015-05-17T08:30:56Z</time>
      </trkpt>
      <trkpt lat="44.46683" lon="1.05618">
        <ele>229</ele>
        <time>2015-05-17T08:30:57Z</time>
      </trkpt>
      <trkpt lat="44.4668" lon="1.0562">
        <ele>229</ele>
        <time>2015-05-17T08:30:58Z</time>
      </trkpt>
      <trkpt lat="44.4667" lon="1.05625">
        <ele>229</ele>
        <time>2015-05-17T08:31:05Z</time>
      </trkpt>
      <trkpt lat="44.46659" lon="1.05667">
        <ele>233</ele>
        <time>2015-05-17T08:31:16Z</time>
      </trkpt>
      <trkpt lat="44.4664" lon="1.0571">
        <ele>236</ele>
        <time>2015-05-17T08:31:25Z</time>
      </trkpt>
      <trkpt lat="44.46632" lon="1.05733">
        <ele>236</ele>
        <time>2015-05-17T08:31:29Z</time>
      </trkpt>
      <trkpt lat="44.46614" lon="1.05799">
        <ele>235</ele>
        <time>2015-05-17T08:31:41Z</time>
      </trkpt>
      <trkpt lat="44.46607" lon="1.05821">
        <ele>234</ele>
        <time>2015-05-17T08:31:45Z</time>
      </trkpt>
      <trkpt lat="44.466" lon="1.05854">
        <ele>234</ele>
        <time>2015-05-17T08:31:51Z</time>
      </trkpt>
      <trkpt lat="44.46597" lon="1.05866">
        <ele>234</ele>
        <time>2015-05-17T08:31:53Z</time>
      </trkpt>
      <trkpt lat="44.46582" lon="1.05917">
        <ele>232</ele>
        <time>2015-05-17T08:32:02Z</time>
      </trkpt>
      <trkpt lat="44.4658" lon="1.05923">
        <ele>232</ele>
        <time>2015-05-17T08:32:03Z</time>
      </trkpt>
      <trkpt lat="44.46569" lon="1.05963">
        <ele>232</ele>
        <time>2015-05-17T08:32:11Z</time>
      </trkpt>
      <trkpt lat="44.46575" lon="1.05968">
        <ele>233</ele>
        <time>2015-05-17T08:32:14Z</time>
      </trkpt>
      <trkpt lat="44.46576" lon="1.05971">
        <ele>233</ele>
        <time>2015-05-17T08:32:15Z</time>
      </trkpt>
      <trkpt lat="44.46576" lon="1.05975">
        <ele>233</ele>
        <time>2015-05-17T08:32:16Z</time>
      </trkpt>
      <trkpt lat="44.46574" lon="1.05979">
        <ele>233</ele>
        <time>2015-05-17T08:32:17Z</time>
      </trkpt>
      <trkpt lat="44.46572" lon="1.05984">
        <ele>232</ele>
        <time>2015-05-17T08:32:18Z</time>
      </trkpt>
      <trkpt lat="44.4657" lon="1.0599">
        <ele>232</ele>
        <time>2015-05-17T08:32:19Z</time>
      </trkpt>
      <trkpt lat="44.46536" lon="1.06091">
        <ele>234</ele>
        <time>2015-05-17T08:32:36Z</time>
      </trkpt>
      <trkpt lat="44.46503" lon="1.06188">
        <ele>236</ele>
        <time>2015-05-17T08:32:52Z</time>
      </trkpt>
      <trkpt lat="44.46495" lon="1.06212">
        <ele>237</ele>
        <time>2015-05-17T08:32:56Z</time>
      </trkpt>
      <trkpt lat="44.46493" lon="1.06218">
        <ele>238</ele>
        <time>2015-05-17T08:32:57Z</time>
      </trkpt>
      <trkpt lat="44.4648" lon="1.06257">
        <ele>240</ele>
        <time>2015-05-17T08:33:04Z</time>
      </trkpt>
      <trkpt lat="44.46457" lon="1.06346">
        <ele>242</ele>
        <time>2015-05-17T08:33:20Z</time>
      </trkpt>
      <trkpt lat="44.46455" lon="1.06352">
        <ele>242</ele>
        <time>2015-05-17T08:33:21Z</time>
      </trkpt>
      <trkpt lat="44.46451" lon="1.06369">
        <ele>243</ele>
        <time>2015-05-17T08:33:24Z</time>
      </trkpt>
      <trkpt lat="44.46447" lon="1.06408">
        <ele>244</ele>
        <time>2015-05-17T08:33:31Z</time>
      </trkpt>
      <trkpt lat="44.46446" lon="1.06426">
        <ele>244</ele>
        <time>2015-05-17T08:33:34Z</time>
      </trkpt>
      <trkpt lat="44.46446" lon="1.06432">
        <ele>244</ele>
        <time>2015-05-17T08:33:35Z</time>
      </trkpt>
      <trkpt lat="44.46448" lon="1.06451">
        <ele>243</ele>
        <time>2015-05-17T08:33:38Z</time>
      </trkpt>
      <trkpt lat="44.46448" lon="1.06458">
        <ele>243</ele>
        <time>2015-05-17T08:33:39Z</time>
      </trkpt>
      <trkpt lat="44.46449" lon="1.06477">
        <ele>243</ele>
        <time>2015-05-17T08:33:42Z</time>
      </trkpt>
      <trkpt lat="44.46448" lon="1.06484">
        <ele>243</ele>
        <time>2015-05-17T08:33:43Z</time>
      </trkpt>
      <trkpt lat="44.46438" lon="1.06576">
        <ele>243</ele>
        <time>2015-05-17T08:33:57Z</time>
      </trkpt>
      <trkpt lat="44.46437" lon="1.06582">
        <ele>243</ele>
        <time>2015-05-17T08:33:58Z</time>
      </trkpt>
      <trkpt lat="44.46435" lon="1.06601">
        <ele>243</ele>
        <time>2015-05-17T08:34:01Z</time>
      </trkpt>
      <trkpt lat="44.46436" lon="1.06606">
        <ele>242</ele>
        <time>2015-05-17T08:34:02Z</time>
      </trkpt>
      <trkpt lat="44.46439" lon="1.06611">
        <ele>242</ele>
        <time>2015-05-17T08:34:03Z</time>
      </trkpt>
      <trkpt lat="44.46442" lon="1.06617">
        <ele>242</ele>
        <time>2015-05-17T08:34:04Z</time>
      </trkpt>
      <trkpt lat="44.46451" lon="1.06627">
        <ele>241</ele>
        <time>2015-05-17T08:34:06Z</time>
      </trkpt>
      <trkpt lat="44.46462" lon="1.06635">
        <ele>241</ele>
        <time>2015-05-17T08:34:08Z</time>
      </trkpt>
      <trkpt lat="44.46479" lon="1.06652">
        <ele>240</ele>
        <time>2015-05-17T08:34:11Z</time>
      </trkpt>
      <trkpt lat="44.46518" lon="1.06742">
        <ele>238</ele>
        <time>2015-05-17T08:34:22Z</time>
      </trkpt>
      <trkpt lat="44.46539" lon="1.06773">
        <ele>237</ele>
        <time>2015-05-17T08:34:28Z</time>
      </trkpt>
      <trkpt lat="44.4654" lon="1.06781">
        <ele>238</ele>
        <time>2015-05-17T08:34:30Z</time>
      </trkpt>
      <trkpt lat="44.4654" lon="1.06784">
        <ele>238</ele>
        <time>2015-05-17T08:34:31Z</time>
      </trkpt>
      <trkpt lat="44.46539" lon="1.06788">
        <ele>238</ele>
        <time>2015-05-17T08:34:32Z</time>
      </trkpt>
      <trkpt lat="44.46538" lon="1.06791">
        <ele>239</ele>
        <time>2015-05-17T08:34:33Z</time>
      </trkpt>
      <trkpt lat="44.46536" lon="1.06795">
        <ele>239</ele>
        <time>2015-05-17T08:34:34Z</time>
      </trkpt>
      <trkpt lat="44.46533" lon="1.06798">
        <ele>239</ele>
        <time>2015-05-17T08:34:35Z</time>
      </trkpt>
      <trkpt lat="44.46531" lon="1.06801">
        <ele>239</ele>
        <time>2015-05-17T08:34:36Z</time>
      </trkpt>
      <trkpt lat="44.46529" lon="1.06806">
        <ele>239</ele>
        <time>2015-05-17T08:34:37Z</time>
      </trkpt>
      <trkpt lat="44.46528" lon="1.0681">
        <ele>239</ele>
        <time>2015-05-17T08:34:38Z</time>
      </trkpt>
      <trkpt lat="44.46528" lon="1.06815">
        <ele>239</ele>
        <time>2015-05-17T08:34:39Z</time>
      </trkpt>
      <trkpt lat="44.46528" lon="1.06821">
        <ele>239</ele>
        <time>2015-05-17T08:34:40Z</time>
      </trkpt>
      <trkpt lat="44.46529" lon="1.06826">
        <ele>240</ele>
        <time>2015-05-17T08:34:41Z</time>
      </trkpt>
      <trkpt lat="44.46541" lon="1.06893">
        <ele>241</ele>
        <time>2015-05-17T08:34:54Z</time>
      </trkpt>
      <trkpt lat="44.46544" lon="1.06896">
        <ele>240</ele>
        <time>2015-05-17T08:34:55Z</time>
      </trkpt>
      <trkpt lat="44.46547" lon="1.06898">
        <ele>240</ele>
        <time>2015-05-17T08:34:56Z</time>
      </trkpt>
      <trkpt lat="44.46551" lon="1.06899">
        <ele>240</ele>
        <time>2015-05-17T08:34:57Z</time>
      </trkpt>
      <trkpt lat="44.46556" lon="1.069">
        <ele>240</ele>
        <time>2015-05-17T08:34:58Z</time>
      </trkpt>
      <trkpt lat="44.4656" lon="1.06901">
        <ele>241</ele>
        <time>2015-05-17T08:34:59Z</time>
      </trkpt>
      <trkpt lat="44.46564" lon="1.06904">
        <ele>241</ele>
        <time>2015-05-17T08:35:00Z</time>
      </trkpt>
      <trkpt lat="44.46567" lon="1.06908">
        <ele>241</ele>
        <time>2015-05-17T08:35:01Z</time>
      </trkpt>
      <trkpt lat="44.4657" lon="1.06913">
        <ele>241</ele>
        <time>2015-05-17T08:35:02Z</time>
      </trkpt>
      <trkpt lat="44.46572" lon="1.06918">
        <ele>242</ele>
        <time>2015-05-17T08:35:03Z</time>
      </trkpt>
      <trkpt lat="44.46574" lon="1.06924">
        <ele>242</ele>
        <time>2015-05-17T08:35:04Z</time>
      </trkpt>
      <trkpt lat="44.46577" lon="1.06936">
        <ele>241</ele>
        <time>2015-05-17T08:35:06Z</time>
      </trkpt>
      <trkpt lat="44.46579" lon="1.06942">
        <ele>241</ele>
        <time>2015-05-17T08:35:07Z</time>
      </trkpt>
      <trkpt lat="44.46587" lon="1.06995">
        <ele>240</ele>
        <time>2015-05-17T08:35:14Z</time>
      </trkpt>
      <trkpt lat="44.46593" lon="1.07022">
        <ele>239</ele>
        <time>2015-05-17T08:35:17Z</time>
      </trkpt>
      <trkpt lat="44.46594" lon="1.07032">
        <ele>239</ele>
        <time>2015-05-17T08:35:18Z</time>
      </trkpt>
      <trkpt lat="44.46594" lon="1.07043">
        <ele>239</ele>
        <time>2015-05-17T08:35:19Z</time>
      </trkpt>
      <trkpt lat="44.46587" lon="1.07139">
        <ele>238</ele>
        <time>2015-05-17T08:35:28Z</time>
      </trkpt>
      <trkpt lat="44.46585" lon="1.07148">
        <ele>238</ele>
        <time>2015-05-17T08:35:29Z</time>
      </trkpt>
      <trkpt lat="44.46582" lon="1.07156">
        <ele>238</ele>
        <time>2015-05-17T08:35:30Z</time>
      </trkpt>
      <trkpt lat="44.46571" lon="1.0718">
        <ele>238</ele>
        <time>2015-05-17T08:35:33Z</time>
      </trkpt>
      <trkpt lat="44.4657" lon="1.0719">
        <ele>238</ele>
        <time>2015-05-17T08:35:34Z</time>
      </trkpt>
      <trkpt lat="44.46569" lon="1.07199">
        <ele>238</ele>
        <time>2015-05-17T08:35:35Z</time>
      </trkpt>
      <trkpt lat="44.46569" lon="1.07209">
        <ele>238</ele>
        <time>2015-05-17T08:35:36Z</time>
      </trkpt>
      <trkpt lat="44.4657" lon="1.07218">
        <ele>237</ele>
        <time>2015-05-17T08:35:37Z</time>
      </trkpt>
      <trkpt lat="44.4658" lon="1.07346">
        <ele>236</ele>
        <time>2015-05-17T08:35:52Z</time>
      </trkpt>
      <trkpt lat="44.46584" lon="1.0739">
        <ele>236</ele>
        <time>2015-05-17T08:35:58Z</time>
      </trkpt>
      <trkpt lat="44.46587" lon="1.07412">
        <ele>236</ele>
        <time>2015-05-17T08:36:01Z</time>
      </trkpt>
      <trkpt lat="44.46597" lon="1.07438">
        <ele>236</ele>
        <time>2015-05-17T08:36:05Z</time>
      </trkpt>
      <trkpt lat="44.46604" lon="1.07449">
        <ele>236</ele>
        <time>2015-05-17T08:36:07Z</time>
      </trkpt>
      <trkpt lat="44.46616" lon="1.07461">
        <ele>236</ele>
        <time>2015-05-17T08:36:10Z</time>
      </trkpt>
      <trkpt lat="44.46645" lon="1.07498">
        <ele>236</ele>
        <time>2015-05-17T08:36:18Z</time>
      </trkpt>
      <trkpt lat="44.46671" lon="1.07559">
        <ele>238</ele>
        <time>2015-05-17T08:36:31Z</time>
      </trkpt>
      <trkpt lat="44.46685" lon="1.07603">
        <ele>241</ele>
        <time>2015-05-17T08:36:44Z</time>
      </trkpt>
      <trkpt lat="44.46699" lon="1.07631">
        <ele>245</ele>
        <time>2015-05-17T08:36:56Z</time>
      </trkpt>
      <trkpt lat="44.46717" lon="1.07654">
        <ele>249</ele>
        <time>2015-05-17T08:37:10Z</time>
      </trkpt>
      <trkpt lat="44.46732" lon="1.07667">
        <ele>251</ele>
        <time>2015-05-17T08:37:20Z</time>
      </trkpt>
      <trkpt lat="44.46744" lon="1.07674">
        <ele>252</ele>
        <time>2015-05-17T08:37:28Z</time>
      </trkpt>
      <trkpt lat="44.46764" lon="1.0769">
        <ele>256</ele>
        <time>2015-05-17T08:37:44Z</time>
      </trkpt>
      <trkpt lat="44.46787" lon="1.07707">
        <ele>261</ele>
        <time>2015-05-17T08:38:00Z</time>
      </trkpt>
      <trkpt lat="44.46802" lon="1.07718">
        <ele>264</ele>
        <time>2015-05-17T08:38:11Z</time>
      </trkpt>
      <trkpt lat="44.46818" lon="1.07734">
        <ele>266</ele>
        <time>2015-05-17T08:38:22Z</time>
      </trkpt>
      <trkpt lat="44.46818" lon="1.07748">
        <ele>266</ele>
        <time>2015-05-17T08:38:26Z</time>
      </trkpt>
      <trkpt lat="44.46812" lon="1.07815">
        <ele>266</ele>
        <time>2015-05-17T08:38:40Z</time>
      </trkpt>
      <trkpt lat="44.46811" lon="1.07839">
        <ele>265</ele>
        <time>2015-05-17T08:38:44Z</time>
      </trkpt>
      <trkpt lat="44.46815" lon="1.07868">
        <ele>265</ele>
        <time>2015-05-17T08:38:49Z</time>
      </trkpt>
      <trkpt lat="44.46818" lon="1.07892">
        <ele>264</ele>
        <time>2015-05-17T08:38:53Z</time>
      </trkpt>
      <trkpt lat="44.4683" lon="1.07951">
        <ele>262</ele>
        <time>2015-05-17T08:39:02Z</time>
      </trkpt>
      <trkpt lat="44.46832" lon="1.07958">
        <ele>262</ele>
        <time>2015-05-17T08:39:03Z</time>
      </trkpt>
      <trkpt lat="44.46834" lon="1.07966">
        <ele>262</ele>
        <time>2015-05-17T08:39:04Z</time>
      </trkpt>
      <trkpt lat="44.46836" lon="1.07973">
        <ele>262</ele>
        <time>2015-05-17T08:39:05Z</time>
      </trkpt>
      <trkpt lat="44.46838" lon="1.07981">
        <ele>262</ele>
        <time>2015-05-17T08:39:06Z</time>
      </trkpt>
      <trkpt lat="44.4684" lon="1.07989">
        <ele>262</ele>
        <time>2015-05-17T08:39:07Z</time>
      </trkpt>
      <trkpt lat="44.46843" lon="1.07997">
        <ele>261</ele>
        <time>2015-05-17T08:39:08Z</time>
      </trkpt>
      <trkpt lat="44.46848" lon="1.08005">
        <ele>261</ele>
        <time>2015-05-17T08:39:09Z</time>
      </trkpt>
      <trkpt lat="44.46852" lon="1.08012">
        <ele>261</ele>
        <time>2015-05-17T08:39:10Z</time>
      </trkpt>
      <trkpt lat="44.46857" lon="1.08018">
        <ele>260</ele>
        <time>2015-05-17T08:39:11Z</time>
      </trkpt>
      <trkpt lat="44.46862" lon="1.08023">
        <ele>260</ele>
        <time>2015-05-17T08:39:12Z</time>
      </trkpt>
      <trkpt lat="44.46868" lon="1.08028">
        <ele>260</ele>
        <time>2015-05-17T08:39:13Z</time>
      </trkpt>
      <trkpt lat="44.46877" lon="1.08035">
        <ele>260</ele>
        <time>2015-05-17T08:39:15Z</time>
      </trkpt>
      <trkpt lat="44.46881" lon="1.08038">
        <ele>259</ele>
        <time>2015-05-17T08:39:16Z</time>
      </trkpt>
      <trkpt lat="44.46894" lon="1.08044">
        <ele>259</ele>
        <time>2015-05-17T08:39:24Z</time>
      </trkpt>
      <trkpt lat="44.46896" lon="1.08047">
        <ele>258</ele>
        <time>2015-05-17T08:39:33Z</time>
      </trkpt>
      <trkpt lat="44.46896" lon="1.08047">
        <ele>256</ele>
        <time>2015-05-17T08:40:06Z</time>
      </trkpt>
      <trkpt lat="44.46897" lon="1.08046">
        <ele>255</ele>
        <time>2015-05-17T08:40:37Z</time>
      </trkpt>
      <trkpt lat="44.46896" lon="1.08047">
        <ele>256</ele>
        <time>2015-05-17T08:41:05Z</time>
      </trkpt>
      <trkpt lat="44.46897" lon="1.08048">
        <ele>256</ele>
        <time>2015-05-17T08:41:36Z</time>
      </trkpt>
      <trkpt lat="44.46898" lon="1.08046">
        <ele>257</ele>
        <time>2015-05-17T08:41:40Z</time>
      </trkpt>
      <trkpt lat="44.46899" lon="1.08045">
        <ele>257</ele>
        <time>2015-05-17T08:41:41Z</time>
      </trkpt>
      <trkpt lat="44.46901" lon="1.08044">
        <ele>257</ele>
        <time>2015-05-17T08:41:42Z</time>
      </trkpt>
      <trkpt lat="44.46904" lon="1.08043">
        <ele>257</ele>
        <time>2015-05-17T08:41:43Z</time>
      </trkpt>
      <trkpt lat="44.46908" lon="1.08042">
        <ele>257</ele>
        <time>2015-05-17T08:41:44Z</time>
      </trkpt>
      <trkpt lat="44.46913" lon="1.08042">
        <ele>257</ele>
        <time>2015-05-17T08:41:45Z</time>
      </trkpt>
      <trkpt lat="44.46917" lon="1.08042">
        <ele>257</ele>
        <time>2015-05-17T08:41:46Z</time>
      </trkpt>
      <trkpt lat="44.46989" lon="1.08048">
        <ele>252</ele>
        <time>2015-05-17T08:41:57Z</time>
      </trkpt>
      <trkpt lat="44.47072" lon="1.08069">
        <ele>249</ele>
        <time>2015-05-17T08:42:08Z</time>
      </trkpt>
      <trkpt lat="44.4715" lon="1.08082">
        <ele>249</ele>
        <time>2015-05-17T08:42:20Z</time>
      </trkpt>
      <trkpt lat="44.47154" lon="1.08084">
        <ele>249</ele>
        <time>2015-05-17T08:42:21Z</time>
      </trkpt>
      <trkpt lat="44.47215" lon="1.08119">
        <ele>245</ele>
        <time>2015-05-17T08:42:31Z</time>
      </trkpt>
      <trkpt lat="44.47307" lon="1.08177">
        <ele>239</ele>
        <time>2015-05-17T08:42:43Z</time>
      </trkpt>
      <trkpt lat="44.47347" lon="1.08203">
        <ele>238</ele>
        <time>2015-05-17T08:42:50Z</time>
      </trkpt>
      <trkpt lat="44.47353" lon="1.08199">
        <ele>238</ele>
        <time>2015-05-17T08:43:00Z</time>
      </trkpt>
      <trkpt lat="44.47374" lon="1.08199">
        <ele>237</ele>
        <time>2015-05-17T08:43:09Z</time>
      </trkpt>
      <trkpt lat="44.47396" lon="1.08217">
        <ele>233</ele>
        <time>2015-05-17T08:43:17Z</time>
      </trkpt>
      <trkpt lat="44.47404" lon="1.08225">
        <ele>232</ele>
        <time>2015-05-17T08:43:20Z</time>
      </trkpt>
      <trkpt lat="44.47421" lon="1.08243">
        <ele>230</ele>
        <time>2015-05-17T08:43:27Z</time>
      </trkpt>
      <trkpt lat="44.47434" lon="1.0826">
        <ele>230</ele>
        <time>2015-05-17T08:43:34Z</time>
      </trkpt>
      <trkpt lat="44.47447" lon="1.08267">
        <ele>230</ele>
        <time>2015-05-17T08:43:38Z</time>
      </trkpt>
      <trkpt lat="44.47457" lon="1.08285">
        <ele>230</ele>
        <time>2015-05-17T08:43:42Z</time>
      </trkpt>
      <trkpt lat="44.47462" lon="1.08296">
        <ele>230</ele>
        <time>2015-05-17T08:43:44Z</time>
      </trkpt>
      <trkpt lat="44.47492" lon="1.08326">
        <ele>227</ele>
        <time>2015-05-17T08:43:53Z</time>
      </trkpt>
      <trkpt lat="44.47502" lon="1.08325">
        <ele>226</ele>
        <time>2015-05-17T08:43:56Z</time>
      </trkpt>
      <trkpt lat="44.47531" lon="1.08321">
        <ele>221</ele>
        <time>2015-05-17T08:44:05Z</time>
      </trkpt>
      <trkpt lat="44.47545" lon="1.08315">
        <ele>218</ele>
        <time>2015-05-17T08:44:10Z</time>
      </trkpt>
      <trkpt lat="44.47566" lon="1.08312">
        <ele>216</ele>
        <time>2015-05-17T08:44:15Z</time>
      </trkpt>
      <trkpt lat="44.47585" lon="1.08306">
        <ele>214</ele>
        <time>2015-05-17T08:44:20Z</time>
      </trkpt>
      <trkpt lat="44.47593" lon="1.08308">
        <ele>214</ele>
        <time>2015-05-17T08:44:22Z</time>
      </trkpt>
      <trkpt lat="44.4761" lon="1.08302">
        <ele>215</ele>
        <time>2015-05-17T08:44:26Z</time>
      </trkpt>
      <trkpt lat="44.47628" lon="1.08292">
        <ele>214</ele>
        <time>2015-05-17T08:44:30Z</time>
      </trkpt>
      <trkpt lat="44.47646" lon="1.08274">
        <ele>213</ele>
        <time>2015-05-17T08:44:34Z</time>
      </trkpt>
      <trkpt lat="44.47654" lon="1.08262">
        <ele>213</ele>
        <time>2015-05-17T08:44:36Z</time>
      </trkpt>
      <trkpt lat="44.4766" lon="1.08249">
        <ele>212</ele>
        <time>2015-05-17T08:44:38Z</time>
      </trkpt>
      <trkpt lat="44.47674" lon="1.08229">
        <ele>211</ele>
        <time>2015-05-17T08:44:42Z</time>
      </trkpt>
      <trkpt lat="44.4768" lon="1.08218">
        <ele>211</ele>
        <time>2015-05-17T08:44:44Z</time>
      </trkpt>
      <trkpt lat="44.47701" lon="1.08208">
        <ele>210</ele>
        <time>2015-05-17T08:44:49Z</time>
      </trkpt>
      <trkpt lat="44.47707" lon="1.08211">
        <ele>210</ele>
        <time>2015-05-17T08:44:51Z</time>
      </trkpt>
      <trkpt lat="44.47732" lon="1.08204">
        <ele>212</ele>
        <time>2015-05-17T08:45:00Z</time>
      </trkpt>
      <trkpt lat="44.47743" lon="1.08221">
        <ele>214</ele>
        <time>2015-05-17T08:45:08Z</time>
      </trkpt>
      <trkpt lat="44.47742" lon="1.08222">
        <ele>214</ele>
        <time>2015-05-17T08:45:09Z</time>
      </trkpt>
      <trkpt lat="44.47732" lon="1.08233">
        <ele>215</ele>
        <time>2015-05-17T08:45:18Z</time>
      </trkpt>
      <trkpt lat="44.47709" lon="1.08264">
        <ele>217</ele>
        <time>2015-05-17T08:45:32Z</time>
      </trkpt>
      <trkpt lat="44.4769" lon="1.08309">
        <ele>219</ele>
        <time>2015-05-17T08:45:47Z</time>
      </trkpt>
      <trkpt lat="44.47654" lon="1.08361">
        <ele>218</ele>
        <time>2015-05-17T08:46:00Z</time>
      </trkpt>
      <trkpt lat="44.47653" lon="1.08364">
        <ele>218</ele>
        <time>2015-05-17T08:46:01Z</time>
      </trkpt>
      <trkpt lat="44.47658" lon="1.08368">
        <ele>217</ele>
        <time>2015-05-17T08:46:05Z</time>
      </trkpt>
      <trkpt lat="44.47674" lon="1.08384">
        <ele>216</ele>
        <time>2015-05-17T08:46:10Z</time>
      </trkpt>
      <trkpt lat="44.47686" lon="1.08417">
        <ele>215</ele>
        <time>2015-05-17T08:46:15Z</time>
      </trkpt>
      <trkpt lat="44.47693" lon="1.0845">
        <ele>211</ele>
        <time>2015-05-17T08:46:20Z</time>
      </trkpt>
      <trkpt lat="44.47695" lon="1.08465">
        <ele>209</ele>
        <time>2015-05-17T08:46:22Z</time>
      </trkpt>
      <trkpt lat="44.47696" lon="1.08488">
        <ele>206</ele>
        <time>2015-05-17T08:46:25Z</time>
      </trkpt>
      <trkpt lat="44.47697" lon="1.08533">
        <ele>201</ele>
        <time>2015-05-17T08:46:31Z</time>
      </trkpt>
      <trkpt lat="44.47695" lon="1.08563">
        <ele>196</ele>
        <time>2015-05-17T08:46:35Z</time>
      </trkpt>
      <trkpt lat="44.47698" lon="1.08591">
        <ele>192</ele>
        <time>2015-05-17T08:46:39Z</time>
      </trkpt>
      <trkpt lat="44.47723" lon="1.08649">
        <ele>184</ele>
        <time>2015-05-17T08:46:48Z</time>
      </trkpt>
      <trkpt lat="44.47738" lon="1.08677">
        <ele>179</ele>
        <time>2015-05-17T08:46:52Z</time>
      </trkpt>
      <trkpt lat="44.47746" lon="1.087">
        <ele>176</ele>
        <time>2015-05-17T08:46:55Z</time>
      </trkpt>
      <trkpt lat="44.47754" lon="1.08715">
        <ele>174</ele>
        <time>2015-05-17T08:46:57Z</time>
      </trkpt>
      <trkpt lat="44.47775" lon="1.08768">
        <ele>166</ele>
        <time>2015-05-17T08:47:04Z</time>
      </trkpt>
      <trkpt lat="44.47793" lon="1.08825">
        <ele>158</ele>
        <time>2015-05-17T08:47:11Z</time>
      </trkpt>
      <trkpt lat="44.47805" lon="1.08859">
        <ele>153</ele>
        <time>2015-05-17T08:47:16Z</time>
      </trkpt>
      <trkpt lat="44.47813" lon="1.08888">
        <ele>148</ele>
        <time>2015-05-17T08:47:20Z</time>
      </trkpt>
      <trkpt lat="44.47827" lon="1.08933">
        <ele>140</ele>
        <time>2015-05-17T08:47:30Z</time>
      </trkpt>
      <trkpt lat="44.47833" lon="1.08951">
        <ele>139</ele>
        <time>2015-05-17T08:47:34Z</time>
      </trkpt>
      <trkpt lat="44.47861" lon="1.08958">
        <ele>135</ele>
        <time>2015-05-17T08:47:41Z</time>
      </trkpt>
      <trkpt lat="44.47864" lon="1.0897">
        <ele>133</ele>
        <time>2015-05-17T08:47:44Z</time>
      </trkpt>
      <trkpt lat="44.47855" lon="1.09002">
        <ele>129</ele>
        <time>2015-05-17T08:47:51Z</time>
      </trkpt>
      <trkpt lat="44.47844" lon="1.09031">
        <ele>128</ele>
        <time>2015-05-17T08:47:58Z</time>
      </trkpt>
      <trkpt lat="44.47833" lon="1.09044">
        <ele>127</ele>
        <time>2015-05-17T08:48:02Z</time>
      </trkpt>
      <trkpt lat="44.47832" lon="1.09048">
        <ele>127</ele>
        <time>2015-05-17T08:48:03Z</time>
      </trkpt>
      <trkpt lat="44.47832" lon="1.09053">
        <ele>126</ele>
        <time>2015-05-17T08:48:04Z</time>
      </trkpt>
      <trkpt lat="44.47835" lon="1.09066">
        <ele>126</ele>
        <time>2015-05-17T08:48:06Z</time>
      </trkpt>
      <trkpt lat="44.47837" lon="1.09073">
        <ele>125</ele>
        <time>2015-05-17T08:48:07Z</time>
      </trkpt>
      <trkpt lat="44.47863" lon="1.09182">
        <ele>119</ele>
        <time>2015-05-17T08:48:19Z</time>
      </trkpt>
      <trkpt lat="44.47886" lon="1.09294">
        <ele>115</ele>
        <time>2015-05-17T08:48:31Z</time>
      </trkpt>
      <trkpt lat="44.47884" lon="1.09301">
        <ele>115</ele>
        <time>2015-05-17T08:48:32Z</time>
      </trkpt>
      <trkpt lat="44.4788" lon="1.09306">
        <ele>115</ele>
        <time>2015-05-17T08:48:33Z</time>
      </trkpt>
      <trkpt lat="44.47876" lon="1.09311">
        <ele>115</ele>
        <time>2015-05-17T08:48:34Z</time>
      </trkpt>
      <trkpt lat="44.47871" lon="1.09316">
        <ele>115</ele>
        <time>2015-05-17T08:48:35Z</time>
      </trkpt>
      <trkpt lat="44.47792" lon="1.09406">
        <ele>115</ele>
        <time>2015-05-17T08:48:52Z</time>
      </trkpt>
      <trkpt lat="44.47762" lon="1.09437">
        <ele>116</ele>
        <time>2015-05-17T08:48:59Z</time>
      </trkpt>
      <trkpt lat="44.47716" lon="1.0948">
        <ele>116</ele>
        <time>2015-05-17T08:49:10Z</time>
      </trkpt>
      <trkpt lat="44.47712" lon="1.09482">
        <ele>116</ele>
        <time>2015-05-17T08:49:11Z</time>
      </trkpt>
      <trkpt lat="44.47709" lon="1.09484">
        <ele>116</ele>
        <time>2015-05-17T08:49:12Z</time>
      </trkpt>
      <trkpt lat="44.47706" lon="1.09485">
        <ele>116</ele>
        <time>2015-05-17T08:49:13Z</time>
      </trkpt>
      <trkpt lat="44.47705" lon="1.09486">
        <ele>116</ele>
        <time>2015-05-17T08:49:14Z</time>
      </trkpt>
      <trkpt lat="44.47697" lon="1.09492">
        <ele>116</ele>
        <time>2015-05-17T08:49:23Z</time>
      </trkpt>
      <trkpt lat="44.47696" lon="1.09498">
        <ele>116</ele>
        <time>2015-05-17T08:49:25Z</time>
      </trkpt>
      <trkpt lat="44.47695" lon="1.09501">
        <ele>116</ele>
        <time>2015-05-17T08:49:26Z</time>
      </trkpt>
      <trkpt lat="44.47693" lon="1.09505">
        <ele>116</ele>
        <time>2015-05-17T08:49:27Z</time>
      </trkpt>
      <trkpt lat="44.47691" lon="1.09508">
        <ele>116</ele>
        <time>2015-05-17T08:49:28Z</time>
      </trkpt>
      <trkpt lat="44.47688" lon="1.0951">
        <ele>116</ele>
        <time>2015-05-17T08:49:29Z</time>
      </trkpt>
      <trkpt lat="44.47685" lon="1.09512">
        <ele>116</ele>
        <time>2015-05-17T08:49:30Z</time>
      </trkpt>
      <trkpt lat="44.47649" lon="1.09535">
        <ele>118</ele>
        <time>2015-05-17T08:49:43Z</time>
      </trkpt>
      <trkpt lat="44.47621" lon="1.09535">
        <ele>120</ele>
        <time>2015-05-17T08:49:54Z</time>
      </trkpt>
      <trkpt lat="44.47575" lon="1.09546">
        <ele>121</ele>
        <time>2015-05-17T08:50:09Z</time>
      </trkpt>
      <trkpt lat="44.47521" lon="1.09571">
        <ele>121</ele>
        <time>2015-05-17T08:50:25Z</time>
      </trkpt>
      <trkpt lat="44.47473" lon="1.09607">
        <ele>121</ele>
        <time>2015-05-17T08:50:41Z</time>
      </trkpt>
      <trkpt lat="44.47443" lon="1.0963">
        <ele>122</ele>
        <time>2015-05-17T08:50:54Z</time>
      </trkpt>
      <trkpt lat="44.47436" lon="1.09644">
        <ele>123</ele>
        <time>2015-05-17T08:50:59Z</time>
      </trkpt>
      <trkpt lat="44.47412" lon="1.09667">
        <ele>125</ele>
        <time>2015-05-17T08:51:12Z</time>
      </trkpt>
      <trkpt lat="44.47375" lon="1.09705">
        <ele>123</ele>
        <time>2015-05-17T08:51:26Z</time>
      </trkpt>
      <trkpt lat="44.47339" lon="1.09743">
        <ele>125</ele>
        <time>2015-05-17T08:51:39Z</time>
      </trkpt>
      <trkpt lat="44.473" lon="1.09777">
        <ele>129</ele>
        <time>2015-05-17T08:51:52Z</time>
      </trkpt>
      <trkpt lat="44.47293" lon="1.09792">
        <ele>130</ele>
        <time>2015-05-17T08:51:56Z</time>
      </trkpt>
      <trkpt lat="44.47281" lon="1.09796">
        <ele>131</ele>
        <time>2015-05-17T08:52:00Z</time>
      </trkpt>
      <trkpt lat="44.47255" lon="1.09804">
        <ele>135</ele>
        <time>2015-05-17T08:52:13Z</time>
      </trkpt>
      <trkpt lat="44.47237" lon="1.09813">
        <ele>138</ele>
        <time>2015-05-17T08:52:27Z</time>
      </trkpt>
      <trkpt lat="44.47234" lon="1.09814">
        <ele>140</ele>
        <time>2015-05-17T08:52:30Z</time>
      </trkpt>
      <trkpt lat="44.47211" lon="1.09792">
        <ele>141</ele>
        <time>2015-05-17T08:52:40Z</time>
      </trkpt>
      <trkpt lat="44.47195" lon="1.09784">
        <ele>141</ele>
        <time>2015-05-17T08:52:45Z</time>
      </trkpt>
      <trkpt lat="44.47176" lon="1.09774">
        <ele>142</ele>
        <time>2015-05-17T08:52:50Z</time>
      </trkpt>
      <trkpt lat="44.47146" lon="1.09755">
        <ele>142</ele>
        <time>2015-05-17T08:52:57Z</time>
      </trkpt>
      <trkpt lat="44.47126" lon="1.09748">
        <ele>142</ele>
        <time>2015-05-17T08:53:01Z</time>
      </trkpt>
      <trkpt lat="44.47065" lon="1.09733">
        <ele>148</ele>
        <time>2015-05-17T08:53:16Z</time>
      </trkpt>
      <trkpt lat="44.47053" lon="1.09728">
        <ele>149</ele>
        <time>2015-05-17T08:53:19Z</time>
      </trkpt>
      <trkpt lat="44.47033" lon="1.09719">
        <ele>151</ele>
        <time>2015-05-17T08:53:24Z</time>
      </trkpt>
      <trkpt lat="44.47004" lon="1.09708">
        <ele>154</ele>
        <time>2015-05-17T08:53:31Z</time>
      </trkpt>
      <trkpt lat="44.46969" lon="1.09691">
        <ele>161</ele>
        <time>2015-05-17T08:53:40Z</time>
      </trkpt>
      <trkpt lat="44.46942" lon="1.09686">
        <ele>165</ele>
        <time>2015-05-17T08:53:49Z</time>
      </trkpt>
      <trkpt lat="44.46905" lon="1.09685">
        <ele>170</ele>
        <time>2015-05-17T08:54:02Z</time>
      </trkpt>
      <trkpt lat="44.46903" lon="1.09686">
        <ele>171</ele>
        <time>2015-05-17T08:54:05Z</time>
      </trkpt>
      <trkpt lat="44.46899" lon="1.09688">
        <ele>173</ele>
        <time>2015-05-17T08:54:14Z</time>
      </trkpt>
      <trkpt lat="44.46872" lon="1.09693">
        <ele>176</ele>
        <time>2015-05-17T08:54:24Z</time>
      </trkpt>
      <trkpt lat="44.46839" lon="1.09712">
        <ele>176</ele>
        <time>2015-05-17T08:54:35Z</time>
      </trkpt>
      <trkpt lat="44.46816" lon="1.09739">
        <ele>174</ele>
        <time>2015-05-17T08:54:44Z</time>
      </trkpt>
      <trkpt lat="44.46807" lon="1.09757">
        <ele>173</ele>
        <time>2015-05-17T08:54:48Z</time>
      </trkpt>
      <trkpt lat="44.46784" lon="1.09803">
        <ele>168</ele>
        <time>2015-05-17T08:55:00Z</time>
      </trkpt>
      <trkpt lat="44.46766" lon="1.0985">
        <ele>166</ele>
        <time>2015-05-17T08:55:11Z</time>
      </trkpt>
      <trkpt lat="44.46751" lon="1.09889">
        <ele>163</ele>
        <time>2015-05-17T08:55:21Z</time>
      </trkpt>
      <trkpt lat="44.46727" lon="1.09948">
        <ele>153</ele>
        <time>2015-05-17T08:55:34Z</time>
      </trkpt>
      <trkpt lat="44.46717" lon="1.10006">
        <ele>151</ele>
        <time>2015-05-17T08:55:46Z</time>
      </trkpt>
      <trkpt lat="44.46713" lon="1.10057">
        <ele>151</ele>
        <time>2015-05-17T08:55:56Z</time>
      </trkpt>
      <trkpt lat="44.46716" lon="1.10099">
        <ele>151</ele>
        <time>2015-05-17T08:56:05Z</time>
      </trkpt>
      <trkpt lat="44.46715" lon="1.10148">
        <ele>159</ele>
        <time>2015-05-17T08:56:16Z</time>
      </trkpt>
      <trkpt lat="44.46703" lon="1.10199">
        <ele>162</ele>
        <time>2015-05-17T08:56:30Z</time>
      </trkpt>
      <trkpt lat="44.46702" lon="1.10201">
        <ele>162</ele>
        <time>2015-05-17T08:56:31Z</time>
      </trkpt>
      <trkpt lat="44.46685" lon="1.10214">
        <ele>163</ele>
        <time>2015-05-17T08:56:38Z</time>
      </trkpt>
      <trkpt lat="44.46655" lon="1.10251">
        <ele>164</ele>
        <time>2015-05-17T08:56:53Z</time>
      </trkpt>
      <trkpt lat="44.46632" lon="1.10292">
        <ele>167</ele>
        <time>2015-05-17T08:57:08Z</time>
      </trkpt>
      <trkpt lat="44.46625" lon="1.10303">
        <ele>166</ele>
        <time>2015-05-17T08:57:13Z</time>
      </trkpt>
      <trkpt lat="44.46605" lon="1.10342">
        <ele>167</ele>
        <time>2015-05-17T08:57:29Z</time>
      </trkpt>
      <trkpt lat="44.46586" lon="1.10372">
        <ele>170</ele>
        <time>2015-05-17T08:57:43Z</time>
      </trkpt>
      <trkpt lat="44.46559" lon="1.10407">
        <ele>175</ele>
        <time>2015-05-17T08:58:00Z</time>
      </trkpt>
      <trkpt lat="44.46537" lon="1.10435">
        <ele>179</ele>
        <time>2015-05-17T08:58:14Z</time>
      </trkpt>
      <trkpt lat="44.46519" lon="1.10455">
        <ele>180</ele>
        <time>2015-05-17T08:58:25Z</time>
      </trkpt>
      <trkpt lat="44.46501" lon="1.10482">
        <ele>181</ele>
        <time>2015-05-17T08:58:39Z</time>
      </trkpt>
      <trkpt lat="44.46487" lon="1.10518">
        <ele>184</ele>
        <time>2015-05-17T08:58:54Z</time>
      </trkpt>
      <trkpt lat="44.46486" lon="1.1052">
        <ele>185</ele>
        <time>2015-05-17T08:58:55Z</time>
      </trkpt>
      <trkpt lat="44.46483" lon="1.10531">
        <ele>188</ele>
        <time>2015-05-17T08:58:59Z</time>
      </trkpt>
      <trkpt lat="44.46481" lon="1.1054">
        <ele>189</ele>
        <time>2015-05-17T08:59:03Z</time>
      </trkpt>
      <trkpt lat="44.4648" lon="1.10553">
        <ele>190</ele>
        <time>2015-05-17T08:59:08Z</time>
      </trkpt>
      <trkpt lat="44.46474" lon="1.10588">
        <ele>193</ele>
        <time>2015-05-17T08:59:21Z</time>
      </trkpt>
      <trkpt lat="44.46459" lon="1.1062">
        <ele>194</ele>
        <time>2015-05-17T08:59:35Z</time>
      </trkpt>
      <trkpt lat="44.46434" lon="1.10648">
        <ele>195</ele>
        <time>2015-05-17T08:59:51Z</time>
      </trkpt>
      <trkpt lat="44.46415" lon="1.10677">
        <ele>198</ele>
        <time>2015-05-17T09:00:05Z</time>
      </trkpt>
      <trkpt lat="44.4639" lon="1.10711">
        <ele>201</ele>
        <time>2015-05-17T09:00:23Z</time>
      </trkpt>
      <trkpt lat="44.46369" lon="1.1074">
        <ele>204</ele>
        <time>2015-05-17T09:00:39Z</time>
      </trkpt>
      <trkpt lat="44.46337" lon="1.1077">
        <ele>207</ele>
        <time>2015-05-17T09:00:58Z</time>
      </trkpt>
      <trkpt lat="44.46308" lon="1.10781">
        <ele>212</ele>
        <time>2015-05-17T09:01:14Z</time>
      </trkpt>
      <trkpt lat="44.46274" lon="1.10792">
        <ele>217</ele>
        <time>2015-05-17T09:01:32Z</time>
      </trkpt>
      <trkpt lat="44.46247" lon="1.10822">
        <ele>219</ele>
        <time>2015-05-17T09:01:49Z</time>
      </trkpt>
      <trkpt lat="44.46233" lon="1.10846">
        <ele>220</ele>
        <time>2015-05-17T09:02:01Z</time>
      </trkpt>
      <trkpt lat="44.46223" lon="1.10877">
        <ele>223</ele>
        <time>2015-05-17T09:02:14Z</time>
      </trkpt>
      <trkpt lat="44.46218" lon="1.10905">
        <ele>226</ele>
        <time>2015-05-17T09:02:27Z</time>
      </trkpt>
      <trkpt lat="44.46214" lon="1.10918">
        <ele>227</ele>
        <time>2015-05-17T09:02:34Z</time>
      </trkpt>
      <trkpt lat="44.46208" lon="1.1092">
        <ele>228</ele>
        <time>2015-05-17T09:02:39Z</time>
      </trkpt>
      <trkpt lat="44.46184" lon="1.10919">
        <ele>233</ele>
        <time>2015-05-17T09:02:56Z</time>
      </trkpt>
      <trkpt lat="44.46189" lon="1.10926">
        <ele>235</ele>
        <time>2015-05-17T09:03:01Z</time>
      </trkpt>
      <trkpt lat="44.46192" lon="1.10928">
        <ele>234</ele>
        <time>2015-05-17T09:03:11Z</time>
      </trkpt>
      <trkpt lat="44.46193" lon="1.10928">
        <ele>234</ele>
        <time>2015-05-17T09:03:12Z</time>
      </trkpt>
      <trkpt lat="44.46194" lon="1.10928">
        <ele>234</ele>
        <time>2015-05-17T09:03:13Z</time>
      </trkpt>
      <trkpt lat="44.46196" lon="1.10929">
        <ele>234</ele>
        <time>2015-05-17T09:03:14Z</time>
      </trkpt>
      <trkpt lat="44.46234" lon="1.10947">
        <ele>235</ele>
        <time>2015-05-17T09:03:28Z</time>
      </trkpt>
      <trkpt lat="44.46272" lon="1.10967">
        <ele>239</ele>
        <time>2015-05-17T09:03:44Z</time>
      </trkpt>
      <trkpt lat="44.46308" lon="1.10978">
        <ele>244</ele>
        <time>2015-05-17T09:03:59Z</time>
      </trkpt>
      <trkpt lat="44.46348" lon="1.10976">
        <ele>248</ele>
        <time>2015-05-17T09:04:17Z</time>
      </trkpt>
      <trkpt lat="44.46381" lon="1.10972">
        <ele>250</ele>
        <time>2015-05-17T09:04:32Z</time>
      </trkpt>
      <trkpt lat="44.4642" lon="1.10969">
        <ele>252</ele>
        <time>2015-05-17T09:04:49Z</time>
      </trkpt>
      <trkpt lat="44.46452" lon="1.10976">
        <ele>256</ele>
        <time>2015-05-17T09:05:04Z</time>
      </trkpt>
      <trkpt lat="44.46476" lon="1.11016">
        <ele>260</ele>
        <time>2015-05-17T09:05:20Z</time>
      </trkpt>
      <trkpt lat="44.46498" lon="1.11068">
        <ele>261</ele>
        <time>2015-05-17T09:05:35Z</time>
      </trkpt>
      <trkpt lat="44.46498" lon="1.11085">
        <ele>260</ele>
        <time>2015-05-17T09:05:38Z</time>
      </trkpt>
      <trkpt lat="44.46495" lon="1.11185">
        <ele>257</ele>
        <time>2015-05-17T09:05:52Z</time>
      </trkpt>
      <trkpt lat="44.46497" lon="1.11208">
        <ele>256</ele>
        <time>2015-05-17T09:05:55Z</time>
      </trkpt>
      <trkpt lat="44.46509" lon="1.11237">
        <ele>255</ele>
        <time>2015-05-17T09:05:59Z</time>
      </trkpt>
      <trkpt lat="44.46518" lon="1.11252">
        <ele>255</ele>
        <time>2015-05-17T09:06:01Z</time>
      </trkpt>
      <trkpt lat="44.46531" lon="1.11275">
        <ele>254</ele>
        <time>2015-05-17T09:06:04Z</time>
      </trkpt>
      <trkpt lat="44.46537" lon="1.11322">
        <ele>252</ele>
        <time>2015-05-17T09:06:09Z</time>
      </trkpt>
      <trkpt lat="44.46529" lon="1.1137">
        <ele>250</ele>
        <time>2015-05-17T09:06:14Z</time>
      </trkpt>
      <trkpt lat="44.46536" lon="1.11404">
        <ele>248</ele>
        <time>2015-05-17T09:06:20Z</time>
      </trkpt>
      <trkpt lat="44.4655" lon="1.1141">
        <ele>247</ele>
        <time>2015-05-17T09:06:23Z</time>
      </trkpt>
      <trkpt lat="44.46568" lon="1.11421">
        <ele>248</ele>
        <time>2015-05-17T09:06:27Z</time>
      </trkpt>
      <trkpt lat="44.46627" lon="1.11443">
        <ele>251</ele>
        <time>2015-05-17T09:06:42Z</time>
      </trkpt>
      <trkpt lat="44.46664" lon="1.11458">
        <ele>254</ele>
        <time>2015-05-17T09:06:54Z</time>
      </trkpt>
      <trkpt lat="44.46697" lon="1.11463">
        <ele>257</ele>
        <time>2015-05-17T09:07:06Z</time>
      </trkpt>
      <trkpt lat="44.4674" lon="1.11472">
        <ele>260</ele>
        <time>2015-05-17T09:07:21Z</time>
      </trkpt>
      <trkpt lat="44.46785" lon="1.11486">
        <ele>262</ele>
        <time>2015-05-17T09:07:35Z</time>
      </trkpt>
      <trkpt lat="44.46814" lon="1.11496">
        <ele>263</ele>
        <time>2015-05-17T09:07:43Z</time>
      </trkpt>
      <trkpt lat="44.46889" lon="1.11493">
        <ele>261</ele>
        <time>2015-05-17T09:07:56Z</time>
      </trkpt>
      <trkpt lat="44.46912" lon="1.11483">
        <ele>259</ele>
        <time>2015-05-17T09:07:59Z</time>
      </trkpt>
      <trkpt lat="44.46962" lon="1.11486">
        <ele>254</ele>
        <time>2015-05-17T09:08:05Z</time>
      </trkpt>
      <trkpt lat="44.47032" lon="1.11514">
        <ele>254</ele>
        <time>2015-05-17T09:08:17Z</time>
      </trkpt>
      <trkpt lat="44.47064" lon="1.11528">
        <ele>257</ele>
        <time>2015-05-17T09:08:29Z</time>
      </trkpt>
      <trkpt lat="44.47092" lon="1.11543">
        <ele>260</ele>
        <time>2015-05-17T09:08:43Z</time>
      </trkpt>
      <trkpt lat="44.47118" lon="1.1156">
        <ele>265</ele>
        <time>2015-05-17T09:08:58Z</time>
      </trkpt>
      <trkpt lat="44.47142" lon="1.11581">
        <ele>267</ele>
        <time>2015-05-17T09:09:14Z</time>
      </trkpt>
      <trkpt lat="44.47161" lon="1.11602">
        <ele>269</ele>
        <time>2015-05-17T09:09:28Z</time>
      </trkpt>
      <trkpt lat="44.47167" lon="1.1161">
        <ele>270</ele>
        <time>2015-05-17T09:09:33Z</time>
      </trkpt>
      <trkpt lat="44.47174" lon="1.11616">
        <ele>271</ele>
        <time>2015-05-17T09:09:38Z</time>
      </trkpt>
      <trkpt lat="44.47196" lon="1.11643">
        <ele>273</ele>
        <time>2015-05-17T09:09:55Z</time>
      </trkpt>
      <trkpt lat="44.47214" lon="1.1167">
        <ele>277</ele>
        <time>2015-05-17T09:10:09Z</time>
      </trkpt>
      <trkpt lat="44.47232" lon="1.11699">
        <ele>280</ele>
        <time>2015-05-17T09:10:23Z</time>
      </trkpt>
      <trkpt lat="44.47237" lon="1.11708">
        <ele>281</ele>
        <time>2015-05-17T09:10:27Z</time>
      </trkpt>
      <trkpt lat="44.47239" lon="1.11708">
        <ele>281</ele>
        <time>2015-05-17T09:10:28Z</time>
      </trkpt>
      <trkpt lat="44.4724" lon="1.11707">
        <ele>281</ele>
        <time>2015-05-17T09:10:29Z</time>
      </trkpt>
      <trkpt lat="44.47241" lon="1.11705">
        <ele>281</ele>
        <time>2015-05-17T09:10:30Z</time>
      </trkpt>
      <trkpt lat="44.47242" lon="1.11703">
        <ele>282</ele>
        <time>2015-05-17T09:10:31Z</time>
      </trkpt>
      <trkpt lat="44.47242" lon="1.11701">
        <ele>282</ele>
        <time>2015-05-17T09:10:32Z</time>
      </trkpt>
      <trkpt lat="44.47243" lon="1.11698">
        <ele>282</ele>
        <time>2015-05-17T09:10:33Z</time>
      </trkpt>
      <trkpt lat="44.47245" lon="1.11695">
        <ele>282</ele>
        <time>2015-05-17T09:10:34Z</time>
      </trkpt>
      <trkpt lat="44.47246" lon="1.11692">
        <ele>282</ele>
        <time>2015-05-17T09:10:35Z</time>
      </trkpt>
      <trkpt lat="44.47247" lon="1.1169">
        <ele>282</ele>
        <time>2015-05-17T09:10:36Z</time>
      </trkpt>
      <trkpt lat="44.47249" lon="1.11687">
        <ele>282</ele>
        <time>2015-05-17T09:10:37Z</time>
      </trkpt>
      <trkpt lat="44.47251" lon="1.11684">
        <ele>282</ele>
        <time>2015-05-17T09:10:38Z</time>
      </trkpt>
      <trkpt lat="44.47253" lon="1.11681">
        <ele>283</ele>
        <time>2015-05-17T09:10:39Z</time>
      </trkpt>
      <trkpt lat="44.47254" lon="1.11678">
        <ele>283</ele>
        <time>2015-05-17T09:10:40Z</time>
      </trkpt>
      <trkpt lat="44.47256" lon="1.11675">
        <ele>283</ele>
        <time>2015-05-17T09:10:41Z</time>
      </trkpt>
      <trkpt lat="44.47258" lon="1.11671">
        <ele>283</ele>
        <time>2015-05-17T09:10:42Z</time>
      </trkpt>
      <trkpt lat="44.47259" lon="1.11668">
        <ele>283</ele>
        <time>2015-05-17T09:10:43Z</time>
      </trkpt>
      <trkpt lat="44.47261" lon="1.11665">
        <ele>283</ele>
        <time>2015-05-17T09:10:44Z</time>
      </trkpt>
      <trkpt lat="44.47276" lon="1.1164">
        <ele>285</ele>
        <time>2015-05-17T09:10:52Z</time>
      </trkpt>
      <trkpt lat="44.47278" lon="1.11639">
        <ele>285</ele>
        <time>2015-05-17T09:10:53Z</time>
      </trkpt>
      <trkpt lat="44.47293" lon="1.11653">
        <ele>286</ele>
        <time>2015-05-17T09:10:59Z</time>
      </trkpt>
      <trkpt lat="44.47332" lon="1.11693">
        <ele>287</ele>
        <time>2015-05-17T09:11:15Z</time>
      </trkpt>
      <trkpt lat="44.47359" lon="1.11716">
        <ele>289</ele>
        <time>2015-05-17T09:11:26Z</time>
      </trkpt>
      <trkpt lat="44.47361" lon="1.1172">
        <ele>290</ele>
        <time>2015-05-17T09:11:27Z</time>
      </trkpt>
      <trkpt lat="44.47366" lon="1.11739">
        <ele>290</ele>
        <time>2015-05-17T09:11:32Z</time>
      </trkpt>
      <trkpt lat="44.47395" lon="1.11758">
        <ele>289</ele>
        <time>2015-05-17T09:11:42Z</time>
      </trkpt>
      <trkpt lat="44.47407" lon="1.11765">
        <ele>289</ele>
        <time>2015-05-17T09:11:45Z</time>
      </trkpt>
      <trkpt lat="44.47415" lon="1.11772">
        <ele>288</ele>
        <time>2015-05-17T09:11:47Z</time>
      </trkpt>
      <trkpt lat="44.47439" lon="1.11818">
        <ele>284</ele>
        <time>2015-05-17T09:11:55Z</time>
      </trkpt>
      <trkpt lat="44.47449" lon="1.11832">
        <ele>283</ele>
        <time>2015-05-17T09:11:58Z</time>
      </trkpt>
      <trkpt lat="44.47453" lon="1.11835">
        <ele>282</ele>
        <time>2015-05-17T09:11:59Z</time>
      </trkpt>
      <trkpt lat="44.47456" lon="1.11837">
        <ele>281</ele>
        <time>2015-05-17T09:12:00Z</time>
      </trkpt>
      <trkpt lat="44.4746" lon="1.1184">
        <ele>281</ele>
        <time>2015-05-17T09:12:01Z</time>
      </trkpt>
      <trkpt lat="44.47473" lon="1.11846">
        <ele>278</ele>
        <time>2015-05-17T09:12:04Z</time>
      </trkpt>
      <trkpt lat="44.47477" lon="1.11848">
        <ele>278</ele>
        <time>2015-05-17T09:12:05Z</time>
      </trkpt>
      <trkpt lat="44.47482" lon="1.1185">
        <ele>277</ele>
        <time>2015-05-17T09:12:06Z</time>
      </trkpt>
      <trkpt lat="44.47485" lon="1.11855">
        <ele>277</ele>
        <time>2015-05-17T09:12:07Z</time>
      </trkpt>
      <trkpt lat="44.47488" lon="1.1186">
        <ele>276</ele>
        <time>2015-05-17T09:12:08Z</time>
      </trkpt>
      <trkpt lat="44.47491" lon="1.11863">
        <ele>275</ele>
        <time>2015-05-17T09:12:09Z</time>
      </trkpt>
      <trkpt lat="44.47494" lon="1.11865">
        <ele>274</ele>
        <time>2015-05-17T09:12:10Z</time>
      </trkpt>
      <trkpt lat="44.47498" lon="1.11867">
        <ele>274</ele>
        <time>2015-05-17T09:12:11Z</time>
      </trkpt>
      <trkpt lat="44.47503" lon="1.1187">
        <ele>273</ele>
        <time>2015-05-17T09:12:12Z</time>
      </trkpt>
      <trkpt lat="44.4751" lon="1.11877">
        <ele>271</ele>
        <time>2015-05-17T09:12:14Z</time>
      </trkpt>
      <trkpt lat="44.47519" lon="1.11894">
        <ele>269</ele>
        <time>2015-05-17T09:12:18Z</time>
      </trkpt>
      <trkpt lat="44.47522" lon="1.11899">
        <ele>268</ele>
        <time>2015-05-17T09:12:19Z</time>
      </trkpt>
      <trkpt lat="44.47529" lon="1.11908">
        <ele>267</ele>
        <time>2015-05-17T09:12:22Z</time>
      </trkpt>
      <trkpt lat="44.47531" lon="1.1191">
        <ele>266</ele>
        <time>2015-05-17T09:12:23Z</time>
      </trkpt>
      <trkpt lat="44.47533" lon="1.11914">
        <ele>265</ele>
        <time>2015-05-17T09:12:24Z</time>
      </trkpt>
      <trkpt lat="44.47534" lon="1.11918">
        <ele>265</ele>
        <time>2015-05-17T09:12:25Z</time>
      </trkpt>
      <trkpt lat="44.47535" lon="1.11922">
        <ele>265</ele>
        <time>2015-05-17T09:12:26Z</time>
      </trkpt>
      <trkpt lat="44.47537" lon="1.11925">
        <ele>265</ele>
        <time>2015-05-17T09:12:27Z</time>
      </trkpt>
      <trkpt lat="44.47539" lon="1.11929">
        <ele>265</ele>
        <time>2015-05-17T09:12:28Z</time>
      </trkpt>
      <trkpt lat="44.47541" lon="1.11932">
        <ele>265</ele>
        <time>2015-05-17T09:12:29Z</time>
      </trkpt>
      <trkpt lat="44.47544" lon="1.11937">
        <ele>265</ele>
        <time>2015-05-17T09:12:30Z</time>
      </trkpt>
      <trkpt lat="44.47545" lon="1.11942">
        <ele>265</ele>
        <time>2015-05-17T09:12:31Z</time>
      </trkpt>
      <trkpt lat="44.47547" lon="1.11946">
        <ele>265</ele>
        <time>2015-05-17T09:12:32Z</time>
      </trkpt>
      <trkpt lat="44.4755" lon="1.11949">
        <ele>265</ele>
        <time>2015-05-17T09:12:33Z</time>
      </trkpt>
      <trkpt lat="44.47552" lon="1.11952">
        <ele>265</ele>
        <time>2015-05-17T09:12:34Z</time>
      </trkpt>
      <trkpt lat="44.47552" lon="1.11955">
        <ele>265</ele>
        <time>2015-05-17T09:12:35Z</time>
      </trkpt>
      <trkpt lat="44.47551" lon="1.11958">
        <ele>265</ele>
        <time>2015-05-17T09:12:36Z</time>
      </trkpt>
      <trkpt lat="44.4755" lon="1.1196">
        <ele>266</ele>
        <time>2015-05-17T09:12:37Z</time>
      </trkpt>
      <trkpt lat="44.4755" lon="1.11962">
        <ele>266</ele>
        <time>2015-05-17T09:12:38Z</time>
      </trkpt>
      <trkpt lat="44.4754" lon="1.11974">
        <ele>267</ele>
        <time>2015-05-17T09:12:43Z</time>
      </trkpt>
      <trkpt lat="44.47522" lon="1.11997">
        <ele>267</ele>
        <time>2015-05-17T09:12:50Z</time>
      </trkpt>
      <trkpt lat="44.47519" lon="1.12044">
        <ele>264</ele>
        <time>2015-05-17T09:12:58Z</time>
      </trkpt>
      <trkpt lat="44.47525" lon="1.12055">
        <ele>264</ele>
        <time>2015-05-17T09:13:00Z</time>
      </trkpt>
      <trkpt lat="44.47532" lon="1.12092">
        <ele>262</ele>
        <time>2015-05-17T09:13:08Z</time>
      </trkpt>
      <trkpt lat="44.47537" lon="1.12107">
        <ele>261</ele>
        <time>2015-05-17T09:13:11Z</time>
      </trkpt>
      <trkpt lat="44.47531" lon="1.12133">
        <ele>260</ele>
        <time>2015-05-17T09:13:17Z</time>
      </trkpt>
      <trkpt lat="44.47525" lon="1.12144">
        <ele>259</ele>
        <time>2015-05-17T09:13:19Z</time>
      </trkpt>
      <trkpt lat="44.47515" lon="1.12193">
        <ele>255</ele>
        <time>2015-05-17T09:13:27Z</time>
      </trkpt>
      <trkpt lat="44.47498" lon="1.12228">
        <ele>252</ele>
        <time>2015-05-17T09:13:33Z</time>
      </trkpt>
      <trkpt lat="44.47476" lon="1.12277">
        <ele>249</ele>
        <time>2015-05-17T09:13:42Z</time>
      </trkpt>
      <trkpt lat="44.47448" lon="1.12312">
        <ele>245</ele>
        <time>2015-05-17T09:13:51Z</time>
      </trkpt>
      <trkpt lat="44.47419" lon="1.12366">
        <ele>236</ele>
        <time>2015-05-17T09:14:04Z</time>
      </trkpt>
      <trkpt lat="44.47401" lon="1.12394">
        <ele>227</ele>
        <time>2015-05-17T09:14:14Z</time>
      </trkpt>
      <trkpt lat="44.47396" lon="1.124">
        <ele>225</ele>
        <time>2015-05-17T09:14:17Z</time>
      </trkpt>
      <trkpt lat="44.47382" lon="1.1244">
        <ele>214</ele>
        <time>2015-05-17T09:14:30Z</time>
      </trkpt>
      <trkpt lat="44.47368" lon="1.12465">
        <ele>207</ele>
        <time>2015-05-17T09:14:39Z</time>
      </trkpt>
      <trkpt lat="44.47363" lon="1.12474">
        <ele>205</ele>
        <time>2015-05-17T09:14:43Z</time>
      </trkpt>
      <trkpt lat="44.47358" lon="1.12484">
        <ele>202</ele>
        <time>2015-05-17T09:14:47Z</time>
      </trkpt>
      <trkpt lat="44.47354" lon="1.12495">
        <ele>200</ele>
        <time>2015-05-17T09:14:50Z</time>
      </trkpt>
      <trkpt lat="44.47335" lon="1.12513">
        <ele>192</ele>
        <time>2015-05-17T09:14:59Z</time>
      </trkpt>
      <trkpt lat="44.47333" lon="1.12532">
        <ele>188</ele>
        <time>2015-05-17T09:15:05Z</time>
      </trkpt>
      <trkpt lat="44.47331" lon="1.12569">
        <ele>185</ele>
        <time>2015-05-17T09:15:14Z</time>
      </trkpt>
      <trkpt lat="44.4733" lon="1.12573">
        <ele>185</ele>
        <time>2015-05-17T09:15:15Z</time>
      </trkpt>
      <trkpt lat="44.47312" lon="1.12603">
        <ele>178</ele>
        <time>2015-05-17T09:15:26Z</time>
      </trkpt>
      <trkpt lat="44.47306" lon="1.12617">
        <ele>173</ele>
        <time>2015-05-17T09:15:38Z</time>
      </trkpt>
      <trkpt lat="44.47305" lon="1.12617">
        <ele>172</ele>
        <time>2015-05-17T09:15:41Z</time>
      </trkpt>
      <trkpt lat="44.47288" lon="1.12649">
        <ele>167</ele>
        <time>2015-05-17T09:15:52Z</time>
      </trkpt>
      <trkpt lat="44.47286" lon="1.12653">
        <ele>165</ele>
        <time>2015-05-17T09:15:53Z</time>
      </trkpt>
      <trkpt lat="44.47277" lon="1.12691">
        <ele>156</ele>
        <time>2015-05-17T09:16:03Z</time>
      </trkpt>
      <trkpt lat="44.47266" lon="1.12708">
        <ele>150</ele>
        <time>2015-05-17T09:16:12Z</time>
      </trkpt>
      <trkpt lat="44.47264" lon="1.12711">
        <ele>147</ele>
        <time>2015-05-17T09:16:23Z</time>
      </trkpt>
      <trkpt lat="44.47264" lon="1.12716">
        <ele>145</ele>
        <time>2015-05-17T09:16:32Z</time>
      </trkpt>
      <trkpt lat="44.47262" lon="1.1274">
        <ele>140</ele>
        <time>2015-05-17T09:16:41Z</time>
      </trkpt>
      <trkpt lat="44.47254" lon="1.12749">
        <ele>138</ele>
        <time>2015-05-17T09:16:46Z</time>
      </trkpt>
      <trkpt lat="44.47252" lon="1.12755">
        <ele>136</ele>
        <time>2015-05-17T09:16:53Z</time>
      </trkpt>
      <trkpt lat="44.47253" lon="1.12759">
        <ele>135</ele>
        <time>2015-05-17T09:16:56Z</time>
      </trkpt>
      <trkpt lat="44.4725" lon="1.12765">
        <ele>133</ele>
        <time>2015-05-17T09:17:01Z</time>
      </trkpt>
      <trkpt lat="44.47249" lon="1.12784">
        <ele>130</ele>
        <time>2015-05-17T09:17:12Z</time>
      </trkpt>
      <trkpt lat="44.4725" lon="1.12799">
        <ele>128</ele>
        <time>2015-05-17T09:17:17Z</time>
      </trkpt>
      <trkpt lat="44.47261" lon="1.12803">
        <ele>124</ele>
        <time>2015-05-17T09:17:22Z</time>
      </trkpt>
      <trkpt lat="44.47266" lon="1.12803">
        <ele>123</ele>
        <time>2015-05-17T09:17:24Z</time>
      </trkpt>
      <trkpt lat="44.4727" lon="1.12807">
        <ele>121</ele>
        <time>2015-05-17T09:17:26Z</time>
      </trkpt>
      <trkpt lat="44.47266" lon="1.12833">
        <ele>117</ele>
        <time>2015-05-17T09:17:33Z</time>
      </trkpt>
      <trkpt lat="44.47247" lon="1.12884">
        <ele>108</ele>
        <time>2015-05-17T09:17:44Z</time>
      </trkpt>
      <trkpt lat="44.47238" lon="1.12891">
        <ele>104</ele>
        <time>2015-05-17T09:17:48Z</time>
      </trkpt>
      <trkpt lat="44.47236" lon="1.12889">
        <ele>104</ele>
        <time>2015-05-17T09:17:49Z</time>
      </trkpt>
      <trkpt lat="44.47235" lon="1.12886">
        <ele>104</ele>
        <time>2015-05-17T09:17:50Z</time>
      </trkpt>
      <trkpt lat="44.47234" lon="1.12883">
        <ele>103</ele>
        <time>2015-05-17T09:17:51Z</time>
      </trkpt>
      <trkpt lat="44.47233" lon="1.12881">
        <ele>103</ele>
        <time>2015-05-17T09:17:52Z</time>
      </trkpt>
      <trkpt lat="44.47232" lon="1.12878">
        <ele>104</ele>
        <time>2015-05-17T09:17:53Z</time>
      </trkpt>
      <trkpt lat="44.47231" lon="1.12874">
        <ele>104</ele>
        <time>2015-05-17T09:17:54Z</time>
      </trkpt>
      <trkpt lat="44.4723" lon="1.12871">
        <ele>104</ele>
        <time>2015-05-17T09:17:55Z</time>
      </trkpt>
      <trkpt lat="44.47228" lon="1.12868">
        <ele>104</ele>
        <time>2015-05-17T09:17:56Z</time>
      </trkpt>
      <trkpt lat="44.47227" lon="1.12864">
        <ele>104</ele>
        <time>2015-05-17T09:17:57Z</time>
      </trkpt>
      <trkpt lat="44.47225" lon="1.12861">
        <ele>104</ele>
        <time>2015-05-17T09:17:58Z</time>
      </trkpt>
      <trkpt lat="44.47194" lon="1.12815">
        <ele>106</ele>
        <time>2015-05-17T09:18:11Z</time>
      </trkpt>
      <trkpt lat="44.47154" lon="1.12791">
        <ele>106</ele>
        <time>2015-05-17T09:18:23Z</time>
      </trkpt>
      <trkpt lat="44.47114" lon="1.12764">
        <ele>105</ele>
        <time>2015-05-17T09:18:35Z</time>
      </trkpt>
      <trkpt lat="44.4711" lon="1.12763">
        <ele>105</ele>
        <time>2015-05-17T09:18:36Z</time>
      </trkpt>
      <trkpt lat="44.47098" lon="1.12759">
        <ele>106</ele>
        <time>2015-05-17T09:18:39Z</time>
      </trkpt>
      <trkpt lat="44.47094" lon="1.12758">
        <ele>106</ele>
        <time>2015-05-17T09:18:40Z</time>
      </trkpt>
      <trkpt lat="44.4709" lon="1.12757">
        <ele>106</ele>
        <time>2015-05-17T09:18:41Z</time>
      </trkpt>
      <trkpt lat="44.47086" lon="1.12756">
        <ele>106</ele>
        <time>2015-05-17T09:18:42Z</time>
      </trkpt>
      <trkpt lat="44.47082" lon="1.12756">
        <ele>106</ele>
        <time>2015-05-17T09:18:43Z</time>
      </trkpt>
      <trkpt lat="44.47046" lon="1.12748">
        <ele>107</ele>
        <time>2015-05-17T09:18:52Z</time>
      </trkpt>
      <trkpt lat="44.47038" lon="1.12743">
        <ele>106</ele>
        <time>2015-05-17T09:18:54Z</time>
      </trkpt>
      <trkpt lat="44.47006" lon="1.12716">
        <ele>105</ele>
        <time>2015-05-17T09:19:03Z</time>
      </trkpt>
      <trkpt lat="44.47002" lon="1.12714">
        <ele>105</ele>
        <time>2015-05-17T09:19:04Z</time>
      </trkpt>
      <trkpt lat="44.46947" lon="1.1271">
        <ele>107</ele>
        <time>2015-05-17T09:19:18Z</time>
      </trkpt>
      <trkpt lat="44.46896" lon="1.12719">
        <ele>109</ele>
        <time>2015-05-17T09:19:32Z</time>
      </trkpt>
      <trkpt lat="44.46876" lon="1.12721">
        <ele>111</ele>
        <time>2015-05-17T09:19:42Z</time>
      </trkpt>
      <trkpt lat="44.46875" lon="1.12721">
        <ele>114</ele>
        <time>2015-05-17T09:19:58Z</time>
      </trkpt>
      <trkpt lat="44.46875" lon="1.1272">
        <ele>115</ele>
        <time>2015-05-17T09:20:12Z</time>
      </trkpt>
      <trkpt lat="44.46874" lon="1.1272">
        <ele>116</ele>
        <time>2015-05-17T09:20:36Z</time>
      </trkpt>
      <trkpt lat="44.46873" lon="1.12719">
        <ele>116</ele>
        <time>2015-05-17T09:20:37Z</time>
      </trkpt>
      <trkpt lat="44.46871" lon="1.12717">
        <ele>116</ele>
        <time>2015-05-17T09:20:38Z</time>
      </trkpt>
      <trkpt lat="44.46869" lon="1.12714">
        <ele>116</ele>
        <time>2015-05-17T09:20:39Z</time>
      </trkpt>
      <trkpt lat="44.46867" lon="1.12712">
        <ele>116</ele>
        <time>2015-05-17T09:20:40Z</time>
      </trkpt>
      <trkpt lat="44.46864" lon="1.12709">
        <ele>116</ele>
        <time>2015-05-17T09:20:41Z</time>
      </trkpt>
      <trkpt lat="44.46849" lon="1.12693">
        <ele>117</ele>
        <time>2015-05-17T09:20:49Z</time>
      </trkpt>
      <trkpt lat="44.46848" lon="1.12691">
        <ele>117</ele>
        <time>2015-05-17T09:20:50Z</time>
      </trkpt>
      <trkpt lat="44.46848" lon="1.12688">
        <ele>117</ele>
        <time>2015-05-17T09:20:51Z</time>
      </trkpt>
      <trkpt lat="44.46847" lon="1.12686">
        <ele>117</ele>
        <time>2015-05-17T09:20:52Z</time>
      </trkpt>
      <trkpt lat="44.46847" lon="1.12684">
        <ele>117</ele>
        <time>2015-05-17T09:20:53Z</time>
      </trkpt>
      <trkpt lat="44.46847" lon="1.12681">
        <ele>117</ele>
        <time>2015-05-17T09:20:54Z</time>
      </trkpt>
      <trkpt lat="44.46847" lon="1.12678">
        <ele>117</ele>
        <time>2015-05-17T09:20:55Z</time>
      </trkpt>
      <trkpt lat="44.46846" lon="1.12675">
        <ele>117</ele>
        <time>2015-05-17T09:20:56Z</time>
      </trkpt>
      <trkpt lat="44.46845" lon="1.12672">
        <ele>117</ele>
        <time>2015-05-17T09:20:57Z</time>
      </trkpt>
      <trkpt lat="44.46844" lon="1.12668">
        <ele>117</ele>
        <time>2015-05-17T09:20:58Z</time>
      </trkpt>
      <trkpt lat="44.46823" lon="1.12628">
        <ele>118</ele>
        <time>2015-05-17T09:21:11Z</time>
      </trkpt>
      <trkpt lat="44.46806" lon="1.126">
        <ele>120</ele>
        <time>2015-05-17T09:21:21Z</time>
      </trkpt>
      <trkpt lat="44.46804" lon="1.12598">
        <ele>121</ele>
        <time>2015-05-17T09:21:22Z</time>
      </trkpt>
      <trkpt lat="44.46803" lon="1.12596">
        <ele>121</ele>
        <time>2015-05-17T09:21:23Z</time>
      </trkpt>
      <trkpt lat="44.46802" lon="1.12594">
        <ele>121</ele>
        <time>2015-05-17T09:21:24Z</time>
      </trkpt>
      <trkpt lat="44.46802" lon="1.12592">
        <ele>121</ele>
        <time>2015-05-17T09:21:25Z</time>
      </trkpt>
      <trkpt lat="44.46792" lon="1.12563">
        <ele>119</ele>
        <time>2015-05-17T09:21:38Z</time>
      </trkpt>
      <trkpt lat="44.46791" lon="1.12558">
        <ele>118</ele>
        <time>2015-05-17T09:21:40Z</time>
      </trkpt>
      <trkpt lat="44.4679" lon="1.12556">
        <ele>118</ele>
        <time>2015-05-17T09:21:41Z</time>
      </trkpt>
      <trkpt lat="44.4679" lon="1.12553">
        <ele>118</ele>
        <time>2015-05-17T09:21:42Z</time>
      </trkpt>
      <trkpt lat="44.46789" lon="1.12551">
        <ele>118</ele>
        <time>2015-05-17T09:21:43Z</time>
      </trkpt>
      <trkpt lat="44.46788" lon="1.12548">
        <ele>118</ele>
        <time>2015-05-17T09:21:44Z</time>
      </trkpt>
      <trkpt lat="44.46788" lon="1.12546">
        <ele>117</ele>
        <time>2015-05-17T09:21:45Z</time>
      </trkpt>
      <trkpt lat="44.46787" lon="1.12543">
        <ele>117</ele>
        <time>2015-05-17T09:21:46Z</time>
      </trkpt>
      <trkpt lat="44.46787" lon="1.12539">
        <ele>117</ele>
        <time>2015-05-17T09:21:47Z</time>
      </trkpt>
      <trkpt lat="44.46786" lon="1.12536">
        <ele>117</ele>
        <time>2015-05-17T09:21:48Z</time>
      </trkpt>
      <trkpt lat="44.46785" lon="1.12533">
        <ele>118</ele>
        <time>2015-05-17T09:21:49Z</time>
      </trkpt>
      <trkpt lat="44.46784" lon="1.12531">
        <ele>118</ele>
        <time>2015-05-17T09:21:50Z</time>
      </trkpt>
      <trkpt lat="44.46768" lon="1.12494">
        <ele>119</ele>
        <time>2015-05-17T09:22:02Z</time>
      </trkpt>
      <trkpt lat="44.4676" lon="1.12482">
        <ele>120</ele>
        <time>2015-05-17T09:22:07Z</time>
      </trkpt>
      <trkpt lat="44.46758" lon="1.12481">
        <ele>120</ele>
        <time>2015-05-17T09:22:08Z</time>
      </trkpt>
      <trkpt lat="44.46757" lon="1.12479">
        <ele>120</ele>
        <time>2015-05-17T09:22:09Z</time>
      </trkpt>
      <trkpt lat="44.46756" lon="1.12476">
        <ele>121</ele>
        <time>2015-05-17T09:22:10Z</time>
      </trkpt>
      <trkpt lat="44.46755" lon="1.12472">
        <ele>121</ele>
        <time>2015-05-17T09:22:12Z</time>
      </trkpt>
      <trkpt lat="44.46755" lon="1.12469">
        <ele>121</ele>
        <time>2015-05-17T09:22:13Z</time>
      </trkpt>
      <trkpt lat="44.46753" lon="1.12461">
        <ele>122</ele>
        <time>2015-05-17T09:22:18Z</time>
      </trkpt>
      <trkpt lat="44.46753" lon="1.12457">
        <ele>123</ele>
        <time>2015-05-17T09:22:20Z</time>
      </trkpt>
      <trkpt lat="44.46752" lon="1.12455">
        <ele>123</ele>
        <time>2015-05-17T09:22:21Z</time>
      </trkpt>
      <trkpt lat="44.46748" lon="1.12429">
        <ele>125</ele>
        <time>2015-05-17T09:22:31Z</time>
      </trkpt>
      <trkpt lat="44.46748" lon="1.12427">
        <ele>126</ele>
        <time>2015-05-17T09:22:32Z</time>
      </trkpt>
      <trkpt lat="44.46748" lon="1.12424">
        <ele>126</ele>
        <time>2015-05-17T09:22:33Z</time>
      </trkpt>
      <trkpt lat="44.46748" lon="1.12422">
        <ele>127</ele>
        <time>2015-05-17T09:22:34Z</time>
      </trkpt>
      <trkpt lat="44.46748" lon="1.12419">
        <ele>127</ele>
        <time>2015-05-17T09:22:35Z</time>
      </trkpt>
      <trkpt lat="44.46749" lon="1.12417">
        <ele>128</ele>
        <time>2015-05-17T09:22:36Z</time>
      </trkpt>
      <trkpt lat="44.46749" lon="1.12414">
        <ele>128</ele>
        <time>2015-05-17T09:22:37Z</time>
      </trkpt>
      <trkpt lat="44.46749" lon="1.12411">
        <ele>128</ele>
        <time>2015-05-17T09:22:38Z</time>
      </trkpt>
      <trkpt lat="44.46749" lon="1.12408">
        <ele>128</ele>
        <time>2015-05-17T09:22:39Z</time>
      </trkpt>
      <trkpt lat="44.46749" lon="1.12403">
        <ele>129</ele>
        <time>2015-05-17T09:22:41Z</time>
      </trkpt>
      <trkpt lat="44.46749" lon="1.12401">
        <ele>129</ele>
        <time>2015-05-17T09:22:42Z</time>
      </trkpt>
      <trkpt lat="44.46749" lon="1.12398">
        <ele>129</ele>
        <time>2015-05-17T09:22:43Z</time>
      </trkpt>
      <trkpt lat="44.46755" lon="1.12368">
        <ele>129</ele>
        <time>2015-05-17T09:22:55Z</time>
      </trkpt>
      <trkpt lat="44.46755" lon="1.12365">
        <ele>129</ele>
        <time>2015-05-17T09:22:56Z</time>
      </trkpt>
      <trkpt lat="44.46754" lon="1.12362">
        <ele>129</ele>
        <time>2015-05-17T09:22:57Z</time>
      </trkpt>
      <trkpt lat="44.46753" lon="1.12357">
        <ele>129</ele>
        <time>2015-05-17T09:22:59Z</time>
      </trkpt>
      <trkpt lat="44.46752" lon="1.12355">
        <ele>129</ele>
        <time>2015-05-17T09:23:00Z</time>
      </trkpt>
      <trkpt lat="44.46751" lon="1.12351">
        <ele>129</ele>
        <time>2015-05-17T09:23:01Z</time>
      </trkpt>
      <trkpt lat="44.4675" lon="1.12347">
        <ele>129</ele>
        <time>2015-05-17T09:23:02Z</time>
      </trkpt>
      <trkpt lat="44.4675" lon="1.12343">
        <ele>130</ele>
        <time>2015-05-17T09:23:03Z</time>
      </trkpt>
      <trkpt lat="44.46737" lon="1.12304">
        <ele>132</ele>
        <time>2015-05-17T09:23:14Z</time>
      </trkpt>
      <trkpt lat="44.46716" lon="1.12278">
        <ele>133</ele>
        <time>2015-05-17T09:23:26Z</time>
      </trkpt>
      <trkpt lat="44.46694" lon="1.12261">
        <ele>138</ele>
        <time>2015-05-17T09:23:37Z</time>
      </trkpt>
      <trkpt lat="44.46676" lon="1.12239">
        <ele>141</ele>
        <time>2015-05-17T09:23:49Z</time>
      </trkpt>
      <trkpt lat="44.46659" lon="1.12221">
        <ele>143</ele>
        <time>2015-05-17T09:23:58Z</time>
      </trkpt>
      <trkpt lat="44.46657" lon="1.12219">
        <ele>144</ele>
        <time>2015-05-17T09:23:59Z</time>
      </trkpt>
      <trkpt lat="44.46638" lon="1.12189">
        <ele>147</ele>
        <time>2015-05-17T09:24:09Z</time>
      </trkpt>
      <trkpt lat="44.46619" lon="1.12152">
        <ele>147</ele>
        <time>2015-05-17T09:24:21Z</time>
      </trkpt>
      <trkpt lat="44.46595" lon="1.1211">
        <ele>147</ele>
        <time>2015-05-17T09:24:35Z</time>
      </trkpt>
      <trkpt lat="44.46575" lon="1.12074">
        <ele>153</ele>
        <time>2015-05-17T09:24:47Z</time>
      </trkpt>
      <trkpt lat="44.46567" lon="1.12055">
        <ele>155</ele>
        <time>2015-05-17T09:24:53Z</time>
      </trkpt>
      <trkpt lat="44.46555" lon="1.1202">
        <ele>155</ele>
        <time>2015-05-17T09:25:03Z</time>
      </trkpt>
      <trkpt lat="44.46549" lon="1.12004">
        <ele>154</ele>
        <time>2015-05-17T09:25:07Z</time>
      </trkpt>
      <trkpt lat="44.46547" lon="1.12001">
        <ele>154</ele>
        <time>2015-05-17T09:25:08Z</time>
      </trkpt>
      <trkpt lat="44.46545" lon="1.11997">
        <ele>154</ele>
        <time>2015-05-17T09:25:09Z</time>
      </trkpt>
      <trkpt lat="44.46542" lon="1.11994">
        <ele>154</ele>
        <time>2015-05-17T09:25:10Z</time>
      </trkpt>
      <trkpt lat="44.4654" lon="1.1199">
        <ele>154</ele>
        <time>2015-05-17T09:25:11Z</time>
      </trkpt>
      <trkpt lat="44.46537" lon="1.11985">
        <ele>154</ele>
        <time>2015-05-17T09:25:12Z</time>
      </trkpt>
      <trkpt lat="44.46536" lon="1.11981">
        <ele>154</ele>
        <time>2015-05-17T09:25:13Z</time>
      </trkpt>
      <trkpt lat="44.46535" lon="1.11976">
        <ele>153</ele>
        <time>2015-05-17T09:25:14Z</time>
      </trkpt>
      <trkpt lat="44.46534" lon="1.11972">
        <ele>153</ele>
        <time>2015-05-17T09:25:15Z</time>
      </trkpt>
      <trkpt lat="44.46534" lon="1.11967">
        <ele>153</ele>
        <time>2015-05-17T09:25:16Z</time>
      </trkpt>
      <trkpt lat="44.46534" lon="1.11962">
        <ele>152</ele>
        <time>2015-05-17T09:25:17Z</time>
      </trkpt>
      <trkpt lat="44.46534" lon="1.11958">
        <ele>152</ele>
        <time>2015-05-17T09:25:18Z</time>
      </trkpt>
      <trkpt lat="44.46533" lon="1.11954">
        <ele>152</ele>
        <time>2015-05-17T09:25:19Z</time>
      </trkpt>
      <trkpt lat="44.46532" lon="1.1195">
        <ele>152</ele>
        <time>2015-05-17T09:25:20Z</time>
      </trkpt>
      <trkpt lat="44.46531" lon="1.11947">
        <ele>152</ele>
        <time>2015-05-17T09:25:21Z</time>
      </trkpt>
      <trkpt lat="44.4653" lon="1.11943">
        <ele>152</ele>
        <time>2015-05-17T09:25:22Z</time>
      </trkpt>
      <trkpt lat="44.46529" lon="1.1194">
        <ele>153</ele>
        <time>2015-05-17T09:25:23Z</time>
      </trkpt>
      <trkpt lat="44.46507" lon="1.11908">
        <ele>152</ele>
        <time>2015-05-17T09:25:34Z</time>
      </trkpt>
      <trkpt lat="44.46482" lon="1.11891">
        <ele>152</ele>
        <time>2015-05-17T09:25:45Z</time>
      </trkpt>
      <trkpt lat="44.46456" lon="1.11876">
        <ele>150</ele>
        <time>2015-05-17T09:25:57Z</time>
      </trkpt>
      <trkpt lat="44.46427" lon="1.11851">
        <ele>147</ele>
        <time>2015-05-17T09:26:10Z</time>
      </trkpt>
      <trkpt lat="44.46399" lon="1.11831">
        <ele>147</ele>
        <time>2015-05-17T09:26:23Z</time>
      </trkpt>
      <trkpt lat="44.46363" lon="1.11828">
        <ele>149</ele>
        <time>2015-05-17T09:26:37Z</time>
      </trkpt>
      <trkpt lat="44.46322" lon="1.11839">
        <ele>148</ele>
        <time>2015-05-17T09:26:50Z</time>
      </trkpt>
      <trkpt lat="44.46291" lon="1.11845">
        <ele>147</ele>
        <time>2015-05-17T09:27:01Z</time>
      </trkpt>
      <trkpt lat="44.46265" lon="1.11839">
        <ele>147</ele>
        <time>2015-05-17T09:27:12Z</time>
      </trkpt>
      <trkpt lat="44.46244" lon="1.11834">
        <ele>147</ele>
        <time>2015-05-17T09:27:21Z</time>
      </trkpt>
      <trkpt lat="44.46242" lon="1.11834">
        <ele>147</ele>
        <time>2015-05-17T09:27:22Z</time>
      </trkpt>
      <trkpt lat="44.46239" lon="1.11833">
        <ele>147</ele>
        <time>2015-05-17T09:27:23Z</time>
      </trkpt>
      <trkpt lat="44.46207" lon="1.11826">
        <ele>148</ele>
        <time>2015-05-17T09:27:36Z</time>
      </trkpt>
      <trkpt lat="44.46176" lon="1.11819">
        <ele>151</ele>
        <time>2015-05-17T09:27:48Z</time>
      </trkpt>
      <trkpt lat="44.46148" lon="1.11809">
        <ele>152</ele>
        <time>2015-05-17T09:28:00Z</time>
      </trkpt>
      <trkpt lat="44.46122" lon="1.11802">
        <ele>152</ele>
        <time>2015-05-17T09:28:10Z</time>
      </trkpt>
      <trkpt lat="44.46095" lon="1.1179">
        <ele>153</ele>
        <time>2015-05-17T09:28:21Z</time>
      </trkpt>
      <trkpt lat="44.46072" lon="1.11781">
        <ele>154</ele>
        <time>2015-05-17T09:28:33Z</time>
      </trkpt>
      <trkpt lat="44.46038" lon="1.11774">
        <ele>155</ele>
        <time>2015-05-17T09:28:45Z</time>
      </trkpt>
      <trkpt lat="44.46005" lon="1.11769">
        <ele>157</ele>
        <time>2015-05-17T09:28:57Z</time>
      </trkpt>
      <trkpt lat="44.45991" lon="1.11758">
        <ele>159</ele>
        <time>2015-05-17T09:29:04Z</time>
      </trkpt>
      <trkpt lat="44.45989" lon="1.11756">
        <ele>159</ele>
        <time>2015-05-17T09:29:05Z</time>
      </trkpt>
      <trkpt lat="44.45987" lon="1.11755">
        <ele>160</ele>
        <time>2015-05-17T09:29:06Z</time>
      </trkpt>
      <trkpt lat="44.45986" lon="1.11754">
        <ele>160</ele>
        <time>2015-05-17T09:29:07Z</time>
      </trkpt>
      <trkpt lat="44.45985" lon="1.11752">
        <ele>161</ele>
        <time>2015-05-17T09:29:08Z</time>
      </trkpt>
      <trkpt lat="44.45984" lon="1.1175">
        <ele>161</ele>
        <time>2015-05-17T09:29:09Z</time>
      </trkpt>
      <trkpt lat="44.45983" lon="1.11748">
        <ele>161</ele>
        <time>2015-05-17T09:29:10Z</time>
      </trkpt>
      <trkpt lat="44.45982" lon="1.11746">
        <ele>162</ele>
        <time>2015-05-17T09:29:11Z</time>
      </trkpt>
      <trkpt lat="44.45958" lon="1.11725">
        <ele>167</ele>
        <time>2015-05-17T09:29:23Z</time>
      </trkpt>
      <trkpt lat="44.45931" lon="1.11703">
        <ele>173</ele>
        <time>2015-05-17T09:29:37Z</time>
      </trkpt>
      <trkpt lat="44.45906" lon="1.11688">
        <ele>177</ele>
        <time>2015-05-17T09:29:51Z</time>
      </trkpt>
      <trkpt lat="44.45885" lon="1.11678">
        <ele>181</ele>
        <time>2015-05-17T09:30:04Z</time>
      </trkpt>
      <trkpt lat="44.4588" lon="1.11675">
        <ele>182</ele>
        <time>2015-05-17T09:30:07Z</time>
      </trkpt>
      <trkpt lat="44.45878" lon="1.11675">
        <ele>182</ele>
        <time>2015-05-17T09:30:08Z</time>
      </trkpt>
      <trkpt lat="44.45877" lon="1.11673">
        <ele>182</ele>
        <time>2015-05-17T09:30:09Z</time>
      </trkpt>
      <trkpt lat="44.45875" lon="1.11672">
        <ele>182</ele>
        <time>2015-05-17T09:30:10Z</time>
      </trkpt>
      <trkpt lat="44.45874" lon="1.1167">
        <ele>182</ele>
        <time>2015-05-17T09:30:11Z</time>
      </trkpt>
      <trkpt lat="44.45872" lon="1.11669">
        <ele>182</ele>
        <time>2015-05-17T09:30:12Z</time>
      </trkpt>
      <trkpt lat="44.45871" lon="1.11668">
        <ele>183</ele>
        <time>2015-05-17T09:30:13Z</time>
      </trkpt>
      <trkpt lat="44.45869" lon="1.11667">
        <ele>183</ele>
        <time>2015-05-17T09:30:14Z</time>
      </trkpt>
      <trkpt lat="44.45866" lon="1.11665">
        <ele>183</ele>
        <time>2015-05-17T09:30:16Z</time>
      </trkpt>
      <trkpt lat="44.45864" lon="1.11664">
        <ele>183</ele>
        <time>2015-05-17T09:30:17Z</time>
      </trkpt>
      <trkpt lat="44.45863" lon="1.11663">
        <ele>183</ele>
        <time>2015-05-17T09:30:18Z</time>
      </trkpt>
      <trkpt lat="44.45861" lon="1.11662">
        <ele>183</ele>
        <time>2015-05-17T09:30:19Z</time>
      </trkpt>
      <trkpt lat="44.4586" lon="1.11661">
        <ele>184</ele>
        <time>2015-05-17T09:30:20Z</time>
      </trkpt>
      <trkpt lat="44.45834" lon="1.1165">
        <ele>187</ele>
        <time>2015-05-17T09:30:30Z</time>
      </trkpt>
      <trkpt lat="44.4581" lon="1.11622">
        <ele>188</ele>
        <time>2015-05-17T09:30:41Z</time>
      </trkpt>
      <trkpt lat="44.45796" lon="1.11597">
        <ele>190</ele>
        <time>2015-05-17T09:30:53Z</time>
      </trkpt>
      <trkpt lat="44.45792" lon="1.11581">
        <ele>192</ele>
        <time>2015-05-17T09:31:00Z</time>
      </trkpt>
      <trkpt lat="44.45774" lon="1.11587">
        <ele>193</ele>
        <time>2015-05-17T09:31:11Z</time>
      </trkpt>
      <trkpt lat="44.45773" lon="1.11588">
        <ele>193</ele>
        <time>2015-05-17T09:31:12Z</time>
      </trkpt>
      <trkpt lat="44.45742" lon="1.11607">
        <ele>193</ele>
        <time>2015-05-17T09:31:26Z</time>
      </trkpt>
      <trkpt lat="44.4571" lon="1.11618">
        <ele>194</ele>
        <time>2015-05-17T09:31:39Z</time>
      </trkpt>
      <trkpt lat="44.45673" lon="1.11633">
        <ele>197</ele>
        <time>2015-05-17T09:31:57Z</time>
      </trkpt>
      <trkpt lat="44.45648" lon="1.11647">
        <ele>199</ele>
        <time>2015-05-17T09:32:10Z</time>
      </trkpt>
      <trkpt lat="44.45622" lon="1.11659">
        <ele>202</ele>
        <time>2015-05-17T09:32:22Z</time>
      </trkpt>
      <trkpt lat="44.45583" lon="1.11671">
        <ele>206</ele>
        <time>2015-05-17T09:32:38Z</time>
      </trkpt>
      <trkpt lat="44.45559" lon="1.11673">
        <ele>207</ele>
        <time>2015-05-17T09:32:46Z</time>
      </trkpt>
      <trkpt lat="44.45541" lon="1.11681">
        <ele>207</ele>
        <time>2015-05-17T09:32:50Z</time>
      </trkpt>
      <trkpt lat="44.45522" lon="1.11702">
        <ele>207</ele>
        <time>2015-05-17T09:32:57Z</time>
      </trkpt>
      <trkpt lat="44.45481" lon="1.11734">
        <ele>206</ele>
        <time>2015-05-17T09:33:10Z</time>
      </trkpt>
      <trkpt lat="44.45456" lon="1.11751">
        <ele>209</ele>
        <time>2015-05-17T09:33:22Z</time>
      </trkpt>
      <trkpt lat="44.45429" lon="1.11747">
        <ele>208</ele>
        <time>2015-05-17T09:33:35Z</time>
      </trkpt>
      <trkpt lat="44.45406" lon="1.11739">
        <ele>204</ele>
        <time>2015-05-17T09:33:47Z</time>
      </trkpt>
      <trkpt lat="44.45378" lon="1.11736">
        <ele>207</ele>
        <time>2015-05-17T09:34:00Z</time>
      </trkpt>
      <trkpt lat="44.45356" lon="1.11735">
        <ele>210</ele>
        <time>2015-05-17T09:34:11Z</time>
      </trkpt>
      <trkpt lat="44.45356" lon="1.11726">
        <ele>213</ele>
        <time>2015-05-17T09:34:16Z</time>
      </trkpt>
      <trkpt lat="44.45375" lon="1.11702">
        <ele>222</ele>
        <time>2015-05-17T09:34:28Z</time>
      </trkpt>
      <trkpt lat="44.45398" lon="1.11662">
        <ele>227</ele>
        <time>2015-05-17T09:34:42Z</time>
      </trkpt>
      <trkpt lat="44.45427" lon="1.11617">
        <ele>232</ele>
        <time>2015-05-17T09:34:54Z</time>
      </trkpt>
      <trkpt lat="44.45462" lon="1.11591">
        <ele>237</ele>
        <time>2015-05-17T09:35:05Z</time>
      </trkpt>
      <trkpt lat="44.45494" lon="1.11568">
        <ele>243</ele>
        <time>2015-05-17T09:35:14Z</time>
      </trkpt>
      <trkpt lat="44.45497" lon="1.11564">
        <ele>244</ele>
        <time>2015-05-17T09:35:15Z</time>
      </trkpt>
      <trkpt lat="44.4551" lon="1.11546">
        <ele>244</ele>
        <time>2015-05-17T09:35:19Z</time>
      </trkpt>
      <trkpt lat="44.45514" lon="1.11543">
        <ele>244</ele>
        <time>2015-05-17T09:35:20Z</time>
      </trkpt>
      <trkpt lat="44.45517" lon="1.1154">
        <ele>244</ele>
        <time>2015-05-17T09:35:21Z</time>
      </trkpt>
      <trkpt lat="44.4552" lon="1.11537">
        <ele>244</ele>
        <time>2015-05-17T09:35:22Z</time>
      </trkpt>
      <trkpt lat="44.45524" lon="1.11535">
        <ele>244</ele>
        <time>2015-05-17T09:35:23Z</time>
      </trkpt>
      <trkpt lat="44.45527" lon="1.11534">
        <ele>244</ele>
        <time>2015-05-17T09:35:24Z</time>
      </trkpt>
      <trkpt lat="44.4553" lon="1.11533">
        <ele>243</ele>
        <time>2015-05-17T09:35:25Z</time>
      </trkpt>
      <trkpt lat="44.45552" lon="1.11523">
        <ele>243</ele>
        <time>2015-05-17T09:35:35Z</time>
      </trkpt>
      <trkpt lat="44.45585" lon="1.11513">
        <ele>245</ele>
        <time>2015-05-17T09:35:48Z</time>
      </trkpt>
      <trkpt lat="44.45599" lon="1.11505">
        <ele>246</ele>
        <time>2015-05-17T09:35:54Z</time>
      </trkpt>
      <trkpt lat="44.45601" lon="1.11504">
        <ele>246</ele>
        <time>2015-05-17T09:35:55Z</time>
      </trkpt>
      <trkpt lat="44.45603" lon="1.11502">
        <ele>246</ele>
        <time>2015-05-17T09:35:56Z</time>
      </trkpt>
      <trkpt lat="44.45635" lon="1.11479">
        <ele>246</ele>
        <time>2015-05-17T09:36:09Z</time>
      </trkpt>
      <trkpt lat="44.45667" lon="1.11449">
        <ele>247</ele>
        <time>2015-05-17T09:36:21Z</time>
      </trkpt>
      <trkpt lat="44.457" lon="1.11426">
        <ele>246</ele>
        <time>2015-05-17T09:36:32Z</time>
      </trkpt>
      <trkpt lat="44.45731" lon="1.11411">
        <ele>245</ele>
        <time>2015-05-17T09:36:43Z</time>
      </trkpt>
      <trkpt lat="44.45765" lon="1.11391">
        <ele>245</ele>
        <time>2015-05-17T09:36:55Z</time>
      </trkpt>
      <trkpt lat="44.45801" lon="1.11362">
        <ele>240</ele>
        <time>2015-05-17T09:37:07Z</time>
      </trkpt>
      <trkpt lat="44.45826" lon="1.11343">
        <ele>240</ele>
        <time>2015-05-17T09:37:19Z</time>
      </trkpt>
      <trkpt lat="44.45854" lon="1.11319">
        <ele>240</ele>
        <time>2015-05-17T09:37:32Z</time>
      </trkpt>
      <trkpt lat="44.45856" lon="1.11318">
        <ele>240</ele>
        <time>2015-05-17T09:37:33Z</time>
      </trkpt>
      <trkpt lat="44.45862" lon="1.11312">
        <ele>240</ele>
        <time>2015-05-17T09:37:37Z</time>
      </trkpt>
      <trkpt lat="44.4588" lon="1.11296">
        <ele>242</ele>
        <time>2015-05-17T09:37:49Z</time>
      </trkpt>
      <trkpt lat="44.45873" lon="1.11287">
        <ele>241</ele>
        <time>2015-05-17T09:37:55Z</time>
      </trkpt>
      <trkpt lat="44.45823" lon="1.11269">
        <ele>239</ele>
        <time>2015-05-17T09:38:10Z</time>
      </trkpt>
      <trkpt lat="44.45774" lon="1.11246">
        <ele>240</ele>
        <time>2015-05-17T09:38:25Z</time>
      </trkpt>
      <trkpt lat="44.45734" lon="1.11234">
        <ele>241</ele>
        <time>2015-05-17T09:38:37Z</time>
      </trkpt>
      <trkpt lat="44.45701" lon="1.11224">
        <ele>242</ele>
        <time>2015-05-17T09:38:46Z</time>
      </trkpt>
      <trkpt lat="44.45697" lon="1.11226">
        <ele>241</ele>
        <time>2015-05-17T09:38:47Z</time>
      </trkpt>
      <trkpt lat="44.45689" lon="1.11228">
        <ele>241</ele>
        <time>2015-05-17T09:38:49Z</time>
      </trkpt>
      <trkpt lat="44.45684" lon="1.11227">
        <ele>241</ele>
        <time>2015-05-17T09:38:50Z</time>
      </trkpt>
      <trkpt lat="44.4568" lon="1.11226">
        <ele>241</ele>
        <time>2015-05-17T09:38:51Z</time>
      </trkpt>
      <trkpt lat="44.45671" lon="1.11223">
        <ele>241</ele>
        <time>2015-05-17T09:38:53Z</time>
      </trkpt>
      <trkpt lat="44.45667" lon="1.11222">
        <ele>241</ele>
        <time>2015-05-17T09:38:54Z</time>
      </trkpt>
      <trkpt lat="44.45663" lon="1.11221">
        <ele>241</ele>
        <time>2015-05-17T09:38:55Z</time>
      </trkpt>
      <trkpt lat="44.4565" lon="1.1122">
        <ele>241</ele>
        <time>2015-05-17T09:38:58Z</time>
      </trkpt>
      <trkpt lat="44.45588" lon="1.11213">
        <ele>240</ele>
        <time>2015-05-17T09:39:11Z</time>
      </trkpt>
      <trkpt lat="44.4555" lon="1.11207">
        <ele>241</ele>
        <time>2015-05-17T09:39:18Z</time>
      </trkpt>
      <trkpt lat="44.45527" lon="1.11193">
        <ele>241</ele>
        <time>2015-05-17T09:39:23Z</time>
      </trkpt>
      <trkpt lat="44.45516" lon="1.11182">
        <ele>240</ele>
        <time>2015-05-17T09:39:26Z</time>
      </trkpt>
      <trkpt lat="44.4547" lon="1.11141">
        <ele>240</ele>
        <time>2015-05-17T09:39:39Z</time>
      </trkpt>
      <trkpt lat="44.4543" lon="1.11119">
        <ele>240</ele>
        <time>2015-05-17T09:39:50Z</time>
      </trkpt>
      <trkpt lat="44.45389" lon="1.11103">
        <ele>239</ele>
        <time>2015-05-17T09:40:02Z</time>
      </trkpt>
      <trkpt lat="44.45343" lon="1.11093">
        <ele>239</ele>
        <time>2015-05-17T09:40:16Z</time>
      </trkpt>
      <trkpt lat="44.45314" lon="1.11089">
        <ele>241</ele>
        <time>2015-05-17T09:40:28Z</time>
      </trkpt>
      <trkpt lat="44.45286" lon="1.11085">
        <ele>243</ele>
        <time>2015-05-17T09:40:41Z</time>
      </trkpt>
      <trkpt lat="44.45251" lon="1.11084">
        <ele>244</ele>
        <time>2015-05-17T09:40:56Z</time>
      </trkpt>
      <trkpt lat="44.45206" lon="1.11087">
        <ele>246</ele>
        <time>2015-05-17T09:41:11Z</time>
      </trkpt>
      <trkpt lat="44.45166" lon="1.11091">
        <ele>246</ele>
        <time>2015-05-17T09:41:22Z</time>
      </trkpt>
      <trkpt lat="44.45138" lon="1.11099">
        <ele>247</ele>
        <time>2015-05-17T09:41:29Z</time>
      </trkpt>
      <trkpt lat="44.45111" lon="1.11097">
        <ele>248</ele>
        <time>2015-05-17T09:41:35Z</time>
      </trkpt>
      <trkpt lat="44.45101" lon="1.11095">
        <ele>248</ele>
        <time>2015-05-17T09:41:37Z</time>
      </trkpt>
      <trkpt lat="44.45052" lon="1.11078">
        <ele>247</ele>
        <time>2015-05-17T09:41:48Z</time>
      </trkpt>
      <trkpt lat="44.45054" lon="1.11045">
        <ele>246</ele>
        <time>2015-05-17T09:41:55Z</time>
      </trkpt>
      <trkpt lat="44.4508" lon="1.10979">
        <ele>247</ele>
        <time>2015-05-17T09:42:08Z</time>
      </trkpt>
      <trkpt lat="44.45107" lon="1.10945">
        <ele>249</ele>
        <time>2015-05-17T09:42:19Z</time>
      </trkpt>
      <trkpt lat="44.45129" lon="1.10897">
        <ele>250</ele>
        <time>2015-05-17T09:42:34Z</time>
      </trkpt>
      <trkpt lat="44.45142" lon="1.10863">
        <ele>253</ele>
        <time>2015-05-17T09:42:47Z</time>
      </trkpt>
      <trkpt lat="44.45157" lon="1.10833">
        <ele>256</ele>
        <time>2015-05-17T09:43:02Z</time>
      </trkpt>
      <trkpt lat="44.45171" lon="1.10813">
        <ele>260</ele>
        <time>2015-05-17T09:43:15Z</time>
      </trkpt>
      <trkpt lat="44.45186" lon="1.10793">
        <ele>264</ele>
        <time>2015-05-17T09:43:30Z</time>
      </trkpt>
      <trkpt lat="44.45193" lon="1.1078">
        <ele>264</ele>
        <time>2015-05-17T09:43:38Z</time>
      </trkpt>
      <trkpt lat="44.45204" lon="1.10762">
        <ele>266</ele>
        <time>2015-05-17T09:43:51Z</time>
      </trkpt>
      <trkpt lat="44.452" lon="1.10749">
        <ele>266</ele>
        <time>2015-05-17T09:43:57Z</time>
      </trkpt>
      <trkpt lat="44.45198" lon="1.10746">
        <ele>266</ele>
        <time>2015-05-17T09:43:58Z</time>
      </trkpt>
      <trkpt lat="44.45197" lon="1.10742">
        <ele>266</ele>
        <time>2015-05-17T09:43:59Z</time>
      </trkpt>
      <trkpt lat="44.45188" lon="1.10723">
        <ele>265</ele>
        <time>2015-05-17T09:44:04Z</time>
      </trkpt>
      <trkpt lat="44.45153" lon="1.10641">
        <ele>260</ele>
        <time>2015-05-17T09:44:15Z</time>
      </trkpt>
      <trkpt lat="44.45119" lon="1.10555">
        <ele>250</ele>
        <time>2015-05-17T09:44:25Z</time>
      </trkpt>
      <trkpt lat="44.45118" lon="1.10547">
        <ele>249</ele>
        <time>2015-05-17T09:44:26Z</time>
      </trkpt>
      <trkpt lat="44.45118" lon="1.10539">
        <ele>248</ele>
        <time>2015-05-17T09:44:27Z</time>
      </trkpt>
      <trkpt lat="44.45119" lon="1.10481">
        <ele>247</ele>
        <time>2015-05-17T09:44:34Z</time>
      </trkpt>
      <trkpt lat="44.45129" lon="1.10359">
        <ele>247</ele>
        <time>2015-05-17T09:44:49Z</time>
      </trkpt>
      <trkpt lat="44.45132" lon="1.10342">
        <ele>247</ele>
        <time>2015-05-17T09:44:51Z</time>
      </trkpt>
      <trkpt lat="44.45134" lon="1.10334">
        <ele>247</ele>
        <time>2015-05-17T09:44:52Z</time>
      </trkpt>
      <trkpt lat="44.45169" lon="1.10221">
        <ele>244</ele>
        <time>2015-05-17T09:45:06Z</time>
      </trkpt>
      <trkpt lat="44.45223" lon="1.10095">
        <ele>237</ele>
        <time>2015-05-17T09:45:19Z</time>
      </trkpt>
      <trkpt lat="44.45258" lon="1.10043">
        <ele>235</ele>
        <time>2015-05-17T09:45:25Z</time>
      </trkpt>
      <trkpt lat="44.45264" lon="1.10039">
        <ele>235</ele>
        <time>2015-05-17T09:45:26Z</time>
      </trkpt>
      <trkpt lat="44.4527" lon="1.10037">
        <ele>235</ele>
        <time>2015-05-17T09:45:27Z</time>
      </trkpt>
      <trkpt lat="44.45276" lon="1.10036">
        <ele>235</ele>
        <time>2015-05-17T09:45:28Z</time>
      </trkpt>
      <trkpt lat="44.45281" lon="1.10036">
        <ele>235</ele>
        <time>2015-05-17T09:45:29Z</time>
      </trkpt>
      <trkpt lat="44.4532" lon="1.10032">
        <ele>239</ele>
        <time>2015-05-17T09:45:40Z</time>
      </trkpt>
      <trkpt lat="44.45363" lon="1.1003">
        <ele>244</ele>
        <time>2015-05-17T09:45:55Z</time>
      </trkpt>
      <trkpt lat="44.45402" lon="1.10023">
        <ele>250</ele>
        <time>2015-05-17T09:46:12Z</time>
      </trkpt>
      <trkpt lat="44.45438" lon="1.10013">
        <ele>255</ele>
        <time>2015-05-17T09:46:25Z</time>
      </trkpt>
      <trkpt lat="44.45454" lon="1.10007">
        <ele>257</ele>
        <time>2015-05-17T09:46:29Z</time>
      </trkpt>
      <trkpt lat="44.45518" lon="1.09971">
        <ele>265</ele>
        <time>2015-05-17T09:46:43Z</time>
      </trkpt>
      <trkpt lat="44.4558" lon="1.09925">
        <ele>265</ele>
        <time>2015-05-17T09:46:58Z</time>
      </trkpt>
      <trkpt lat="44.45645" lon="1.09874">
        <ele>260</ele>
        <time>2015-05-17T09:47:14Z</time>
      </trkpt>
      <trkpt lat="44.45675" lon="1.09845">
        <ele>257</ele>
        <time>2015-05-17T09:47:22Z</time>
      </trkpt>
      <trkpt lat="44.45721" lon="1.09814">
        <ele>258</ele>
        <time>2015-05-17T09:47:34Z</time>
      </trkpt>
      <trkpt lat="44.45798" lon="1.09776">
        <ele>254</ele>
        <time>2015-05-17T09:47:48Z</time>
      </trkpt>
      <trkpt lat="44.45841" lon="1.09759">
        <ele>250</ele>
        <time>2015-05-17T09:47:55Z</time>
      </trkpt>
      <trkpt lat="44.45864" lon="1.09738">
        <ele>248</ele>
        <time>2015-05-17T09:48:00Z</time>
      </trkpt>
      <trkpt lat="44.45919" lon="1.09626">
        <ele>243</ele>
        <time>2015-05-17T09:48:16Z</time>
      </trkpt>
      <trkpt lat="44.45929" lon="1.09592">
        <ele>241</ele>
        <time>2015-05-17T09:48:20Z</time>
      </trkpt>
      <trkpt lat="44.45961" lon="1.09507">
        <ele>238</ele>
        <time>2015-05-17T09:48:31Z</time>
      </trkpt>
      <trkpt lat="44.45983" lon="1.09464">
        <ele>237</ele>
        <time>2015-05-17T09:48:37Z</time>
      </trkpt>
      <trkpt lat="44.46065" lon="1.09352">
        <ele>231</ele>
        <time>2015-05-17T09:48:54Z</time>
      </trkpt>
      <trkpt lat="44.46096" lon="1.09317">
        <ele>229</ele>
        <time>2015-05-17T09:49:00Z</time>
      </trkpt>
      <trkpt lat="44.46183" lon="1.09297">
        <ele>224</ele>
        <time>2015-05-17T09:49:12Z</time>
      </trkpt>
      <trkpt lat="44.46226" lon="1.09289">
        <ele>224</ele>
        <time>2015-05-17T09:49:20Z</time>
      </trkpt>
      <trkpt lat="44.46238" lon="1.09284">
        <ele>225</ele>
        <time>2015-05-17T09:49:23Z</time>
      </trkpt>
      <trkpt lat="44.46292" lon="1.09273">
        <ele>226</ele>
        <time>2015-05-17T09:49:37Z</time>
      </trkpt>
      <trkpt lat="44.4634" lon="1.09256">
        <ele>228</ele>
        <time>2015-05-17T09:49:52Z</time>
      </trkpt>
      <trkpt lat="44.46379" lon="1.09237">
        <ele>230</ele>
        <time>2015-05-17T09:50:05Z</time>
      </trkpt>
      <trkpt lat="44.46419" lon="1.09219">
        <ele>232</ele>
        <time>2015-05-17T09:50:19Z</time>
      </trkpt>
      <trkpt lat="44.46456" lon="1.09205">
        <ele>234</ele>
        <time>2015-05-17T09:50:32Z</time>
      </trkpt>
      <trkpt lat="44.46458" lon="1.09202">
        <ele>234</ele>
        <time>2015-05-17T09:50:33Z</time>
      </trkpt>
      <trkpt lat="44.4646" lon="1.09199">
        <ele>234</ele>
        <time>2015-05-17T09:50:34Z</time>
      </trkpt>
      <trkpt lat="44.46462" lon="1.09195">
        <ele>234</ele>
        <time>2015-05-17T09:50:35Z</time>
      </trkpt>
      <trkpt lat="44.46464" lon="1.09192">
        <ele>234</ele>
        <time>2015-05-17T09:50:36Z</time>
      </trkpt>
      <trkpt lat="44.46467" lon="1.09188">
        <ele>235</ele>
        <time>2015-05-17T09:50:37Z</time>
      </trkpt>
      <trkpt lat="44.46498" lon="1.09141">
        <ele>235</ele>
        <time>2015-05-17T09:50:50Z</time>
      </trkpt>
      <trkpt lat="44.46518" lon="1.09107">
        <ele>236</ele>
        <time>2015-05-17T09:50:58Z</time>
      </trkpt>
      <trkpt lat="44.4652" lon="1.09103">
        <ele>236</ele>
        <time>2015-05-17T09:50:59Z</time>
      </trkpt>
      <trkpt lat="44.46558" lon="1.09026">
        <ele>237</ele>
        <time>2015-05-17T09:51:14Z</time>
      </trkpt>
      <trkpt lat="44.46561" lon="1.09021">
        <ele>237</ele>
        <time>2015-05-17T09:51:15Z</time>
      </trkpt>
      <trkpt lat="44.46565" lon="1.09011">
        <ele>237</ele>
        <time>2015-05-17T09:51:17Z</time>
      </trkpt>
      <trkpt lat="44.46591" lon="1.08937">
        <ele>238</ele>
        <time>2015-05-17T09:51:30Z</time>
      </trkpt>
      <trkpt lat="44.46593" lon="1.08931">
        <ele>239</ele>
        <time>2015-05-17T09:51:31Z</time>
      </trkpt>
      <trkpt lat="44.46614" lon="1.08837">
        <ele>239</ele>
        <time>2015-05-17T09:51:46Z</time>
      </trkpt>
      <trkpt lat="44.46614" lon="1.08831">
        <ele>239</ele>
        <time>2015-05-17T09:51:47Z</time>
      </trkpt>
      <trkpt lat="44.46609" lon="1.08762">
        <ele>240</ele>
        <time>2015-05-17T09:51:58Z</time>
      </trkpt>
      <trkpt lat="44.46608" lon="1.08756">
        <ele>240</ele>
        <time>2015-05-17T09:51:59Z</time>
      </trkpt>
      <trkpt lat="44.46606" lon="1.0875">
        <ele>240</ele>
        <time>2015-05-17T09:52:00Z</time>
      </trkpt>
      <trkpt lat="44.46597" lon="1.08648">
        <ele>241</ele>
        <time>2015-05-17T09:52:17Z</time>
      </trkpt>
      <trkpt lat="44.46595" lon="1.08644">
        <ele>241</ele>
        <time>2015-05-17T09:52:18Z</time>
      </trkpt>
      <trkpt lat="44.46592" lon="1.0864">
        <ele>241</ele>
        <time>2015-05-17T09:52:19Z</time>
      </trkpt>
      <trkpt lat="44.46589" lon="1.08635">
        <ele>241</ele>
        <time>2015-05-17T09:52:20Z</time>
      </trkpt>
      <trkpt lat="44.46587" lon="1.08628">
        <ele>240</ele>
        <time>2015-05-17T09:52:21Z</time>
      </trkpt>
      <trkpt lat="44.46586" lon="1.08622">
        <ele>240</ele>
        <time>2015-05-17T09:52:22Z</time>
      </trkpt>
      <trkpt lat="44.46585" lon="1.08615">
        <ele>240</ele>
        <time>2015-05-17T09:52:23Z</time>
      </trkpt>
      <trkpt lat="44.46584" lon="1.08608">
        <ele>240</ele>
        <time>2015-05-17T09:52:24Z</time>
      </trkpt>
      <trkpt lat="44.46584" lon="1.08601">
        <ele>240</ele>
        <time>2015-05-17T09:52:25Z</time>
      </trkpt>
      <trkpt lat="44.46583" lon="1.08587">
        <ele>240</ele>
        <time>2015-05-17T09:52:27Z</time>
      </trkpt>
      <trkpt lat="44.46579" lon="1.08526">
        <ele>241</ele>
        <time>2015-05-17T09:52:39Z</time>
      </trkpt>
      <trkpt lat="44.46557" lon="1.08503">
        <ele>243</ele>
        <time>2015-05-17T09:52:50Z</time>
      </trkpt>
      <trkpt lat="44.46531" lon="1.08499">
        <ele>243</ele>
        <time>2015-05-17T09:52:56Z</time>
      </trkpt>
      <trkpt lat="44.4645" lon="1.08488">
        <ele>239</ele>
        <time>2015-05-17T09:53:08Z</time>
      </trkpt>
      <trkpt lat="44.46387" lon="1.0848">
        <ele>240</ele>
        <time>2015-05-17T09:53:19Z</time>
      </trkpt>
      <trkpt lat="44.46357" lon="1.08478">
        <ele>244</ele>
        <time>2015-05-17T09:53:32Z</time>
      </trkpt>
      <trkpt lat="44.46329" lon="1.08481">
        <ele>247</ele>
        <time>2015-05-17T09:53:47Z</time>
      </trkpt>
      <trkpt lat="44.46327" lon="1.08481">
        <ele>247</ele>
        <time>2015-05-17T09:53:49Z</time>
      </trkpt>
      <trkpt lat="44.46325" lon="1.08479">
        <ele>247</ele>
        <time>2015-05-17T09:53:52Z</time>
      </trkpt>
      <trkpt lat="44.46324" lon="1.08472">
        <ele>248</ele>
        <time>2015-05-17T09:53:56Z</time>
      </trkpt>
      <trkpt lat="44.46328" lon="1.08447">
        <ele>252</ele>
        <time>2015-05-17T09:54:10Z</time>
      </trkpt>
      <trkpt lat="44.46331" lon="1.08427">
        <ele>255</ele>
        <time>2015-05-17T09:54:21Z</time>
      </trkpt>
      <trkpt lat="44.46332" lon="1.08402">
        <ele>257</ele>
        <time>2015-05-17T09:54:34Z</time>
      </trkpt>
      <trkpt lat="44.46331" lon="1.08395">
        <ele>257</ele>
        <time>2015-05-17T09:54:38Z</time>
      </trkpt>
      <trkpt lat="44.46329" lon="1.0839">
        <ele>257</ele>
        <time>2015-05-17T09:54:41Z</time>
      </trkpt>
      <trkpt lat="44.46327" lon="1.08384">
        <ele>258</ele>
        <time>2015-05-17T09:54:45Z</time>
      </trkpt>
      <trkpt lat="44.46309" lon="1.08367">
        <ele>260</ele>
        <time>2015-05-17T09:54:58Z</time>
      </trkpt>
      <trkpt lat="44.46307" lon="1.08367">
        <ele>260</ele>
        <time>2015-05-17T09:54:59Z</time>
      </trkpt>
      <trkpt lat="44.46304" lon="1.08367">
        <ele>260</ele>
        <time>2015-05-17T09:55:00Z</time>
      </trkpt>
      <trkpt lat="44.46302" lon="1.08365">
        <ele>260</ele>
        <time>2015-05-17T09:55:01Z</time>
      </trkpt>
      <trkpt lat="44.46301" lon="1.08363">
        <ele>260</ele>
        <time>2015-05-17T09:55:02Z</time>
      </trkpt>
      <trkpt lat="44.46291" lon="1.08311">
        <ele>261</ele>
        <time>2015-05-17T09:55:15Z</time>
      </trkpt>
      <trkpt lat="44.46273" lon="1.0823">
        <ele>260</ele>
        <time>2015-05-17T09:55:31Z</time>
      </trkpt>
      <trkpt lat="44.46264" lon="1.0818">
        <ele>259</ele>
        <time>2015-05-17T09:55:40Z</time>
      </trkpt>
      <trkpt lat="44.46273" lon="1.08169">
        <ele>258</ele>
        <time>2015-05-17T09:55:44Z</time>
      </trkpt>
      <trkpt lat="44.46318" lon="1.08142">
        <ele>257</ele>
        <time>2015-05-17T09:55:56Z</time>
      </trkpt>
      <trkpt lat="44.46331" lon="1.08136">
        <ele>257</ele>
        <time>2015-05-17T09:55:59Z</time>
      </trkpt>
      <trkpt lat="44.46355" lon="1.081">
        <ele>254</ele>
        <time>2015-05-17T09:56:06Z</time>
      </trkpt>
      <trkpt lat="44.46378" lon="1.08015">
        <ele>251</ele>
        <time>2015-05-17T09:56:15Z</time>
      </trkpt>
      <trkpt lat="44.46381" lon="1.07985">
        <ele>250</ele>
        <time>2015-05-17T09:56:18Z</time>
      </trkpt>
      <trkpt lat="44.46395" lon="1.07848">
        <ele>249</ele>
        <time>2015-05-17T09:56:31Z</time>
      </trkpt>
      <trkpt lat="44.464" lon="1.07782">
        <ele>249</ele>
        <time>2015-05-17T09:56:38Z</time>
      </trkpt>
      <trkpt lat="44.46414" lon="1.07705">
        <ele>249</ele>
        <time>2015-05-17T09:56:48Z</time>
      </trkpt>
      <trkpt lat="44.46423" lon="1.07659">
        <ele>247</ele>
        <time>2015-05-17T09:56:53Z</time>
      </trkpt>
      <trkpt lat="44.46438" lon="1.07569">
        <ele>241</ele>
        <time>2015-05-17T09:57:05Z</time>
      </trkpt>
      <trkpt lat="44.46441" lon="1.07566">
        <ele>238</ele>
        <time>2015-05-17T09:57:14Z</time>
      </trkpt>
      <trkpt lat="44.46442" lon="1.07566">
        <ele>237</ele>
        <time>2015-05-17T09:57:33Z</time>
      </trkpt>
      <trkpt lat="44.46442" lon="1.07566">
        <ele>236</ele>
        <time>2015-05-17T09:58:05Z</time>
      </trkpt>
      <trkpt lat="44.46441" lon="1.07566">
        <ele>236</ele>
        <time>2015-05-17T09:58:35Z</time>
      </trkpt>
      <trkpt lat="44.46441" lon="1.07567">
        <ele>236</ele>
        <time>2015-05-17T09:59:07Z</time>
      </trkpt>
      <trkpt lat="44.4644" lon="1.07567">
        <ele>236</ele>
        <time>2015-05-17T09:59:37Z</time>
      </trkpt>
      <trkpt lat="44.46439" lon="1.07566">
        <ele>236</ele>
        <time>2015-05-17T09:59:48Z</time>
      </trkpt>
      <trkpt lat="44.46421" lon="1.07561">
        <ele>234</ele>
        <time>2015-05-17T09:59:56Z</time>
      </trkpt>
      <trkpt lat="44.46404" lon="1.0756">
        <ele>234</ele>
        <time>2015-05-17T10:00:00Z</time>
      </trkpt>
      <trkpt lat="44.4635" lon="1.07554">
        <ele>233</ele>
        <time>2015-05-17T10:00:09Z</time>
      </trkpt>
      <trkpt lat="44.46336" lon="1.07556">
        <ele>233</ele>
        <time>2015-05-17T10:00:11Z</time>
      </trkpt>
      <trkpt lat="44.46275" lon="1.07584">
        <ele>231</ele>
        <time>2015-05-17T10:00:21Z</time>
      </trkpt>
      <trkpt lat="44.46243" lon="1.0759">
        <ele>231</ele>
        <time>2015-05-17T10:00:27Z</time>
      </trkpt>
      <trkpt lat="44.46223" lon="1.07588">
        <ele>233</ele>
        <time>2015-05-17T10:00:31Z</time>
      </trkpt>
      <trkpt lat="44.46196" lon="1.0759">
        <ele>234</ele>
        <time>2015-05-17T10:00:37Z</time>
      </trkpt>
      <trkpt lat="44.46182" lon="1.07593">
        <ele>234</ele>
        <time>2015-05-17T10:00:40Z</time>
      </trkpt>
      <trkpt lat="44.46102" lon="1.07603">
        <ele>232</ele>
        <time>2015-05-17T10:00:56Z</time>
      </trkpt>
      <trkpt lat="44.46051" lon="1.07608">
        <ele>232</ele>
        <time>2015-05-17T10:01:05Z</time>
      </trkpt>
      <trkpt lat="44.4596" lon="1.07597">
        <ele>232</ele>
        <time>2015-05-17T10:01:20Z</time>
      </trkpt>
      <trkpt lat="44.4591" lon="1.07589">
        <ele>232</ele>
        <time>2015-05-17T10:01:29Z</time>
      </trkpt>
      <trkpt lat="44.45882" lon="1.0758">
        <ele>231</ele>
        <time>2015-05-17T10:01:35Z</time>
      </trkpt>
      <trkpt lat="44.45796" lon="1.0755">
        <ele>229</ele>
        <time>2015-05-17T10:01:51Z</time>
      </trkpt>
      <trkpt lat="44.45758" lon="1.07536">
        <ele>233</ele>
        <time>2015-05-17T10:02:01Z</time>
      </trkpt>
      <trkpt lat="44.45724" lon="1.07501">
        <ele>234</ele>
        <time>2015-05-17T10:02:12Z</time>
      </trkpt>
      <trkpt lat="44.45684" lon="1.07448">
        <ele>228</ele>
        <time>2015-05-17T10:02:24Z</time>
      </trkpt>
      <trkpt lat="44.45658" lon="1.07416">
        <ele>225</ele>
        <time>2015-05-17T10:02:30Z</time>
      </trkpt>
      <trkpt lat="44.45656" lon="1.07365">
        <ele>221</ele>
        <time>2015-05-17T10:02:42Z</time>
      </trkpt>
      <trkpt lat="44.45654" lon="1.07318">
        <ele>218</ele>
        <time>2015-05-17T10:02:52Z</time>
      </trkpt>
      <trkpt lat="44.45653" lon="1.07272">
        <ele>217</ele>
        <time>2015-05-17T10:03:03Z</time>
      </trkpt>
      <trkpt lat="44.45655" lon="1.07259">
        <ele>218</ele>
        <time>2015-05-17T10:03:06Z</time>
      </trkpt>
      <trkpt lat="44.45656" lon="1.07224">
        <ele>220</ele>
        <time>2015-05-17T10:03:15Z</time>
      </trkpt>
      <trkpt lat="44.45663" lon="1.07172">
        <ele>225</ele>
        <time>2015-05-17T10:03:28Z</time>
      </trkpt>
      <trkpt lat="44.45662" lon="1.07115">
        <ele>226</ele>
        <time>2015-05-17T10:03:41Z</time>
      </trkpt>
      <trkpt lat="44.45662" lon="1.07112">
        <ele>226</ele>
        <time>2015-05-17T10:03:42Z</time>
      </trkpt>
      <trkpt lat="44.45662" lon="1.07092">
        <ele>226</ele>
        <time>2015-05-17T10:03:50Z</time>
      </trkpt>
      <trkpt lat="44.45699" lon="1.07056">
        <ele>227</ele>
        <time>2015-05-17T10:04:02Z</time>
      </trkpt>
      <trkpt lat="44.45706" lon="1.07051">
        <ele>227</ele>
        <time>2015-05-17T10:04:04Z</time>
      </trkpt>
      <trkpt lat="44.4574" lon="1.07004">
        <ele>228</ele>
        <time>2015-05-17T10:04:12Z</time>
      </trkpt>
      <trkpt lat="44.45747" lon="1.06989">
        <ele>228</ele>
        <time>2015-05-17T10:04:14Z</time>
      </trkpt>
      <trkpt lat="44.45758" lon="1.06952">
        <ele>228</ele>
        <time>2015-05-17T10:04:18Z</time>
      </trkpt>
      <trkpt lat="44.45764" lon="1.06934">
        <ele>229</ele>
        <time>2015-05-17T10:04:20Z</time>
      </trkpt>
      <trkpt lat="44.4581" lon="1.06882">
        <ele>229</ele>
        <time>2015-05-17T10:04:28Z</time>
      </trkpt>
      <trkpt lat="44.4582" lon="1.06867">
        <ele>229</ele>
        <time>2015-05-17T10:04:30Z</time>
      </trkpt>
      <trkpt lat="44.45891" lon="1.06764">
        <ele>226</ele>
        <time>2015-05-17T10:04:46Z</time>
      </trkpt>
      <trkpt lat="44.45902" lon="1.06748">
        <ele>226</ele>
        <time>2015-05-17T10:04:49Z</time>
      </trkpt>
      <trkpt lat="44.45913" lon="1.06725">
        <ele>227</ele>
        <time>2015-05-17T10:04:53Z</time>
      </trkpt>
      <trkpt lat="44.45917" lon="1.06713">
        <ele>227</ele>
        <time>2015-05-17T10:04:55Z</time>
      </trkpt>
      <trkpt lat="44.45923" lon="1.067">
        <ele>227</ele>
        <time>2015-05-17T10:04:57Z</time>
      </trkpt>
      <trkpt lat="44.45947" lon="1.06662">
        <ele>227</ele>
        <time>2015-05-17T10:05:04Z</time>
      </trkpt>
      <trkpt lat="44.45968" lon="1.0664">
        <ele>226</ele>
        <time>2015-05-17T10:05:09Z</time>
      </trkpt>
      <trkpt lat="44.46038" lon="1.06531">
        <ele>222</ele>
        <time>2015-05-17T10:05:22Z</time>
      </trkpt>
      <trkpt lat="44.46073" lon="1.06472">
        <ele>222</ele>
        <time>2015-05-17T10:05:32Z</time>
      </trkpt>
      <trkpt lat="44.46111" lon="1.06419">
        <ele>222</ele>
        <time>2015-05-17T10:05:45Z</time>
      </trkpt>
      <trkpt lat="44.46138" lon="1.06388">
        <ele>223</ele>
        <time>2015-05-17T10:05:53Z</time>
      </trkpt>
      <trkpt lat="44.4617" lon="1.06351">
        <ele>226</ele>
        <time>2015-05-17T10:06:04Z</time>
      </trkpt>
      <trkpt lat="44.46205" lon="1.06317">
        <ele>231</ele>
        <time>2015-05-17T10:06:17Z</time>
      </trkpt>
      <trkpt lat="44.46229" lon="1.06297">
        <ele>234</ele>
        <time>2015-05-17T10:06:27Z</time>
      </trkpt>
      <trkpt lat="44.46261" lon="1.06262">
        <ele>236</ele>
        <time>2015-05-17T10:06:39Z</time>
      </trkpt>
      <trkpt lat="44.46294" lon="1.0622">
        <ele>236</ele>
        <time>2015-05-17T10:06:52Z</time>
      </trkpt>
      <trkpt lat="44.46295" lon="1.06215">
        <ele>236</ele>
        <time>2015-05-17T10:06:53Z</time>
      </trkpt>
      <trkpt lat="44.46294" lon="1.0621">
        <ele>236</ele>
        <time>2015-05-17T10:06:54Z</time>
      </trkpt>
      <trkpt lat="44.46293" lon="1.06205">
        <ele>235</ele>
        <time>2015-05-17T10:06:55Z</time>
      </trkpt>
      <trkpt lat="44.46291" lon="1.062">
        <ele>235</ele>
        <time>2015-05-17T10:06:56Z</time>
      </trkpt>
      <trkpt lat="44.46288" lon="1.06195">
        <ele>235</ele>
        <time>2015-05-17T10:06:57Z</time>
      </trkpt>
      <trkpt lat="44.46269" lon="1.06162">
        <ele>234</ele>
        <time>2015-05-17T10:07:03Z</time>
      </trkpt>
      <trkpt lat="44.46261" lon="1.0615">
        <ele>234</ele>
        <time>2015-05-17T10:07:05Z</time>
      </trkpt>
      <trkpt lat="44.46227" lon="1.06094">
        <ele>233</ele>
        <time>2015-05-17T10:07:14Z</time>
      </trkpt>
      <trkpt lat="44.46223" lon="1.06089">
        <ele>233</ele>
        <time>2015-05-17T10:07:15Z</time>
      </trkpt>
      <trkpt lat="44.46217" lon="1.06085">
        <ele>233</ele>
        <time>2015-05-17T10:07:16Z</time>
      </trkpt>
      <trkpt lat="44.46136" lon="1.06032">
        <ele>226</ele>
        <time>2015-05-17T10:07:29Z</time>
      </trkpt>
      <trkpt lat="44.4612" lon="1.06017">
        <ele>225</ele>
        <time>2015-05-17T10:07:32Z</time>
      </trkpt>
      <trkpt lat="44.46079" lon="1.05978">
        <ele>222</ele>
        <time>2015-05-17T10:07:42Z</time>
      </trkpt>
      <trkpt lat="44.46068" lon="1.05971">
        <ele>221</ele>
        <time>2015-05-17T10:07:45Z</time>
      </trkpt>
      <trkpt lat="44.46064" lon="1.05968">
        <ele>221</ele>
        <time>2015-05-17T10:07:46Z</time>
      </trkpt>
      <trkpt lat="44.4606" lon="1.05964">
        <ele>220</ele>
        <time>2015-05-17T10:07:47Z</time>
      </trkpt>
      <trkpt lat="44.46056" lon="1.05961">
        <ele>220</ele>
        <time>2015-05-17T10:07:48Z</time>
      </trkpt>
      <trkpt lat="44.46052" lon="1.05958">
        <ele>220</ele>
        <time>2015-05-17T10:07:49Z</time>
      </trkpt>
      <trkpt lat="44.46048" lon="1.05955">
        <ele>220</ele>
        <time>2015-05-17T10:07:50Z</time>
      </trkpt>
      <trkpt lat="44.46043" lon="1.05952">
        <ele>220</ele>
        <time>2015-05-17T10:07:51Z</time>
      </trkpt>
      <trkpt lat="44.46039" lon="1.05949">
        <ele>220</ele>
        <time>2015-05-17T10:07:52Z</time>
      </trkpt>
      <trkpt lat="44.46034" lon="1.05946">
        <ele>220</ele>
        <time>2015-05-17T10:07:53Z</time>
      </trkpt>
      <trkpt lat="44.46029" lon="1.05944">
        <ele>220</ele>
        <time>2015-05-17T10:07:54Z</time>
      </trkpt>
      <trkpt lat="44.46025" lon="1.05941">
        <ele>219</ele>
        <time>2015-05-17T10:07:55Z</time>
      </trkpt>
      <trkpt lat="44.4602" lon="1.05938">
        <ele>219</ele>
        <time>2015-05-17T10:07:56Z</time>
      </trkpt>
      <trkpt lat="44.46016" lon="1.05935">
        <ele>219</ele>
        <time>2015-05-17T10:07:57Z</time>
      </trkpt>
      <trkpt lat="44.45978" lon="1.05909">
        <ele>217</ele>
        <time>2015-05-17T10:08:08Z</time>
      </trkpt>
      <trkpt lat="44.45941" lon="1.05889">
        <ele>218</ele>
        <time>2015-05-17T10:08:19Z</time>
      </trkpt>
      <trkpt lat="44.45938" lon="1.05889">
        <ele>218</ele>
        <time>2015-05-17T10:08:20Z</time>
      </trkpt>
      <trkpt lat="44.45936" lon="1.05891">
        <ele>218</ele>
        <time>2015-05-17T10:08:21Z</time>
      </trkpt>
      <trkpt lat="44.45934" lon="1.05894">
        <ele>219</ele>
        <time>2015-05-17T10:08:22Z</time>
      </trkpt>
      <trkpt lat="44.45933" lon="1.05898">
        <ele>219</ele>
        <time>2015-05-17T10:08:23Z</time>
      </trkpt>
      <trkpt lat="44.45933" lon="1.05903">
        <ele>219</ele>
        <time>2015-05-17T10:08:24Z</time>
      </trkpt>
      <trkpt lat="44.45932" lon="1.05909">
        <ele>220</ele>
        <time>2015-05-17T10:08:25Z</time>
      </trkpt>
      <trkpt lat="44.45924" lon="1.05932">
        <ele>218</ele>
        <time>2015-05-17T10:08:34Z</time>
      </trkpt>
      <trkpt lat="44.45923" lon="1.05933">
        <ele>218</ele>
        <time>2015-05-17T10:08:35Z</time>
      </trkpt>
      <trkpt lat="44.45922" lon="1.05927">
        <ele>218</ele>
        <time>2015-05-17T10:08:40Z</time>
      </trkpt>
      <trkpt lat="44.45932" lon="1.05897">
        <ele>220</ele>
        <time>2015-05-17T10:08:49Z</time>
      </trkpt>
      <trkpt lat="44.45938" lon="1.05843">
        <ele>220</ele>
        <time>2015-05-17T10:08:59Z</time>
      </trkpt>
      <trkpt lat="44.45939" lon="1.05831">
        <ele>220</ele>
        <time>2015-05-17T10:09:01Z</time>
      </trkpt>
      <trkpt lat="44.45942" lon="1.05791">
        <ele>219</ele>
        <time>2015-05-17T10:09:07Z</time>
      </trkpt>
      <trkpt lat="44.45942" lon="1.05784">
        <ele>219</ele>
        <time>2015-05-17T10:09:08Z</time>
      </trkpt>
      <trkpt lat="44.45947" lon="1.0573">
        <ele>219</ele>
        <time>2015-05-17T10:09:16Z</time>
      </trkpt>
      <trkpt lat="44.45946" lon="1.05724">
        <ele>219</ele>
        <time>2015-05-17T10:09:17Z</time>
      </trkpt>
      <trkpt lat="44.45945" lon="1.05718">
        <ele>219</ele>
        <time>2015-05-17T10:09:18Z</time>
      </trkpt>
      <trkpt lat="44.45943" lon="1.05713">
        <ele>219</ele>
        <time>2015-05-17T10:09:19Z</time>
      </trkpt>
      <trkpt lat="44.4594" lon="1.0571">
        <ele>219</ele>
        <time>2015-05-17T10:09:20Z</time>
      </trkpt>
      <trkpt lat="44.45937" lon="1.05709">
        <ele>220</ele>
        <time>2015-05-17T10:09:21Z</time>
      </trkpt>
      <trkpt lat="44.45934" lon="1.05707">
        <ele>220</ele>
        <time>2015-05-17T10:09:22Z</time>
      </trkpt>
      <trkpt lat="44.45931" lon="1.05706">
        <ele>221</ele>
        <time>2015-05-17T10:09:23Z</time>
      </trkpt>
      <trkpt lat="44.45893" lon="1.05689">
        <ele>224</ele>
        <time>2015-05-17T10:09:36Z</time>
      </trkpt>
      <trkpt lat="44.45888" lon="1.05686">
        <ele>225</ele>
        <time>2015-05-17T10:09:38Z</time>
      </trkpt>
      <trkpt lat="44.45887" lon="1.05682">
        <ele>225</ele>
        <time>2015-05-17T10:09:39Z</time>
      </trkpt>
      <trkpt lat="44.45887" lon="1.05679">
        <ele>225</ele>
        <time>2015-05-17T10:09:40Z</time>
      </trkpt>
      <trkpt lat="44.45887" lon="1.05675">
        <ele>225</ele>
        <time>2015-05-17T10:09:41Z</time>
      </trkpt>
      <trkpt lat="44.45887" lon="1.0567">
        <ele>225</ele>
        <time>2015-05-17T10:09:42Z</time>
      </trkpt>
      <trkpt lat="44.45879" lon="1.05586">
        <ele>225</ele>
        <time>2015-05-17T10:09:58Z</time>
      </trkpt>
      <trkpt lat="44.45878" lon="1.05557">
        <ele>225</ele>
        <time>2015-05-17T10:10:03Z</time>
      </trkpt>
      <trkpt lat="44.45873" lon="1.05522">
        <ele>223</ele>
        <time>2015-05-17T10:10:09Z</time>
      </trkpt>
      <trkpt lat="44.45855" lon="1.05503">
        <ele>223</ele>
        <time>2015-05-17T10:10:14Z</time>
      </trkpt>
      <trkpt lat="44.45801" lon="1.05457">
        <ele>220</ele>
        <time>2015-05-17T10:10:26Z</time>
      </trkpt>
      <trkpt lat="44.45787" lon="1.05445">
        <ele>218</ele>
        <time>2015-05-17T10:10:31Z</time>
      </trkpt>
      <trkpt lat="44.45798" lon="1.05424">
        <ele>217</ele>
        <time>2015-05-17T10:10:39Z</time>
      </trkpt>
      <trkpt lat="44.45834" lon="1.05388">
        <ele>218</ele>
        <time>2015-05-17T10:10:51Z</time>
      </trkpt>
      <trkpt lat="44.45864" lon="1.05356">
        <ele>219</ele>
        <time>2015-05-17T10:11:00Z</time>
      </trkpt>
      <trkpt lat="44.45883" lon="1.05331">
        <ele>219</ele>
        <time>2015-05-17T10:11:05Z</time>
      </trkpt>
      <trkpt lat="44.45906" lon="1.05293">
        <ele>219</ele>
        <time>2015-05-17T10:11:12Z</time>
      </trkpt>
      <trkpt lat="44.45938" lon="1.05243">
        <ele>219</ele>
        <time>2015-05-17T10:11:23Z</time>
      </trkpt>
      <trkpt lat="44.45955" lon="1.0524">
        <ele>219</ele>
        <time>2015-05-17T10:11:27Z</time>
      </trkpt>
      <trkpt lat="44.45974" lon="1.05233">
        <ele>219</ele>
        <time>2015-05-17T10:11:31Z</time>
      </trkpt>
      <trkpt lat="44.45984" lon="1.05229">
        <ele>219</ele>
        <time>2015-05-17T10:11:33Z</time>
      </trkpt>
      <trkpt lat="44.45988" lon="1.05227">
        <ele>219</ele>
        <time>2015-05-17T10:11:34Z</time>
      </trkpt>
      <trkpt lat="44.46026" lon="1.05211">
        <ele>217</ele>
        <time>2015-05-17T10:11:42Z</time>
      </trkpt>
      <trkpt lat="44.46031" lon="1.05207">
        <ele>217</ele>
        <time>2015-05-17T10:11:43Z</time>
      </trkpt>
      <trkpt lat="44.46036" lon="1.052">
        <ele>217</ele>
        <time>2015-05-17T10:11:44Z</time>
      </trkpt>
      <trkpt lat="44.4604" lon="1.05192">
        <ele>216</ele>
        <time>2015-05-17T10:11:45Z</time>
      </trkpt>
      <trkpt lat="44.46043" lon="1.05184">
        <ele>216</ele>
        <time>2015-05-17T10:11:46Z</time>
      </trkpt>
      <trkpt lat="44.46045" lon="1.05175">
        <ele>215</ele>
        <time>2015-05-17T10:11:47Z</time>
      </trkpt>
      <trkpt lat="44.46053" lon="1.0515">
        <ele>214</ele>
        <time>2015-05-17T10:11:50Z</time>
      </trkpt>
      <trkpt lat="44.46057" lon="1.05141">
        <ele>214</ele>
        <time>2015-05-17T10:11:51Z</time>
      </trkpt>
      <trkpt lat="44.46063" lon="1.05135">
        <ele>213</ele>
        <time>2015-05-17T10:11:52Z</time>
      </trkpt>
      <trkpt lat="44.4607" lon="1.05131">
        <ele>213</ele>
        <time>2015-05-17T10:11:53Z</time>
      </trkpt>
      <trkpt lat="44.46077" lon="1.05128">
        <ele>212</ele>
        <time>2015-05-17T10:11:54Z</time>
      </trkpt>
      <trkpt lat="44.46149" lon="1.05101">
        <ele>208</ele>
        <time>2015-05-17T10:12:04Z</time>
      </trkpt>
      <trkpt lat="44.46156" lon="1.05099">
        <ele>207</ele>
        <time>2015-05-17T10:12:05Z</time>
      </trkpt>
      <trkpt lat="44.46163" lon="1.05097">
        <ele>207</ele>
        <time>2015-05-17T10:12:06Z</time>
      </trkpt>
      <trkpt lat="44.46169" lon="1.05094">
        <ele>207</ele>
        <time>2015-05-17T10:12:07Z</time>
      </trkpt>
      <trkpt lat="44.46176" lon="1.0509">
        <ele>206</ele>
        <time>2015-05-17T10:12:08Z</time>
      </trkpt>
      <trkpt lat="44.46206" lon="1.05068">
        <ele>205</ele>
        <time>2015-05-17T10:12:14Z</time>
      </trkpt>
      <trkpt lat="44.46211" lon="1.05064">
        <ele>205</ele>
        <time>2015-05-17T10:12:15Z</time>
      </trkpt>
      <trkpt lat="44.4623" lon="1.05054">
        <ele>205</ele>
        <time>2015-05-17T10:12:19Z</time>
      </trkpt>
      <trkpt lat="44.46235" lon="1.05053">
        <ele>205</ele>
        <time>2015-05-17T10:12:20Z</time>
      </trkpt>
      <trkpt lat="44.4624" lon="1.05053">
        <ele>205</ele>
        <time>2015-05-17T10:12:21Z</time>
      </trkpt>
      <trkpt lat="44.46294" lon="1.05052">
        <ele>206</ele>
        <time>2015-05-17T10:12:33Z</time>
      </trkpt>
      <trkpt lat="44.46325" lon="1.05041">
        <ele>208</ele>
        <time>2015-05-17T10:12:42Z</time>
      </trkpt>
      <trkpt lat="44.46327" lon="1.05036">
        <ele>208</ele>
        <time>2015-05-17T10:12:43Z</time>
      </trkpt>
      <trkpt lat="44.46331" lon="1.05025">
        <ele>208</ele>
        <time>2015-05-17T10:12:45Z</time>
      </trkpt>
      <trkpt lat="44.46339" lon="1.05002">
        <ele>207</ele>
        <time>2015-05-17T10:12:49Z</time>
      </trkpt>
      <trkpt lat="44.4634" lon="1.04995">
        <ele>207</ele>
        <time>2015-05-17T10:12:50Z</time>
      </trkpt>
      <trkpt lat="44.4634" lon="1.04988">
        <ele>207</ele>
        <time>2015-05-17T10:12:51Z</time>
      </trkpt>
      <trkpt lat="44.46339" lon="1.04982">
        <ele>207</ele>
        <time>2015-05-17T10:12:52Z</time>
      </trkpt>
      <trkpt lat="44.46338" lon="1.04976">
        <ele>207</ele>
        <time>2015-05-17T10:12:53Z</time>
      </trkpt>
      <trkpt lat="44.46337" lon="1.04971">
        <ele>207</ele>
        <time>2015-05-17T10:12:54Z</time>
      </trkpt>
      <trkpt lat="44.46335" lon="1.04965">
        <ele>207</ele>
        <time>2015-05-17T10:12:55Z</time>
      </trkpt>
      <trkpt lat="44.46332" lon="1.04954">
        <ele>207</ele>
        <time>2015-05-17T10:12:57Z</time>
      </trkpt>
      <trkpt lat="44.46319" lon="1.04921">
        <ele>208</ele>
        <time>2015-05-17T10:13:03Z</time>
      </trkpt>
      <trkpt lat="44.46316" lon="1.04915">
        <ele>208</ele>
        <time>2015-05-17T10:13:04Z</time>
      </trkpt>
      <trkpt lat="44.46313" lon="1.04905">
        <ele>208</ele>
        <time>2015-05-17T10:13:06Z</time>
      </trkpt>
      <trkpt lat="44.46311" lon="1.049">
        <ele>208</ele>
        <time>2015-05-17T10:13:07Z</time>
      </trkpt>
      <trkpt lat="44.46304" lon="1.04878">
        <ele>208</ele>
        <time>2015-05-17T10:13:11Z</time>
      </trkpt>
      <trkpt lat="44.46303" lon="1.04871">
        <ele>208</ele>
        <time>2015-05-17T10:13:12Z</time>
      </trkpt>
      <trkpt lat="44.46304" lon="1.04865">
        <ele>208</ele>
        <time>2015-05-17T10:13:13Z</time>
      </trkpt>
      <trkpt lat="44.46305" lon="1.0486">
        <ele>209</ele>
        <time>2015-05-17T10:13:14Z</time>
      </trkpt>
      <trkpt lat="44.46306" lon="1.04854">
        <ele>209</ele>
        <time>2015-05-17T10:13:15Z</time>
      </trkpt>
      <trkpt lat="44.46308" lon="1.04849">
        <ele>209</ele>
        <time>2015-05-17T10:13:16Z</time>
      </trkpt>
      <trkpt lat="44.46326" lon="1.0481">
        <ele>210</ele>
        <time>2015-05-17T10:13:24Z</time>
      </trkpt>
      <trkpt lat="44.46339" lon="1.04773">
        <ele>210</ele>
        <time>2015-05-17T10:13:31Z</time>
      </trkpt>
      <trkpt lat="44.46342" lon="1.04769">
        <ele>210</ele>
        <time>2015-05-17T10:13:32Z</time>
      </trkpt>
      <trkpt lat="44.46348" lon="1.0476">
        <ele>210</ele>
        <time>2015-05-17T10:13:34Z</time>
      </trkpt>
      <trkpt lat="44.46352" lon="1.04756">
        <ele>210</ele>
        <time>2015-05-17T10:13:35Z</time>
      </trkpt>
      <trkpt lat="44.46369" lon="1.04739">
        <ele>210</ele>
        <time>2015-05-17T10:13:40Z</time>
      </trkpt>
      <trkpt lat="44.46374" lon="1.04731">
        <ele>211</ele>
        <time>2015-05-17T10:13:42Z</time>
      </trkpt>
      <trkpt lat="44.46403" lon="1.04699">
        <ele>211</ele>
        <time>2015-05-17T10:13:51Z</time>
      </trkpt>
      <trkpt lat="44.46406" lon="1.04695">
        <ele>211</ele>
        <time>2015-05-17T10:13:52Z</time>
      </trkpt>
      <trkpt lat="44.46445" lon="1.04635">
        <ele>213</ele>
        <time>2015-05-17T10:14:05Z</time>
      </trkpt>
      <trkpt lat="44.46448" lon="1.04631">
        <ele>213</ele>
        <time>2015-05-17T10:14:06Z</time>
      </trkpt>
      <trkpt lat="44.46452" lon="1.04628">
        <ele>213</ele>
        <time>2015-05-17T10:14:07Z</time>
      </trkpt>
      <trkpt lat="44.46456" lon="1.04626">
        <ele>213</ele>
        <time>2015-05-17T10:14:08Z</time>
      </trkpt>
      <trkpt lat="44.46461" lon="1.04624">
        <ele>214</ele>
        <time>2015-05-17T10:14:09Z</time>
      </trkpt>
      <trkpt lat="44.46465" lon="1.04625">
        <ele>214</ele>
        <time>2015-05-17T10:14:10Z</time>
      </trkpt>
      <trkpt lat="44.46469" lon="1.04625">
        <ele>214</ele>
        <time>2015-05-17T10:14:11Z</time>
      </trkpt>
      <trkpt lat="44.4654" lon="1.0463">
        <ele>217</ele>
        <time>2015-05-17T10:14:28Z</time>
      </trkpt>
      <trkpt lat="44.46544" lon="1.04631">
        <ele>217</ele>
        <time>2015-05-17T10:14:29Z</time>
      </trkpt>
      <trkpt lat="44.46558" lon="1.04633">
        <ele>217</ele>
        <time>2015-05-17T10:14:32Z</time>
      </trkpt>
      <trkpt lat="44.46563" lon="1.04633">
        <ele>217</ele>
        <time>2015-05-17T10:14:33Z</time>
      </trkpt>
      <trkpt lat="44.46597" lon="1.04621">
        <ele>218</ele>
        <time>2015-05-17T10:14:41Z</time>
      </trkpt>
      <trkpt lat="44.46611" lon="1.0462">
        <ele>218</ele>
        <time>2015-05-17T10:14:44Z</time>
      </trkpt>
      <trkpt lat="44.46688" lon="1.04634">
        <ele>217</ele>
        <time>2015-05-17T10:14:58Z</time>
      </trkpt>
      <trkpt lat="44.46752" lon="1.04644">
        <ele>217</ele>
        <time>2015-05-17T10:15:09Z</time>
      </trkpt>
      <trkpt lat="44.46756" lon="1.04643">
        <ele>218</ele>
        <time>2015-05-17T10:15:10Z</time>
      </trkpt>
      <trkpt lat="44.4676" lon="1.0464">
        <ele>218</ele>
        <time>2015-05-17T10:15:11Z</time>
      </trkpt>
      <trkpt lat="44.46762" lon="1.04636">
        <ele>218</ele>
        <time>2015-05-17T10:15:12Z</time>
      </trkpt>
      <trkpt lat="44.46764" lon="1.04631">
        <ele>218</ele>
        <time>2015-05-17T10:15:13Z</time>
      </trkpt>
      <trkpt lat="44.46766" lon="1.04625">
        <ele>219</ele>
        <time>2015-05-17T10:15:14Z</time>
      </trkpt>
      <trkpt lat="44.46768" lon="1.04619">
        <ele>219</ele>
        <time>2015-05-17T10:15:15Z</time>
      </trkpt>
      <trkpt lat="44.4677" lon="1.04613">
        <ele>219</ele>
        <time>2015-05-17T10:15:16Z</time>
      </trkpt>
      <trkpt lat="44.46772" lon="1.04606">
        <ele>219</ele>
        <time>2015-05-17T10:15:17Z</time>
      </trkpt>
      <trkpt lat="44.46783" lon="1.04581">
        <ele>219</ele>
        <time>2015-05-17T10:15:21Z</time>
      </trkpt>
      <trkpt lat="44.46786" lon="1.04575">
        <ele>219</ele>
        <time>2015-05-17T10:15:22Z</time>
      </trkpt>
      <trkpt lat="44.46789" lon="1.0457">
        <ele>219</ele>
        <time>2015-05-17T10:15:23Z</time>
      </trkpt>
      <trkpt lat="44.46798" lon="1.04551">
        <ele>219</ele>
        <time>2015-05-17T10:15:26Z</time>
      </trkpt>
      <trkpt lat="44.46802" lon="1.04537">
        <ele>219</ele>
        <time>2015-05-17T10:15:28Z</time>
      </trkpt>
      <trkpt lat="44.46803" lon="1.0453">
        <ele>219</ele>
        <time>2015-05-17T10:15:29Z</time>
      </trkpt>
      <trkpt lat="44.46804" lon="1.04523">
        <ele>219</ele>
        <time>2015-05-17T10:15:30Z</time>
      </trkpt>
      <trkpt lat="44.46804" lon="1.04516">
        <ele>219</ele>
        <time>2015-05-17T10:15:31Z</time>
      </trkpt>
      <trkpt lat="44.46804" lon="1.04509">
        <ele>219</ele>
        <time>2015-05-17T10:15:32Z</time>
      </trkpt>
      <trkpt lat="44.46803" lon="1.04503">
        <ele>219</ele>
        <time>2015-05-17T10:15:33Z</time>
      </trkpt>
      <trkpt lat="44.468" lon="1.04498">
        <ele>219</ele>
        <time>2015-05-17T10:15:34Z</time>
      </trkpt>
      <trkpt lat="44.46798" lon="1.04493">
        <ele>218</ele>
        <time>2015-05-17T10:15:35Z</time>
      </trkpt>
      <trkpt lat="44.46796" lon="1.04487">
        <ele>218</ele>
        <time>2015-05-17T10:15:36Z</time>
      </trkpt>
      <trkpt lat="44.46795" lon="1.04481">
        <ele>218</ele>
        <time>2015-05-17T10:15:37Z</time>
      </trkpt>
      <trkpt lat="44.46784" lon="1.04386">
        <ele>217</ele>
        <time>2015-05-17T10:15:53Z</time>
      </trkpt>
      <trkpt lat="44.46773" lon="1.04302">
        <ele>221</ele>
        <time>2015-05-17T10:16:11Z</time>
      </trkpt>
      <trkpt lat="44.46763" lon="1.04235">
        <ele>227</ele>
        <time>2015-05-17T10:16:29Z</time>
      </trkpt>
      <trkpt lat="44.46741" lon="1.042">
        <ele>229</ele>
        <time>2015-05-17T10:16:41Z</time>
      </trkpt>
      <trkpt lat="44.46706" lon="1.04198">
        <ele>231</ele>
        <time>2015-05-17T10:16:54Z</time>
      </trkpt>
      <trkpt lat="44.46665" lon="1.04202">
        <ele>234</ele>
        <time>2015-05-17T10:17:05Z</time>
      </trkpt>
      <trkpt lat="44.46635" lon="1.04205">
        <ele>234</ele>
        <time>2015-05-17T10:17:13Z</time>
      </trkpt>
      <trkpt lat="44.46609" lon="1.04214">
        <ele>234</ele>
        <time>2015-05-17T10:17:19Z</time>
      </trkpt>
      <trkpt lat="44.466" lon="1.04222">
        <ele>233</ele>
        <time>2015-05-17T10:17:21Z</time>
      </trkpt>
      <trkpt lat="44.46572" lon="1.04236">
        <ele>231</ele>
        <time>2015-05-17T10:17:26Z</time>
      </trkpt>
      <trkpt lat="44.46491" lon="1.04234">
        <ele>224</ele>
        <time>2015-05-17T10:17:38Z</time>
      </trkpt>
      <trkpt lat="44.46485" lon="1.04234">
        <ele>223</ele>
        <time>2015-05-17T10:17:39Z</time>
      </trkpt>
      <trkpt lat="44.46475" lon="1.04213">
        <ele>220</ele>
        <time>2015-05-17T10:17:45Z</time>
      </trkpt>
      <trkpt lat="44.46483" lon="1.04173">
        <ele>219</ele>
        <time>2015-05-17T10:17:51Z</time>
      </trkpt>
      <trkpt lat="44.465" lon="1.04097">
        <ele>216</ele>
        <time>2015-05-17T10:18:03Z</time>
      </trkpt>
      <trkpt lat="44.46509" lon="1.04077">
        <ele>217</ele>
        <time>2015-05-17T10:18:07Z</time>
      </trkpt>
      <trkpt lat="44.46515" lon="1.0406">
        <ele>218</ele>
        <time>2015-05-17T10:18:10Z</time>
      </trkpt>
      <trkpt lat="44.46523" lon="1.04038">
        <ele>220</ele>
        <time>2015-05-17T10:18:14Z</time>
      </trkpt>
      <trkpt lat="44.46522" lon="1.04027">
        <ele>220</ele>
        <time>2015-05-17T10:18:16Z</time>
      </trkpt>
      <trkpt lat="44.46519" lon="1.04024">
        <ele>220</ele>
        <time>2015-05-17T10:18:17Z</time>
      </trkpt>
      <trkpt lat="44.46514" lon="1.04022">
        <ele>220</ele>
        <time>2015-05-17T10:18:18Z</time>
      </trkpt>
      <trkpt lat="44.46509" lon="1.04021">
        <ele>220</ele>
        <time>2015-05-17T10:18:19Z</time>
      </trkpt>
      <trkpt lat="44.46504" lon="1.04019">
        <ele>220</ele>
        <time>2015-05-17T10:18:20Z</time>
      </trkpt>
      <trkpt lat="44.46498" lon="1.04017">
        <ele>220</ele>
        <time>2015-05-17T10:18:21Z</time>
      </trkpt>
      <trkpt lat="44.4642" lon="1.03993">
        <ele>219</ele>
        <time>2015-05-17T10:18:33Z</time>
      </trkpt>
      <trkpt lat="44.4633" lon="1.03979">
        <ele>222</ele>
        <time>2015-05-17T10:18:47Z</time>
      </trkpt>
      <trkpt lat="44.46235" lon="1.03952">
        <ele>218</ele>
        <time>2015-05-17T10:19:00Z</time>
      </trkpt>
      <trkpt lat="44.46204" lon="1.03935">
        <ele>215</ele>
        <time>2015-05-17T10:19:04Z</time>
      </trkpt>
      <trkpt lat="44.46158" lon="1.03924">
        <ele>213</ele>
        <time>2015-05-17T10:19:10Z</time>
      </trkpt>
      <trkpt lat="44.46057" lon="1.0389">
        <ele>213</ele>
        <time>2015-05-17T10:19:24Z</time>
      </trkpt>
      <trkpt lat="44.46012" lon="1.03867">
        <ele>213</ele>
        <time>2015-05-17T10:19:30Z</time>
      </trkpt>
      <trkpt lat="44.45994" lon="1.03838">
        <ele>213</ele>
        <time>2015-05-17T10:19:34Z</time>
      </trkpt>
      <trkpt lat="44.45978" lon="1.03788">
        <ele>213</ele>
        <time>2015-05-17T10:19:40Z</time>
      </trkpt>
      <trkpt lat="44.45968" lon="1.03769">
        <ele>214</ele>
        <time>2015-05-17T10:19:44Z</time>
      </trkpt>
      <trkpt lat="44.4596" lon="1.03765">
        <ele>214</ele>
        <time>2015-05-17T10:19:46Z</time>
      </trkpt>
      <trkpt lat="44.45941" lon="1.03753">
        <ele>213</ele>
        <time>2015-05-17T10:19:50Z</time>
      </trkpt>
      <trkpt lat="44.45926" lon="1.03735">
        <ele>210</ele>
        <time>2015-05-17T10:19:54Z</time>
      </trkpt>
      <trkpt lat="44.45913" lon="1.03754">
        <ele>205</ele>
        <time>2015-05-17T10:20:01Z</time>
      </trkpt>
      <trkpt lat="44.45901" lon="1.03754">
        <ele>201</ele>
        <time>2015-05-17T10:20:06Z</time>
      </trkpt>
      <trkpt lat="44.45888" lon="1.03682">
        <ele>192</ele>
        <time>2015-05-17T10:20:15Z</time>
      </trkpt>
      <trkpt lat="44.45877" lon="1.03628">
        <ele>187</ele>
        <time>2015-05-17T10:20:22Z</time>
      </trkpt>
      <trkpt lat="44.45863" lon="1.03642">
        <ele>183</ele>
        <time>2015-05-17T10:20:28Z</time>
      </trkpt>
      <trkpt lat="44.45826" lon="1.0372">
        <ele>175</ele>
        <time>2015-05-17T10:20:38Z</time>
      </trkpt>
      <trkpt lat="44.4579" lon="1.03723">
        <ele>169</ele>
        <time>2015-05-17T10:20:45Z</time>
      </trkpt>
      <trkpt lat="44.45784" lon="1.03721">
        <ele>169</ele>
        <time>2015-05-17T10:20:46Z</time>
      </trkpt>
      <trkpt lat="44.45774" lon="1.03716">
        <ele>168</ele>
        <time>2015-05-17T10:20:48Z</time>
      </trkpt>
      <trkpt lat="44.45771" lon="1.03712">
        <ele>168</ele>
        <time>2015-05-17T10:20:49Z</time>
      </trkpt>
      <trkpt lat="44.4577" lon="1.03707">
        <ele>167</ele>
        <time>2015-05-17T10:20:50Z</time>
      </trkpt>
      <trkpt lat="44.45771" lon="1.03702">
        <ele>167</ele>
        <time>2015-05-17T10:20:51Z</time>
      </trkpt>
      <trkpt lat="44.45772" lon="1.03696">
        <ele>167</ele>
        <time>2015-05-17T10:20:52Z</time>
      </trkpt>
      <trkpt lat="44.45776" lon="1.03674">
        <ele>166</ele>
        <time>2015-05-17T10:20:55Z</time>
      </trkpt>
      <trkpt lat="44.45805" lon="1.03519">
        <ele>165</ele>
        <time>2015-05-17T10:21:11Z</time>
      </trkpt>
      <trkpt lat="44.45835" lon="1.0335">
        <ele>163</ele>
        <time>2015-05-17T10:21:28Z</time>
      </trkpt>
      <trkpt lat="44.45863" lon="1.03199">
        <ele>165</ele>
        <time>2015-05-17T10:21:45Z</time>
      </trkpt>
      <trkpt lat="44.45885" lon="1.03065">
        <ele>169</ele>
        <time>2015-05-17T10:22:01Z</time>
      </trkpt>
      <trkpt lat="44.45893" lon="1.02929">
        <ele>164</ele>
        <time>2015-05-17T10:22:15Z</time>
      </trkpt>
      <trkpt lat="44.45894" lon="1.02919">
        <ele>164</ele>
        <time>2015-05-17T10:22:16Z</time>
      </trkpt>
      <trkpt lat="44.45894" lon="1.0291">
        <ele>164</ele>
        <time>2015-05-17T10:22:17Z</time>
      </trkpt>
      <trkpt lat="44.45895" lon="1.02899">
        <ele>164</ele>
        <time>2015-05-17T10:22:18Z</time>
      </trkpt>
      <trkpt lat="44.45895" lon="1.02888">
        <ele>164</ele>
        <time>2015-05-17T10:22:19Z</time>
      </trkpt>
      <trkpt lat="44.45894" lon="1.02878">
        <ele>163</ele>
        <time>2015-05-17T10:22:20Z</time>
      </trkpt>
      <trkpt lat="44.45893" lon="1.02868">
        <ele>163</ele>
        <time>2015-05-17T10:22:21Z</time>
      </trkpt>
      <trkpt lat="44.45892" lon="1.02858">
        <ele>163</ele>
        <time>2015-05-17T10:22:22Z</time>
      </trkpt>
      <trkpt lat="44.45865" lon="1.02755">
        <ele>165</ele>
        <time>2015-05-17T10:22:34Z</time>
      </trkpt>
      <trkpt lat="44.45863" lon="1.02749">
        <ele>165</ele>
        <time>2015-05-17T10:22:35Z</time>
      </trkpt>
      <trkpt lat="44.45859" lon="1.02735">
        <ele>165</ele>
        <time>2015-05-17T10:22:37Z</time>
      </trkpt>
      <trkpt lat="44.45854" lon="1.02721">
        <ele>165</ele>
        <time>2015-05-17T10:22:39Z</time>
      </trkpt>
      <trkpt lat="44.45845" lon="1.02702">
        <ele>164</ele>
        <time>2015-05-17T10:22:42Z</time>
      </trkpt>
      <trkpt lat="44.45839" lon="1.02686">
        <ele>163</ele>
        <time>2015-05-17T10:22:44Z</time>
      </trkpt>
      <trkpt lat="44.45835" lon="1.0267">
        <ele>163</ele>
        <time>2015-05-17T10:22:46Z</time>
      </trkpt>
      <trkpt lat="44.45835" lon="1.02592">
        <ele>159</ele>
        <time>2015-05-17T10:22:55Z</time>
      </trkpt>
      <trkpt lat="44.45831" lon="1.02552">
        <ele>156</ele>
        <time>2015-05-17T10:23:00Z</time>
      </trkpt>
      <trkpt lat="44.45824" lon="1.02522">
        <ele>155</ele>
        <time>2015-05-17T10:23:04Z</time>
      </trkpt>
      <trkpt lat="44.45793" lon="1.02444">
        <ele>149</ele>
        <time>2015-05-17T10:23:15Z</time>
      </trkpt>
      <trkpt lat="44.45791" lon="1.02436">
        <ele>148</ele>
        <time>2015-05-17T10:23:16Z</time>
      </trkpt>
      <trkpt lat="44.4579" lon="1.02428">
        <ele>148</ele>
        <time>2015-05-17T10:23:17Z</time>
      </trkpt>
      <trkpt lat="44.45788" lon="1.02419">
        <ele>147</ele>
        <time>2015-05-17T10:23:18Z</time>
      </trkpt>
      <trkpt lat="44.45787" lon="1.0241">
        <ele>147</ele>
        <time>2015-05-17T10:23:19Z</time>
      </trkpt>
      <trkpt lat="44.45782" lon="1.02376">
        <ele>147</ele>
        <time>2015-05-17T10:23:23Z</time>
      </trkpt>
      <trkpt lat="44.45777" lon="1.02342">
        <ele>147</ele>
        <time>2015-05-17T10:23:27Z</time>
      </trkpt>
      <trkpt lat="44.45772" lon="1.02318">
        <ele>146</ele>
        <time>2015-05-17T10:23:30Z</time>
      </trkpt>
      <trkpt lat="44.45767" lon="1.02303">
        <ele>146</ele>
        <time>2015-05-17T10:23:32Z</time>
      </trkpt>
      <trkpt lat="44.45764" lon="1.02298">
        <ele>146</ele>
        <time>2015-05-17T10:23:33Z</time>
      </trkpt>
      <trkpt lat="44.45754" lon="1.02294">
        <ele>146</ele>
        <time>2015-05-17T10:23:35Z</time>
      </trkpt>
      <trkpt lat="44.45743" lon="1.02293">
        <ele>147</ele>
        <time>2015-05-17T10:23:37Z</time>
      </trkpt>
      <trkpt lat="44.45721" lon="1.02283">
        <ele>148</ele>
        <time>2015-05-17T10:23:41Z</time>
      </trkpt>
      <trkpt lat="44.45707" lon="1.02273">
        <ele>148</ele>
        <time>2015-05-17T10:23:44Z</time>
      </trkpt>
      <trkpt lat="44.45692" lon="1.02266">
        <ele>147</ele>
        <time>2015-05-17T10:23:47Z</time>
      </trkpt>
      <trkpt lat="44.45665" lon="1.0226">
        <ele>146</ele>
        <time>2015-05-17T10:23:53Z</time>
      </trkpt>
      <trkpt lat="44.45648" lon="1.02254">
        <ele>145</ele>
        <time>2015-05-17T10:23:56Z</time>
      </trkpt>
      <trkpt lat="44.45629" lon="1.02249">
        <ele>145</ele>
        <time>2015-05-17T10:24:00Z</time>
      </trkpt>
      <trkpt lat="44.4561" lon="1.02236">
        <ele>146</ele>
        <time>2015-05-17T10:24:04Z</time>
      </trkpt>
      <trkpt lat="44.45579" lon="1.02208">
        <ele>145</ele>
        <time>2015-05-17T10:24:10Z</time>
      </trkpt>
      <trkpt lat="44.4556" lon="1.02184">
        <ele>143</ele>
        <time>2015-05-17T10:24:14Z</time>
      </trkpt>
      <trkpt lat="44.45563" lon="1.02151">
        <ele>141</ele>
        <time>2015-05-17T10:24:21Z</time>
      </trkpt>
      <trkpt lat="44.45572" lon="1.02148">
        <ele>142</ele>
        <time>2015-05-17T10:24:23Z</time>
      </trkpt>
      <trkpt lat="44.45581" lon="1.02145">
        <ele>143</ele>
        <time>2015-05-17T10:24:25Z</time>
      </trkpt>
      <trkpt lat="44.45599" lon="1.02145">
        <ele>145</ele>
        <time>2015-05-17T10:24:29Z</time>
      </trkpt>
      <trkpt lat="44.45624" lon="1.02139">
        <ele>150</ele>
        <time>2015-05-17T10:24:38Z</time>
      </trkpt>
      <trkpt lat="44.45625" lon="1.02136">
        <ele>150</ele>
        <time>2015-05-17T10:24:39Z</time>
      </trkpt>
      <trkpt lat="44.45625" lon="1.02133">
        <ele>150</ele>
        <time>2015-05-17T10:24:40Z</time>
      </trkpt>
      <trkpt lat="44.45625" lon="1.02131">
        <ele>151</ele>
        <time>2015-05-17T10:24:41Z</time>
      </trkpt>
      <trkpt lat="44.45625" lon="1.02128">
        <ele>151</ele>
        <time>2015-05-17T10:24:42Z</time>
      </trkpt>
      <trkpt lat="44.45625" lon="1.02125">
        <ele>152</ele>
        <time>2015-05-17T10:24:43Z</time>
      </trkpt>
      <trkpt lat="44.45625" lon="1.02122">
        <ele>152</ele>
        <time>2015-05-17T10:24:44Z</time>
      </trkpt>
      <trkpt lat="44.45612" lon="1.02062">
        <ele>151</ele>
        <time>2015-05-17T10:24:54Z</time>
      </trkpt>
      <trkpt lat="44.45601" lon="1.02006">
        <ele>150</ele>
        <time>2015-05-17T10:25:00Z</time>
      </trkpt>
      <trkpt lat="44.4556" lon="1.01908">
        <ele>152</ele>
        <time>2015-05-17T10:25:13Z</time>
      </trkpt>
      <trkpt lat="44.45545" lon="1.01877">
        <ele>152</ele>
        <time>2015-05-17T10:25:17Z</time>
      </trkpt>
      <trkpt lat="44.45486" lon="1.01767">
        <ele>147</ele>
        <time>2015-05-17T10:25:29Z</time>
      </trkpt>
      <trkpt lat="44.45459" lon="1.0164">
        <ele>146</ele>
        <time>2015-05-17T10:25:41Z</time>
      </trkpt>
      <trkpt lat="44.45439" lon="1.01541">
        <ele>146</ele>
        <time>2015-05-17T10:25:51Z</time>
      </trkpt>
      <trkpt lat="44.45439" lon="1.01531">
        <ele>146</ele>
        <time>2015-05-17T10:25:52Z</time>
      </trkpt>
      <trkpt lat="44.45443" lon="1.01477">
        <ele>147</ele>
        <time>2015-05-17T10:25:58Z</time>
      </trkpt>
      <trkpt lat="44.45442" lon="1.01469">
        <ele>147</ele>
        <time>2015-05-17T10:25:59Z</time>
      </trkpt>
      <trkpt lat="44.45441" lon="1.01441">
        <ele>146</ele>
        <time>2015-05-17T10:26:02Z</time>
      </trkpt>
      <trkpt lat="44.45417" lon="1.01322">
        <ele>144</ele>
        <time>2015-05-17T10:26:14Z</time>
      </trkpt>
      <trkpt lat="44.45378" lon="1.01206">
        <ele>145</ele>
        <time>2015-05-17T10:26:28Z</time>
      </trkpt>
      <trkpt lat="44.45366" lon="1.01174">
        <ele>144</ele>
        <time>2015-05-17T10:26:32Z</time>
      </trkpt>
      <trkpt lat="44.45347" lon="1.01132">
        <ele>143</ele>
        <time>2015-05-17T10:26:41Z</time>
      </trkpt>
      <trkpt lat="44.45346" lon="1.01129">
        <ele>143</ele>
        <time>2015-05-17T10:26:43Z</time>
      </trkpt>
      <trkpt lat="44.45345" lon="1.01127">
        <ele>143</ele>
        <time>2015-05-17T10:26:44Z</time>
      </trkpt>
      <trkpt lat="44.45344" lon="1.01123">
        <ele>143</ele>
        <time>2015-05-17T10:26:45Z</time>
      </trkpt>
      <trkpt lat="44.45343" lon="1.0112">
        <ele>143</ele>
        <time>2015-05-17T10:26:46Z</time>
      </trkpt>
      <trkpt lat="44.45343" lon="1.01115">
        <ele>143</ele>
        <time>2015-05-17T10:26:47Z</time>
      </trkpt>
      <trkpt lat="44.45342" lon="1.01109">
        <ele>143</ele>
        <time>2015-05-17T10:26:48Z</time>
      </trkpt>
      <trkpt lat="44.45336" lon="1.01069">
        <ele>143</ele>
        <time>2015-05-17T10:26:54Z</time>
      </trkpt>
      <trkpt lat="44.45335" lon="1.01061">
        <ele>143</ele>
        <time>2015-05-17T10:26:55Z</time>
      </trkpt>
      <trkpt lat="44.45333" lon="1.01037">
        <ele>143</ele>
        <time>2015-05-17T10:26:58Z</time>
      </trkpt>
      <trkpt lat="44.45333" lon="1.01029">
        <ele>143</ele>
        <time>2015-05-17T10:26:59Z</time>
      </trkpt>
      <trkpt lat="44.45332" lon="1.01021">
        <ele>143</ele>
        <time>2015-05-17T10:27:00Z</time>
      </trkpt>
      <trkpt lat="44.4533" lon="1.01013">
        <ele>143</ele>
        <time>2015-05-17T10:27:01Z</time>
      </trkpt>
      <trkpt lat="44.45328" lon="1.01005">
        <ele>143</ele>
        <time>2015-05-17T10:27:02Z</time>
      </trkpt>
      <trkpt lat="44.45313" lon="1.00953">
        <ele>144</ele>
        <time>2015-05-17T10:27:08Z</time>
      </trkpt>
      <trkpt lat="44.4531" lon="1.00944">
        <ele>144</ele>
        <time>2015-05-17T10:27:09Z</time>
      </trkpt>
      <trkpt lat="44.45284" lon="1.00829">
        <ele>143</ele>
        <time>2015-05-17T10:27:21Z</time>
      </trkpt>
      <trkpt lat="44.45269" lon="1.00748">
        <ele>141</ele>
        <time>2015-05-17T10:27:29Z</time>
      </trkpt>
      <trkpt lat="44.45268" lon="1.00737">
        <ele>140</ele>
        <time>2015-05-17T10:27:30Z</time>
      </trkpt>
      <trkpt lat="44.45269" lon="1.00705">
        <ele>140</ele>
        <time>2015-05-17T10:27:33Z</time>
      </trkpt>
      <trkpt lat="44.45277" lon="1.00624">
        <ele>139</ele>
        <time>2015-05-17T10:27:42Z</time>
      </trkpt>
      <trkpt lat="44.45277" lon="1.0061">
        <ele>139</ele>
        <time>2015-05-17T10:27:44Z</time>
      </trkpt>
      <trkpt lat="44.45278" lon="1.00604">
        <ele>139</ele>
        <time>2015-05-17T10:27:45Z</time>
      </trkpt>
      <trkpt lat="44.4528" lon="1.006">
        <ele>139</ele>
        <time>2015-05-17T10:27:46Z</time>
      </trkpt>
      <trkpt lat="44.45283" lon="1.00599">
        <ele>139</ele>
        <time>2015-05-17T10:27:47Z</time>
      </trkpt>
      <trkpt lat="44.45287" lon="1.006">
        <ele>139</ele>
        <time>2015-05-17T10:27:48Z</time>
      </trkpt>
      <trkpt lat="44.45335" lon="1.00584">
        <ele>140</ele>
        <time>2015-05-17T10:28:01Z</time>
      </trkpt>
      <trkpt lat="44.45387" lon="1.0054">
        <ele>143</ele>
        <time>2015-05-17T10:28:18Z</time>
      </trkpt>
      <trkpt lat="44.45429" lon="1.00502">
        <ele>146</ele>
        <time>2015-05-17T10:28:33Z</time>
      </trkpt>
      <trkpt lat="44.45459" lon="1.00477">
        <ele>148</ele>
        <time>2015-05-17T10:28:45Z</time>
      </trkpt>
      <trkpt lat="44.45491" lon="1.00451">
        <ele>150</ele>
        <time>2015-05-17T10:28:57Z</time>
      </trkpt>
      <trkpt lat="44.45536" lon="1.00431">
        <ele>151</ele>
        <time>2015-05-17T10:29:11Z</time>
      </trkpt>
      <trkpt lat="44.45588" lon="1.00411">
        <ele>152</ele>
        <time>2015-05-17T10:29:25Z</time>
      </trkpt>
      <trkpt lat="44.45637" lon="1.00408">
        <ele>153</ele>
        <time>2015-05-17T10:29:39Z</time>
      </trkpt>
      <trkpt lat="44.4567" lon="1.00377">
        <ele>153</ele>
        <time>2015-05-17T10:29:51Z</time>
      </trkpt>
      <trkpt lat="44.45704" lon="1.00346">
        <ele>155</ele>
        <time>2015-05-17T10:30:03Z</time>
      </trkpt>
      <trkpt lat="44.45752" lon="1.0031">
        <ele>157</ele>
        <time>2015-05-17T10:30:18Z</time>
      </trkpt>
      <trkpt lat="44.45795" lon="1.00285">
        <ele>160</ele>
        <time>2015-05-17T10:30:32Z</time>
      </trkpt>
      <trkpt lat="44.45843" lon="1.0026">
        <ele>162</ele>
        <time>2015-05-17T10:30:46Z</time>
      </trkpt>
      <trkpt lat="44.45895" lon="1.00236">
        <ele>164</ele>
        <time>2015-05-17T10:31:01Z</time>
      </trkpt>
      <trkpt lat="44.45955" lon="1.00223">
        <ele>166</ele>
        <time>2015-05-17T10:31:17Z</time>
      </trkpt>
      <trkpt lat="44.46011" lon="1.00227">
        <ele>171</ele>
        <time>2015-05-17T10:31:33Z</time>
      </trkpt>
      <trkpt lat="44.46049" lon="1.00237">
        <ele>170</ele>
        <time>2015-05-17T10:31:45Z</time>
      </trkpt>
      <trkpt lat="44.461" lon="1.00236">
        <ele>172</ele>
        <time>2015-05-17T10:32:02Z</time>
      </trkpt>
      <trkpt lat="44.4615" lon="1.00226">
        <ele>174</ele>
        <time>2015-05-17T10:32:20Z</time>
      </trkpt>
      <trkpt lat="44.46196" lon="1.00232">
        <ele>176</ele>
        <time>2015-05-17T10:32:37Z</time>
      </trkpt>
      <trkpt lat="44.46235" lon="1.00236">
        <ele>178</ele>
        <time>2015-05-17T10:32:51Z</time>
      </trkpt>
      <trkpt lat="44.46277" lon="1.0021">
        <ele>181</ele>
        <time>2015-05-17T10:33:08Z</time>
      </trkpt>
      <trkpt lat="44.46302" lon="1.00171">
        <ele>183</ele>
        <time>2015-05-17T10:33:23Z</time>
      </trkpt>
      <trkpt lat="44.46323" lon="1.00139">
        <ele>184</ele>
        <time>2015-05-17T10:33:36Z</time>
      </trkpt>
      <trkpt lat="44.46356" lon="1.00111">
        <ele>186</ele>
        <time>2015-05-17T10:33:53Z</time>
      </trkpt>
      <trkpt lat="44.46374" lon="1.00098">
        <ele>190</ele>
        <time>2015-05-17T10:34:04Z</time>
      </trkpt>
      <trkpt lat="44.46375" lon="1.00097">
        <ele>190</ele>
        <time>2015-05-17T10:34:05Z</time>
      </trkpt>
      <trkpt lat="44.46377" lon="1.00094">
        <ele>190</ele>
        <time>2015-05-17T10:34:06Z</time>
      </trkpt>
      <trkpt lat="44.46379" lon="1.00092">
        <ele>190</ele>
        <time>2015-05-17T10:34:07Z</time>
      </trkpt>
      <trkpt lat="44.46381" lon="1.0009">
        <ele>190</ele>
        <time>2015-05-17T10:34:08Z</time>
      </trkpt>
      <trkpt lat="44.46384" lon="1.00087">
        <ele>190</ele>
        <time>2015-05-17T10:34:09Z</time>
      </trkpt>
      <trkpt lat="44.46386" lon="1.00085">
        <ele>190</ele>
        <time>2015-05-17T10:34:10Z</time>
      </trkpt>
      <trkpt lat="44.4643" lon="1.00056">
        <ele>187</ele>
        <time>2015-05-17T10:34:20Z</time>
      </trkpt>
      <trkpt lat="44.46479" lon="1.00027">
        <ele>180</ele>
        <time>2015-05-17T10:34:28Z</time>
      </trkpt>
      <trkpt lat="44.46484" lon="1.00021">
        <ele>179</ele>
        <time>2015-05-17T10:34:29Z</time>
      </trkpt>
      <trkpt lat="44.46493" lon="1.00012">
        <ele>177</ele>
        <time>2015-05-17T10:34:31Z</time>
      </trkpt>
      <trkpt lat="44.46536" lon="0.99974">
        <ele>173</ele>
        <time>2015-05-17T10:34:39Z</time>
      </trkpt>
      <trkpt lat="44.46541" lon="0.9997">
        <ele>172</ele>
        <time>2015-05-17T10:34:40Z</time>
      </trkpt>
      <trkpt lat="44.46569" lon="0.99947">
        <ele>171</ele>
        <time>2015-05-17T10:34:45Z</time>
      </trkpt>
      <trkpt lat="44.46574" lon="0.99942">
        <ele>171</ele>
        <time>2015-05-17T10:34:46Z</time>
      </trkpt>
      <trkpt lat="44.46577" lon="0.99937">
        <ele>170</ele>
        <time>2015-05-17T10:34:47Z</time>
      </trkpt>
      <trkpt lat="44.4658" lon="0.99932">
        <ele>170</ele>
        <time>2015-05-17T10:34:48Z</time>
      </trkpt>
      <trkpt lat="44.46584" lon="0.99928">
        <ele>169</ele>
        <time>2015-05-17T10:34:49Z</time>
      </trkpt>
      <trkpt lat="44.46589" lon="0.99924">
        <ele>169</ele>
        <time>2015-05-17T10:34:50Z</time>
      </trkpt>
      <trkpt lat="44.46624" lon="0.99896">
        <ele>168</ele>
        <time>2015-05-17T10:34:58Z</time>
      </trkpt>
      <trkpt lat="44.46628" lon="0.99893">
        <ele>168</ele>
        <time>2015-05-17T10:34:59Z</time>
      </trkpt>
      <trkpt lat="44.46651" lon="0.99873">
        <ele>168</ele>
        <time>2015-05-17T10:35:07Z</time>
      </trkpt>
      <trkpt lat="44.46657" lon="0.9988">
        <ele>169</ele>
        <time>2015-05-17T10:35:15Z</time>
      </trkpt>
      <trkpt lat="44.46659" lon="0.99879">
        <ele>169</ele>
        <time>2015-05-17T10:35:38Z</time>
      </trkpt>
      <trkpt lat="44.4666" lon="0.99879">
        <ele>169</ele>
        <time>2015-05-17T10:36:01Z</time>
      </trkpt>
    </trkseg>
  </trk>
</gpx>